Time,TemperatureF,DewpointF,PressureIn,WindDirection,WindDirectionDegrees,WindSpeedMPH,WindSpeedGustMPH,Humidity,HourlyPrecipIn,Conditions,Clouds,dailyrainin,SoftwareType,DateUTC
2013-02-04 00:00:00,50.0,34.9,30.15,NNW,338,0.0,0.0,56,0.00,,---,0.00,VWS V14.01,2013-02-04 05:00:00,
2013-02-04 00:01:00,53.1,35.4,30.12,NNW,338,0.0,0.0,51,0.00,,---,0.00,VWS V14.01,2013-02-04 05:01:00,
2013-02-04 00:02:00,50.0,34.9,30.15,NNW,338,0.0,0.0,56,0.00,,---,0.00,VWS V14.01,2013-02-04 05:02:00,
2013-02-04 00:03:00,50.0,34.9,30.15,NNW,338,0.0,0.0,56,0.00,,---,0.00,VWS V14.01,2013-02-04 05:03:00,
2013-02-04 00:04:00,52.9,35.3,30.15,NNW,338,0.0,0.0,51,0.00,,---,0.00,VWS V14.01,2013-02-04 05:04:00,
2013-02-04 00:05:00,52.7,35.1,30.15,NNW,338,0.0,0.0,51,0.00,,---,0.00,VWS V14.01,2013-02-04 05:05:00,
2013-02-04 00:06:00,52.3,34.8,30.15,NNW,338,0.0,0.0,51,0.00,,---,0.00,VWS V14.01,2013-02-04 05:06:00,
2013-02-04 00:07:00,52.3,34.8,30.15,NNW,338,0.0,0.0,51,0.00,,---,0.00,VWS V14.01,2013-02-04 05:07:00,
2013-02-04 00:08:00,49.6,34.2,30.15,NNW,338,0.0,0.0,55,0.00,,---,0.00,VWS V14.01,2013-02-04 05:08:00,
2013-02-04 00:09:00,52.0,34.4,30.15,NNW,338,0.0,0.0,51,0.00,,---,0.00,VWS V14.01,2013-02-04 05:09:00,
2013-02-04 00:10:00,51.8,34.3,30.15,NNW,338,0.0,0.0,51,0.00,,---,0.00,VWS V14.01,2013-02-04 05:10:00,
2013-02-04 00:11:00,51.8,34.3,30.15,NNW,338,0.0,0.0,51,0.00,,---,0.00,VWS V14.01,2013-02-04 05:11:00,
2013-02-04 00:12:00,51.6,34.1,30.15,NNW,338,0.0,0.0,51,0.00,,---,0.00,VWS V14.01,2013-02-04 05:12:00,
2013-02-04 00:13:00,48.9,33.5,30.15,NNW,338,0.0,0.0,55,0.00,,---,0.00,VWS V14.01,2013-02-04 05:13:00,
2013-02-04 00:14:00,51.4,34.4,30.15,NNW,338,0.0,0.0,52,0.00,,---,0.00,VWS V14.01,2013-02-04 05:14:00,
2013-02-04 00:15:00,51.4,34.4,30.15,NNW,338,0.0,0.0,52,0.00,,---,0.00,VWS V14.01,2013-02-04 05:15:00,
2013-02-04 00:16:00,51.4,34.4,30.15,NNW,338,0.0,0.0,52,0.00,,---,0.00,VWS V14.01,2013-02-04 05:16:00,
2013-02-04 00:17:00,51.3,34.2,30.15,NNW,338,0.0,0.0,52,0.00,,---,0.00,VWS V14.01,2013-02-04 05:17:00,
2013-02-04 00:18:00,48.7,33.3,30.15,NNW,338,0.0,0.0,55,0.00,,---,0.00,VWS V14.01,2013-02-04 05:18:00,
2013-02-04 00:19:00,51.3,34.2,30.15,NNW,338,0.0,0.0,52,0.00,,---,0.00,VWS V14.01,2013-02-04 05:19:00,
2013-02-04 00:20:00,51.1,34.1,30.15,NNW,338,0.0,0.0,52,0.00,,---,0.00,VWS V14.01,2013-02-04 05:20:00,
2013-02-04 00:21:00,51.1,34.1,30.15,NNW,338,0.0,0.0,52,0.00,,---,0.00,VWS V14.01,2013-02-04 05:21:00,
2013-02-04 00:22:00,50.9,33.9,30.15,NNW,338,0.0,0.0,52,0.00,,---,0.00,VWS V14.01,2013-02-04 05:22:00,
2013-02-04 00:23:00,48.2,32.8,30.15,NNW,338,0.0,0.0,55,0.00,,---,0.00,VWS V14.01,2013-02-04 05:23:00,
2013-02-04 00:24:00,50.7,34.2,30.15,NNW,338,0.0,0.0,53,0.00,,---,0.00,VWS V14.01,2013-02-04 05:24:00,
2013-02-04 00:25:00,50.7,34.2,30.15,NNW,338,0.0,0.0,53,0.00,,---,0.00,VWS V14.01,2013-02-04 05:25:00,
2013-02-04 00:26:00,50.5,34.1,30.15,NNW,338,0.0,0.0,53,0.00,,---,0.00,VWS V14.01,2013-02-04 05:26:00,
2013-02-04 00:27:00,50.5,34.1,30.15,NNW,338,0.0,0.0,53,0.00,,---,0.00,VWS V14.01,2013-02-04 05:27:00,
2013-02-04 00:28:00,47.5,32.6,30.15,NNW,338,0.0,0.0,56,0.00,,---,0.00,VWS V14.01,2013-02-04 05:28:00,
2013-02-04 00:29:00,50.4,33.9,30.15,NNW,338,0.0,0.0,53,0.00,,---,0.00,VWS V14.01,2013-02-04 05:29:00,
2013-02-04 00:30:00,50.2,33.7,30.15,NNW,338,0.0,0.0,53,0.00,,---,0.00,VWS V14.01,2013-02-04 05:30:00,
2013-02-04 00:31:00,50.2,33.7,30.15,NNW,338,0.0,0.0,53,0.00,,---,0.00,VWS V14.01,2013-02-04 05:31:00,
2013-02-04 00:32:00,50.2,33.7,30.15,NNW,338,0.0,0.0,53,0.00,,---,0.00,VWS V14.01,2013-02-04 05:32:00,
2013-02-04 00:33:00,46.9,32.5,30.12,NNW,338,0.0,0.0,57,0.00,,---,0.00,VWS V14.01,2013-02-04 05:33:00,
2013-02-04 00:34:00,50.0,34.0,30.15,NNW,338,0.0,0.0,54,0.00,,---,0.00,VWS V14.01,2013-02-04 05:34:00,
2013-02-04 00:35:00,50.0,34.0,30.15,NNW,338,0.0,0.0,54,0.00,,---,0.00,VWS V14.01,2013-02-04 05:35:00,
2013-02-04 00:36:00,49.8,34.3,30.15,NNW,338,0.0,0.0,55,0.00,,---,0.00,VWS V14.01,2013-02-04 05:36:00,
2013-02-04 00:37:00,49.6,34.2,30.15,NNW,338,0.0,0.0,55,0.00,,---,0.00,VWS V14.01,2013-02-04 05:37:00,
2013-02-04 00:38:00,46.4,32.4,30.12,NNW,338,0.0,0.0,58,0.00,,---,0.00,VWS V14.01,2013-02-04 05:38:00,
2013-02-04 00:39:00,49.5,34.0,30.15,NNW,338,0.0,0.0,55,0.00,,---,0.00,VWS V14.01,2013-02-04 05:39:00,
2013-02-04 00:40:00,49.3,33.8,30.15,NNW,338,0.0,0.0,55,0.00,,---,0.00,VWS V14.01,2013-02-04 05:40:00,
2013-02-04 00:41:00,49.3,33.8,30.15,NNW,338,0.0,0.0,55,0.00,,---,0.00,VWS V14.01,2013-02-04 05:41:00,
2013-02-04 00:42:00,49.3,33.8,30.15,NNE,22,0.0,0.0,55,0.00,,---,0.00,VWS V14.01,2013-02-04 05:42:00,
2013-02-04 00:43:00,46.2,32.3,30.12,NNW,338,0.0,0.0,58,0.00,,---,0.00,VWS V14.01,2013-02-04 05:43:00,
2013-02-04 00:44:00,49.8,34.8,30.15,NNW,338,0.0,0.0,56,0.00,,---,0.00,VWS V14.01,2013-02-04 05:44:00,
2013-02-04 00:45:00,50.0,35.4,30.15,NNW,338,0.0,0.0,57,0.00,,---,0.00,VWS V14.01,2013-02-04 05:45:00,
2013-02-04 00:46:00,50.2,35.5,30.15,NNW,338,0.0,0.0,57,0.00,,---,0.00,VWS V14.01,2013-02-04 05:46:00,
2013-02-04 00:47:00,50.4,36.2,30.15,NNW,338,0.0,0.0,58,0.00,,---,0.00,VWS V14.01,2013-02-04 05:47:00,
2013-02-04 00:48:00,45.5,31.6,30.12,NNW,338,0.0,0.0,58,0.00,,---,0.00,VWS V14.01,2013-02-04 05:48:00,
2013-02-04 00:49:00,50.5,36.3,30.15,WNW,292,0.0,0.0,58,0.00,,---,0.00,VWS V14.01,2013-02-04 05:49:00,
2013-02-04 00:50:00,50.4,35.7,30.15,WNW,292,0.0,0.0,57,0.00,,---,0.00,VWS V14.01,2013-02-04 05:50:00,
2013-02-04 00:51:00,50.4,35.7,30.15,WNW,292,0.0,0.0,57,0.00,,---,0.00,VWS V14.01,2013-02-04 05:51:00,
2013-02-04 00:52:00,50.2,35.1,30.15,NW,315,0.0,0.0,56,0.00,,---,0.00,VWS V14.01,2013-02-04 05:52:00,
2013-02-04 00:53:00,45.1,31.7,30.12,NNW,338,0.0,0.0,59,0.00,,---,0.00,VWS V14.01,2013-02-04 05:53:00,
2013-02-04 00:54:00,49.8,34.8,30.15,WNW,292,0.0,0.0,56,0.00,,---,0.00,VWS V14.01,2013-02-04 05:54:00,
2013-02-04 00:55:00,49.8,34.8,30.15,WNW,292,0.0,0.0,56,0.00,,---,0.00,VWS V14.01,2013-02-04 05:55:00,
2013-02-04 00:56:00,49.8,34.8,30.15,WNW,292,0.0,0.0,56,0.00,,---,0.00,VWS V14.01,2013-02-04 05:56:00,
2013-02-04 00:57:00,49.8,34.8,30.15,NNW,338,0.0,0.0,56,0.00,,---,0.00,VWS V14.01,2013-02-04 05:57:00,
2013-02-04 00:58:00,44.8,30.9,30.12,WNW,292,0.0,0.0,58,0.00,,---,0.00,VWS V14.01,2013-02-04 05:58:00,
2013-02-04 00:59:00,50.0,35.4,30.15,NNW,338,0.0,0.0,57,0.00,,---,0.00,VWS V14.01,2013-02-04 05:59:00,
2013-02-04 01:00:00,50.2,36.0,30.15,NNW,338,0.0,0.0,58,0.00,,---,0.00,VWS V14.01,2013-02-04 06:00:00,
2013-02-04 01:01:00,50.4,36.2,30.15,NW,315,0.0,0.0,58,0.00,,---,0.00,VWS V14.01,2013-02-04 06:01:00,
2013-02-04 01:02:00,50.5,36.3,30.15,NNW,338,0.0,0.0,58,0.00,,---,0.00,VWS V14.01,2013-02-04 06:02:00,
2013-02-04 01:03:00,44.2,31.2,30.12,WNW,292,0.0,0.0,60,0.00,,---,0.00,VWS V14.01,2013-02-04 06:03:00,
2013-02-04 01:04:00,50.5,35.9,30.15,NNW,338,0.0,0.0,57,0.00,,---,0.00,VWS V14.01,2013-02-04 06:04:00,
2013-02-04 01:05:00,50.7,36.1,30.15,WNW,292,0.0,0.0,57,0.00,,---,0.00,VWS V14.01,2013-02-04 06:05:00,
2013-02-04 01:06:00,50.5,35.9,30.15,WNW,292,0.0,0.0,57,0.00,,---,0.00,VWS V14.01,2013-02-04 06:06:00,
2013-02-04 01:07:00,50.5,35.4,30.15,WNW,292,0.0,0.0,56,0.00,,---,0.00,VWS V14.01,2013-02-04 06:07:00,
2013-02-04 01:08:00,43.9,30.9,30.12,WNW,292,0.0,0.0,60,0.00,,---,0.00,VWS V14.01,2013-02-04 06:08:00,
2013-02-04 01:09:00,50.4,35.3,30.15,WNW,292,0.0,0.0,56,0.00,,---,0.00,VWS V14.01,2013-02-04 06:09:00,
2013-02-04 01:10:00,50.2,35.1,30.15,WNW,292,0.0,0.0,56,0.00,,---,0.00,VWS V14.01,2013-02-04 06:10:00,
2013-02-04 01:11:00,50.2,34.7,30.15,WNW,292,0.0,0.0,55,0.00,,---,0.00,VWS V14.01,2013-02-04 06:11:00,
2013-02-04 01:12:00,50.0,34.5,30.15,WNW,292,0.0,0.0,55,0.00,,---,0.00,VWS V14.01,2013-02-04 06:12:00,
2013-02-04 01:13:00,43.7,31.1,30.12,WNW,292,0.0,0.0,61,0.00,,---,0.00,VWS V14.01,2013-02-04 06:13:00,
2013-02-04 01:14:00,50.2,35.1,30.15,WNW,292,0.0,0.0,56,0.00,,---,0.00,VWS V14.01,2013-02-04 06:14:00,
2013-02-04 01:15:00,50.2,35.1,30.15,WNW,292,0.0,0.0,56,0.00,,---,0.00,VWS V14.01,2013-02-04 06:15:00,
2013-02-04 01:16:00,50.2,35.1,30.15,WNW,292,0.0,0.0,56,0.00,,---,0.00,VWS V14.01,2013-02-04 06:16:00,
2013-02-04 01:17:00,50.2,35.1,30.15,WNW,292,0.0,0.0,56,0.00,,---,0.00,VWS V14.01,2013-02-04 06:17:00,
2013-02-04 01:18:00,43.5,31.8,30.12,WNW,292,0.0,0.0,63,0.00,,---,0.00,VWS V14.01,2013-02-04 06:18:00,
2013-02-04 01:19:00,50.2,35.1,30.15,WNW,292,0.0,0.0,56,0.00,,---,0.00,VWS V14.01,2013-02-04 06:19:00,
2013-02-04 01:20:00,50.2,35.1,30.15,WNW,292,0.0,0.0,56,0.00,,---,0.00,VWS V14.01,2013-02-04 06:20:00,
2013-02-04 01:21:00,50.2,35.1,30.15,North,0,0.0,0.0,56,0.00,,---,0.00,VWS V14.01,2013-02-04 06:21:00,
2013-02-04 01:22:00,50.2,35.1,30.15,NNW,338,0.0,0.0,56,0.00,,---,0.00,VWS V14.01,2013-02-04 06:22:00,
2013-02-04 01:23:00,43.0,31.6,30.12,WNW,292,0.0,0.0,64,0.00,,---,0.00,VWS V14.01,2013-02-04 06:23:00,
2013-02-04 01:24:00,50.0,34.9,30.15,NW,315,0.0,0.0,56,0.00,,---,0.00,VWS V14.01,2013-02-04 06:24:00,
2013-02-04 01:25:00,50.0,34.9,30.15,NW,315,0.0,0.0,56,0.00,,---,0.00,VWS V14.01,2013-02-04 06:25:00,
2013-02-04 01:26:00,50.0,34.9,30.15,NNW,338,0.0,0.0,56,0.00,,---,0.00,VWS V14.01,2013-02-04 06:26:00,
2013-02-04 01:27:00,50.0,34.9,30.15,NNW,338,0.0,0.0,56,0.00,,---,0.00,VWS V14.01,2013-02-04 06:27:00,
2013-02-04 01:28:00,42.6,31.7,30.12,WNW,292,0.0,0.0,65,0.00,,---,0.00,VWS V14.01,2013-02-04 06:28:00,
2013-02-04 01:29:00,50.0,34.9,30.15,NNW,338,0.0,0.0,56,0.00,,---,0.00,VWS V14.01,2013-02-04 06:29:00,
2013-02-04 01:30:00,50.0,34.9,30.15,NNW,338,0.0,0.0,56,0.00,,---,0.00,VWS V14.01,2013-02-04 06:30:00,
2013-02-04 01:31:00,50.0,34.9,30.15,NNW,338,0.0,0.0,56,0.00,,---,0.00,VWS V14.01,2013-02-04 06:31:00,
2013-02-04 01:32:00,50.0,34.9,30.15,NNW,338,0.0,0.0,56,0.00,,---,0.00,VWS V14.01,2013-02-04 06:32:00,
2013-02-04 01:33:00,42.1,31.9,30.15,WNW,292,0.0,0.0,67,0.00,,---,0.00,VWS V14.01,2013-02-04 06:33:00,
2013-02-04 01:34:00,50.0,34.9,30.15,NNW,338,0.0,0.0,56,0.00,,---,0.00,VWS V14.01,2013-02-04 06:34:00,
2013-02-04 01:35:00,49.8,34.8,30.15,NNW,338,0.0,0.0,56,0.00,,---,0.00,VWS V14.01,2013-02-04 06:35:00,
2013-02-04 01:36:00,49.8,34.8,30.15,NNW,338,0.0,0.0,56,0.00,,---,0.00,VWS V14.01,2013-02-04 06:36:00,
2013-02-04 01:37:00,49.5,34.0,30.15,NNW,338,0.0,0.0,55,0.00,,---,0.00,VWS V14.01,2013-02-04 06:37:00,
2013-02-04 01:38:00,41.7,32.0,30.15,WSW,248,0.0,0.0,68,0.00,,---,0.00,VWS V14.01,2013-02-04 06:38:00,
2013-02-04 01:39:00,49.3,33.8,30.15,NNW,338,0.0,0.0,55,0.00,,---,0.00,VWS V14.01,2013-02-04 06:39:00,
2013-02-04 01:40:00,49.1,33.7,30.15,NNW,338,0.0,0.0,55,0.00,,---,0.00,VWS V14.01,2013-02-04 06:40:00,
2013-02-04 01:41:00,48.9,33.5,30.15,NNW,338,0.0,0.0,55,0.00,,---,0.00,VWS V14.01,2013-02-04 06:41:00,
2013-02-04 01:42:00,48.9,33.5,30.15,NNW,338,0.0,0.0,55,0.00,,---,0.00,VWS V14.01,2013-02-04 06:42:00,
2013-02-04 01:43:00,41.7,33.0,30.15,WSW,248,0.0,0.0,71,0.00,,---,0.00,VWS V14.01,2013-02-04 06:43:00,
2013-02-04 01:44:00,48.7,33.3,30.15,NNW,338,0.0,0.0,55,0.00,,---,0.00,VWS V14.01,2013-02-04 06:44:00,
2013-02-04 01:45:00,48.7,33.3,30.15,NNW,338,0.0,0.0,55,0.00,,---,0.00,VWS V14.01,2013-02-04 06:45:00,
2013-02-04 01:46:00,48.7,33.3,30.15,NNW,338,0.0,0.0,55,0.00,,---,0.00,VWS V14.01,2013-02-04 06:46:00,
2013-02-04 01:47:00,48.6,33.1,30.15,NNW,338,0.0,0.0,55,0.00,,---,0.00,VWS V14.01,2013-02-04 06:47:00,
2013-02-04 01:48:00,42.6,35.9,30.15,WSW,248,0.0,0.0,77,0.00,,---,0.00,VWS V14.01,2013-02-04 06:48:00,
2013-02-04 01:49:00,48.4,33.0,30.15,NNW,338,0.0,0.0,55,0.00,,---,0.00,VWS V14.01,2013-02-04 06:49:00,
2013-02-04 01:50:00,48.4,33.0,30.15,NNW,338,0.0,0.0,55,0.00,,---,0.00,VWS V14.01,2013-02-04 06:50:00,
2013-02-04 01:51:00,48.2,32.8,30.15,NNW,338,0.0,0.0,55,0.00,,---,0.00,VWS V14.01,2013-02-04 06:51:00,
2013-02-04 01:52:00,48.2,32.8,30.15,NNW,338,0.0,0.0,55,0.00,,---,0.00,VWS V14.01,2013-02-04 06:52:00,
2013-02-04 01:53:00,42.6,36.9,30.15,WSW,248,0.0,0.0,80,0.00,,---,0.00,VWS V14.01,2013-02-04 06:53:00,
2013-02-04 01:54:00,47.8,32.9,30.15,NNW,338,0.0,0.0,56,0.00,,---,0.00,VWS V14.01,2013-02-04 06:54:00,
2013-02-04 01:55:00,47.7,32.8,30.15,NNW,338,0.0,0.0,56,0.00,,---,0.00,VWS V14.01,2013-02-04 06:55:00,
2013-02-04 01:56:00,47.5,32.6,30.15,NNW,338,0.0,0.0,56,0.00,,---,0.00,VWS V14.01,2013-02-04 06:56:00,
2013-02-04 01:57:00,47.5,32.6,30.15,NNW,338,0.0,0.0,56,0.00,,---,0.00,VWS V14.01,2013-02-04 06:57:00,
2013-02-04 01:58:00,42.3,36.2,30.15,WSW,248,0.0,0.0,79,0.00,,---,0.00,VWS V14.01,2013-02-04 06:58:00,
2013-02-04 01:59:00,47.1,32.2,30.15,NNW,338,0.0,0.0,56,0.00,,---,0.00,VWS V14.01,2013-02-04 06:59:00,
2013-02-04 02:00:00,46.9,32.1,30.15,NNW,338,0.0,0.0,56,0.00,,---,0.00,VWS V14.01,2013-02-04 07:00:00,
2013-02-04 02:01:00,46.9,32.5,30.15,NNW,338,0.0,0.0,57,0.00,,---,0.00,VWS V14.01,2013-02-04 07:01:00,
2013-02-04 02:02:00,46.8,31.9,30.12,NNW,338,0.0,0.0,56,0.00,,---,0.00,VWS V14.01,2013-02-04 07:02:00,
2013-02-04 02:03:00,41.7,35.0,30.15,WSW,248,0.0,0.0,77,0.00,,---,0.00,VWS V14.01,2013-02-04 07:03:00,
2013-02-04 02:04:00,46.6,32.2,30.12,NNW,338,0.0,0.0,57,0.00,,---,0.00,VWS V14.01,2013-02-04 07:04:00,
2013-02-04 02:05:00,46.6,32.2,30.12,NNW,338,0.0,0.0,57,0.00,,---,0.00,VWS V14.01,2013-02-04 07:05:00,
2013-02-04 02:06:00,46.4,32.4,30.12,NNW,338,0.0,0.0,58,0.00,,---,0.00,VWS V14.01,2013-02-04 07:06:00,
2013-02-04 02:07:00,46.4,32.0,30.12,NNW,338,0.0,0.0,57,0.00,,---,0.00,VWS V14.01,2013-02-04 07:07:00,
2013-02-04 02:08:00,41.5,34.9,30.15,WSW,248,0.0,0.0,77,0.00,,---,0.00,VWS V14.01,2013-02-04 07:08:00,
2013-02-04 02:09:00,46.4,32.0,30.12,NNW,338,0.0,0.0,57,0.00,,---,0.00,VWS V14.01,2013-02-04 07:09:00,
2013-02-04 02:10:00,46.2,31.8,30.12,NNW,338,0.0,0.0,57,0.00,,---,0.00,VWS V14.01,2013-02-04 07:10:00,
2013-02-04 02:11:00,46.2,32.3,30.12,NNW,338,0.0,0.0,58,0.00,,---,0.00,VWS V14.01,2013-02-04 07:11:00,
2013-02-04 02:12:00,46.0,32.1,30.12,NNW,338,0.0,0.0,58,0.00,,---,0.00,VWS V14.01,2013-02-04 07:12:00,
2013-02-04 02:13:00,41.2,34.2,30.15,WSW,248,0.0,0.0,76,0.00,,---,0.00,VWS V14.01,2013-02-04 07:13:00,
2013-02-04 02:14:00,45.9,31.9,30.12,NNW,338,0.0,0.0,58,0.00,,---,0.00,VWS V14.01,2013-02-04 07:14:00,
2013-02-04 02:15:00,45.7,31.8,30.12,NNW,338,0.0,0.0,58,0.00,,---,0.00,VWS V14.01,2013-02-04 07:15:00,
2013-02-04 02:16:00,45.5,31.6,30.12,NNW,338,0.0,0.0,58,0.00,,---,0.00,VWS V14.01,2013-02-04 07:16:00,
2013-02-04 02:17:00,45.5,31.6,30.12,NNW,338,0.0,0.0,58,0.00,,---,0.00,VWS V14.01,2013-02-04 07:17:00,
2013-02-04 02:18:00,41.2,34.2,30.15,SSW,202,0.0,0.0,76,0.00,,---,0.00,VWS V14.01,2013-02-04 07:18:00,
2013-02-04 02:19:00,45.3,31.4,30.12,NNW,338,0.0,0.0,58,0.00,,---,0.00,VWS V14.01,2013-02-04 07:19:00,
2013-02-04 02:20:00,45.3,31.9,30.12,NNW,338,0.0,0.0,59,0.00,,---,0.00,VWS V14.01,2013-02-04 07:20:00,
2013-02-04 02:21:00,45.3,31.9,30.12,NNW,338,0.0,0.0,59,0.00,,---,0.00,VWS V14.01,2013-02-04 07:21:00,
2013-02-04 02:22:00,45.1,31.3,30.12,NNW,338,0.0,0.0,58,0.00,,---,0.00,VWS V14.01,2013-02-04 07:22:00,
2013-02-04 02:23:00,41.0,34.3,30.15,SSW,202,0.0,0.0,77,0.00,,---,0.00,VWS V14.01,2013-02-04 07:23:00,
2013-02-04 02:24:00,45.1,31.3,30.12,NNW,338,0.0,0.0,58,0.00,,---,0.00,VWS V14.01,2013-02-04 07:24:00,
2013-02-04 02:25:00,45.0,31.1,30.12,WNW,292,0.0,0.0,58,0.00,,---,0.00,VWS V14.01,2013-02-04 07:25:00,
2013-02-04 02:26:00,44.8,30.9,30.12,WNW,292,0.0,0.0,58,0.00,,---,0.00,VWS V14.01,2013-02-04 07:26:00,
2013-02-04 02:27:00,44.8,30.9,30.12,WNW,292,0.0,0.0,58,0.00,,---,0.00,VWS V14.01,2013-02-04 07:27:00,
2013-02-04 02:28:00,40.6,34.0,30.15,SSW,202,0.0,0.0,77,0.00,,---,0.00,VWS V14.01,2013-02-04 07:28:00,
2013-02-04 02:29:00,44.6,31.2,30.12,WNW,292,0.0,0.0,59,0.00,,---,0.00,VWS V14.01,2013-02-04 07:29:00,
2013-02-04 02:30:00,44.2,31.2,30.12,WNW,292,0.0,0.0,60,0.00,,---,0.00,VWS V14.01,2013-02-04 07:30:00,
2013-02-04 02:31:00,44.2,31.2,30.12,WNW,292,0.0,0.0,60,0.00,,---,0.00,VWS V14.01,2013-02-04 07:31:00,
2013-02-04 02:32:00,44.1,31.1,30.12,WNW,292,0.0,0.0,60,0.00,,---,0.00,VWS V14.01,2013-02-04 07:32:00,
2013-02-04 02:33:00,40.8,34.5,30.15,WNW,292,0.0,0.0,78,0.00,,---,0.00,VWS V14.01,2013-02-04 07:33:00,
2013-02-04 02:34:00,43.9,30.9,30.12,WNW,292,0.0,0.0,60,0.00,,---,0.00,VWS V14.01,2013-02-04 07:34:00,
2013-02-04 02:35:00,43.9,30.9,30.12,WNW,292,0.0,0.0,60,0.00,,---,0.00,VWS V14.01,2013-02-04 07:35:00,
2013-02-04 02:36:00,43.9,30.9,30.12,WNW,292,0.0,0.0,60,0.00,,---,0.00,VWS V14.01,2013-02-04 07:36:00,
2013-02-04 02:37:00,43.9,30.9,30.12,WNW,292,0.0,0.0,60,0.00,,---,0.00,VWS V14.01,2013-02-04 07:37:00,
2013-02-04 02:38:00,40.8,34.5,30.15,WNW,292,0.0,0.0,78,0.00,,---,0.00,VWS V14.01,2013-02-04 07:38:00,
2013-02-04 02:39:00,43.9,31.3,30.12,WNW,292,0.0,0.0,61,0.00,,---,0.00,VWS V14.01,2013-02-04 07:39:00,
2013-02-04 02:40:00,43.9,31.3,30.12,WNW,292,0.0,0.0,61,0.00,,---,0.00,VWS V14.01,2013-02-04 07:40:00,
2013-02-04 02:41:00,43.7,31.1,30.12,WNW,292,0.0,0.0,61,0.00,,---,0.00,VWS V14.01,2013-02-04 07:41:00,
2013-02-04 02:42:00,43.7,31.1,30.12,WNW,292,0.0,0.0,61,0.00,,---,0.00,VWS V14.01,2013-02-04 07:42:00,
2013-02-04 02:43:00,40.8,34.5,30.15,WNW,292,0.0,0.0,78,0.00,,---,0.00,VWS V14.01,2013-02-04 07:43:00,
2013-02-04 02:44:00,43.5,31.0,30.12,WNW,292,0.0,0.0,61,0.00,,---,0.00,VWS V14.01,2013-02-04 07:44:00,
2013-02-04 02:45:00,43.5,31.4,30.12,WNW,292,0.0,0.0,62,0.00,,---,0.00,VWS V14.01,2013-02-04 07:45:00,
2013-02-04 02:46:00,43.5,31.8,30.12,WNW,292,0.0,0.0,63,0.00,,---,0.00,VWS V14.01,2013-02-04 07:46:00,
2013-02-04 02:47:00,43.3,31.6,30.12,WNW,292,0.0,0.0,63,0.00,,---,0.00,VWS V14.01,2013-02-04 07:47:00,
2013-02-04 02:48:00,41.2,34.8,30.15,WNW,292,0.0,0.0,78,0.00,,---,0.00,VWS V14.01,2013-02-04 07:48:00,
2013-02-04 02:49:00,43.2,31.4,30.12,WNW,292,0.0,0.0,63,0.00,,---,0.00,VWS V14.01,2013-02-04 07:49:00,
2013-02-04 02:50:00,43.2,31.4,30.12,WNW,292,0.0,0.0,63,0.00,,---,0.00,VWS V14.01,2013-02-04 07:50:00,
2013-02-04 02:51:00,43.2,31.4,30.12,WNW,292,0.0,0.0,63,0.00,,---,0.00,VWS V14.01,2013-02-04 07:51:00,
2013-02-04 02:52:00,43.0,31.6,30.12,WNW,292,0.0,0.0,64,0.00,,---,0.00,VWS V14.01,2013-02-04 07:52:00,
2013-02-04 02:53:00,41.0,34.7,30.15,WNW,292,0.0,0.0,78,0.00,,---,0.00,VWS V14.01,2013-02-04 07:53:00,
2013-02-04 02:54:00,42.8,31.9,30.12,WNW,292,0.0,0.0,65,0.00,,---,0.00,VWS V14.01,2013-02-04 07:54:00,
2013-02-04 02:55:00,42.6,31.7,30.12,WNW,292,0.0,0.0,65,0.00,,---,0.00,VWS V14.01,2013-02-04 07:55:00,
2013-02-04 02:56:00,42.6,31.7,30.12,WNW,292,0.0,0.0,65,0.00,,---,0.00,VWS V14.01,2013-02-04 07:56:00,
2013-02-04 02:57:00,42.4,31.5,30.12,WNW,292,0.0,0.0,65,0.00,,---,0.00,VWS V14.01,2013-02-04 07:57:00,
2013-02-04 02:58:00,41.0,34.7,30.15,WNW,292,0.0,0.0,78,0.00,,---,0.00,VWS V14.01,2013-02-04 07:58:00,
2013-02-04 02:59:00,42.3,31.7,30.12,WNW,292,0.0,0.0,66,0.00,,---,0.00,VWS V14.01,2013-02-04 07:59:00,
2013-02-04 03:00:00,42.1,31.9,30.12,WNW,292,0.0,0.0,67,0.00,,---,0.00,VWS V14.01,2013-02-04 08:00:00,
2013-02-04 03:01:00,42.1,31.9,30.12,WNW,292,0.0,0.0,67,0.00,,---,0.00,VWS V14.01,2013-02-04 08:01:00,
2013-02-04 03:02:00,41.9,31.8,30.15,WNW,292,0.0,0.0,67,0.00,,---,0.00,VWS V14.01,2013-02-04 08:02:00,
2013-02-04 03:03:00,41.0,34.7,30.15,WNW,292,0.0,0.0,78,0.00,,---,0.00,VWS V14.01,2013-02-04 08:03:00,
2013-02-04 03:04:00,41.9,31.8,30.15,WNW,292,0.0,0.0,67,0.00,,---,0.00,VWS V14.01,2013-02-04 08:04:00,
2013-02-04 03:05:00,41.7,32.0,30.15,WNW,292,0.0,0.0,68,0.00,,---,0.00,VWS V14.01,2013-02-04 08:05:00,
2013-02-04 03:06:00,41.7,32.0,30.15,WSW,248,0.0,0.0,68,0.00,,---,0.00,VWS V14.01,2013-02-04 08:06:00,
2013-02-04 03:07:00,41.7,32.0,30.15,WSW,248,0.0,0.0,68,0.00,,---,0.00,VWS V14.01,2013-02-04 08:07:00,
2013-02-04 03:08:00,41.0,35.0,30.15,WNW,292,0.0,0.0,79,0.00,,---,0.00,VWS V14.01,2013-02-04 08:08:00,
2013-02-04 03:09:00,41.7,32.7,30.15,WSW,248,0.0,0.0,70,0.00,,---,0.00,VWS V14.01,2013-02-04 08:09:00,
2013-02-04 03:10:00,41.7,33.0,30.15,WSW,248,0.0,0.0,71,0.00,,---,0.00,VWS V14.01,2013-02-04 08:10:00,
2013-02-04 03:11:00,41.7,33.0,30.15,WSW,248,0.0,0.0,71,0.00,,---,0.00,VWS V14.01,2013-02-04 08:11:00,
2013-02-04 03:12:00,41.7,33.0,30.15,WSW,248,0.0,0.0,71,0.00,,---,0.00,VWS V14.01,2013-02-04 08:12:00,
2013-02-04 03:13:00,40.8,34.8,30.15,WNW,292,0.0,0.0,79,0.00,,---,0.00,VWS V14.01,2013-02-04 08:13:00,
2013-02-04 03:14:00,41.7,33.0,30.15,WSW,248,0.0,0.0,71,0.00,,---,0.00,VWS V14.01,2013-02-04 08:14:00,
2013-02-04 03:15:00,42.4,35.1,30.15,WSW,248,0.0,0.0,75,0.00,,---,0.00,VWS V14.01,2013-02-04 08:15:00,
2013-02-04 03:16:00,42.6,35.9,30.15,WSW,248,0.0,0.0,77,0.00,,---,0.00,VWS V14.01,2013-02-04 08:16:00,
2013-02-04 03:17:00,42.8,36.8,30.15,WSW,248,0.0,0.0,79,0.00,,---,0.00,VWS V14.01,2013-02-04 08:17:00,
2013-02-04 03:18:00,40.6,35.0,30.15,WNW,292,0.0,0.0,80,0.00,,---,0.00,VWS V14.01,2013-02-04 08:18:00,
2013-02-04 03:19:00,42.8,37.4,30.15,WSW,248,0.0,0.0,81,0.00,,---,0.00,VWS V14.01,2013-02-04 08:19:00,
2013-02-04 03:20:00,42.8,37.4,30.15,WSW,248,0.0,0.0,81,0.00,,---,0.00,VWS V14.01,2013-02-04 08:20:00,
2013-02-04 03:21:00,42.8,37.4,30.15,WSW,248,0.0,0.0,81,0.00,,---,0.00,VWS V14.01,2013-02-04 08:21:00,
2013-02-04 03:22:00,42.6,36.9,30.15,WSW,248,0.0,0.0,80,0.00,,---,0.00,VWS V14.01,2013-02-04 08:22:00,
2013-02-04 03:23:00,40.5,34.8,30.15,WNW,292,0.0,0.0,80,0.00,,---,0.00,VWS V14.01,2013-02-04 08:23:00,
2013-02-04 03:24:00,42.3,36.2,30.15,WSW,248,0.0,0.0,79,0.00,,---,0.00,VWS V14.01,2013-02-04 08:24:00,
2013-02-04 03:25:00,42.3,36.2,30.15,WSW,248,0.0,0.0,79,0.00,,---,0.00,VWS V14.01,2013-02-04 08:25:00,
2013-02-04 03:26:00,42.3,36.2,30.15,WSW,248,0.0,0.0,79,0.00,,---,0.00,VWS V14.01,2013-02-04 08:26:00,
2013-02-04 03:27:00,42.1,35.4,30.15,WSW,248,0.0,0.0,77,0.00,,---,0.00,VWS V14.01,2013-02-04 08:27:00,
2013-02-04 03:28:00,40.8,35.1,30.15,WNW,292,0.0,0.0,80,0.00,,---,0.00,VWS V14.01,2013-02-04 08:28:00,
2013-02-04 03:29:00,41.9,35.2,30.15,WSW,248,0.0,0.0,77,0.00,,---,0.00,VWS V14.01,2013-02-04 08:29:00,
2013-02-04 03:30:00,41.7,35.0,30.15,WSW,248,0.0,0.0,77,0.00,,---,0.00,VWS V14.01,2013-02-04 08:30:00,
2013-02-04 03:31:00,41.7,35.0,30.15,WSW,248,0.0,0.0,77,0.00,,---,0.00,VWS V14.01,2013-02-04 08:31:00,
2013-02-04 03:32:00,41.7,35.0,30.15,WSW,248,0.0,0.0,77,0.00,,---,0.00,VWS V14.01,2013-02-04 08:32:00,
2013-02-04 03:33:00,40.8,35.5,30.15,WNW,292,0.0,0.0,81,0.00,,---,0.00,VWS V14.01,2013-02-04 08:33:00,
2013-02-04 03:34:00,41.7,35.0,30.15,WSW,248,0.0,0.0,77,0.00,,---,0.00,VWS V14.01,2013-02-04 08:34:00,
2013-02-04 03:35:00,41.7,34.7,30.15,WSW,248,0.0,0.0,76,0.00,,---,0.00,VWS V14.01,2013-02-04 08:35:00,
2013-02-04 03:36:00,41.5,34.5,30.15,WSW,248,0.0,0.0,76,0.00,,---,0.00,VWS V14.01,2013-02-04 08:36:00,
2013-02-04 03:37:00,41.5,34.9,30.15,WSW,248,0.0,0.0,77,0.00,,---,0.00,VWS V14.01,2013-02-04 08:37:00,
2013-02-04 03:38:00,40.6,35.3,30.15,West,270,0.0,0.0,81,0.00,,---,0.00,VWS V14.01,2013-02-04 08:38:00,
2013-02-04 03:39:00,41.5,34.9,30.15,WSW,248,0.0,0.0,77,0.00,,---,0.00,VWS V14.01,2013-02-04 08:39:00,
2013-02-04 03:40:00,41.2,34.2,30.15,WSW,248,0.0,0.0,76,0.00,,---,0.00,VWS V14.01,2013-02-04 08:40:00,
2013-02-04 03:41:00,41.2,34.2,30.15,WSW,248,0.0,0.0,76,0.00,,---,0.00,VWS V14.01,2013-02-04 08:41:00,
2013-02-04 03:42:00,41.2,34.2,30.15,WSW,248,0.0,0.0,76,0.00,,---,0.00,VWS V14.01,2013-02-04 08:42:00,
2013-02-04 03:43:00,40.6,35.6,30.15,West,270,0.0,0.0,82,0.00,,---,0.00,VWS V14.01,2013-02-04 08:43:00,
2013-02-04 03:44:00,41.2,34.2,30.15,SSW,202,0.0,0.0,76,0.00,,---,0.00,VWS V14.01,2013-02-04 08:44:00,
2013-02-04 03:45:00,41.2,34.2,30.15,SSW,202,0.0,0.0,76,0.00,,---,0.00,VWS V14.01,2013-02-04 08:45:00,
2013-02-04 03:46:00,41.2,34.2,30.15,SSW,202,0.0,0.0,76,0.00,,---,0.00,VWS V14.01,2013-02-04 08:46:00,
2013-02-04 03:47:00,41.2,34.2,30.15,SSW,202,0.0,0.0,76,0.00,,---,0.00,VWS V14.01,2013-02-04 08:47:00,
2013-02-04 03:48:00,40.3,35.2,30.15,West,270,0.0,0.0,82,0.00,,---,0.00,VWS V14.01,2013-02-04 08:48:00,
2013-02-04 03:49:00,41.0,34.0,30.15,SSW,202,0.0,0.0,76,0.00,,---,0.00,VWS V14.01,2013-02-04 08:49:00,
2013-02-04 03:50:00,41.0,34.0,30.15,SSW,202,0.0,0.0,76,0.00,,---,0.00,VWS V14.01,2013-02-04 08:50:00,
2013-02-04 03:51:00,41.0,34.3,30.15,SSW,202,0.0,0.0,77,0.00,,---,0.00,VWS V14.01,2013-02-04 08:51:00,
2013-02-04 03:52:00,40.8,34.2,30.15,SSW,202,0.0,0.0,77,0.00,,---,0.00,VWS V14.01,2013-02-04 08:52:00,
2013-02-04 03:53:00,40.1,35.1,30.15,WSW,248,0.0,0.0,82,0.00,,---,0.00,VWS V14.01,2013-02-04 08:53:00,
2013-02-04 03:54:00,40.8,34.2,30.15,SSW,202,0.0,0.0,77,0.00,,---,0.00,VWS V14.01,2013-02-04 08:54:00,
2013-02-04 03:55:00,40.8,34.2,30.15,SSW,202,0.0,0.0,77,0.00,,---,0.00,VWS V14.01,2013-02-04 08:55:00,
2013-02-04 03:56:00,40.6,34.0,30.15,SSW,202,0.0,0.0,77,0.00,,---,0.00,VWS V14.01,2013-02-04 08:56:00,
2013-02-04 03:57:00,40.6,34.0,30.15,WNW,292,0.0,0.0,77,0.00,,---,0.00,VWS V14.01,2013-02-04 08:57:00,
2013-02-04 03:58:00,40.3,35.8,30.15,SSW,202,0.0,0.0,84,0.00,,---,0.00,VWS V14.01,2013-02-04 08:58:00,
2013-02-04 03:59:00,40.6,34.0,30.15,WNW,292,0.0,0.0,77,0.00,,---,0.00,VWS V14.01,2013-02-04 08:59:00,
2013-02-04 04:00:00,40.6,34.0,30.15,WNW,292,0.0,0.0,77,0.00,,---,0.00,VWS V14.01,2013-02-04 09:00:00,
2013-02-04 04:01:00,40.8,34.5,30.15,WNW,292,0.0,0.0,78,0.00,,---,0.00,VWS V14.01,2013-02-04 09:01:00,
2013-02-04 04:02:00,40.8,34.5,30.15,WNW,292,0.0,0.0,78,0.00,,---,0.00,VWS V14.01,2013-02-04 09:02:00,
2013-02-04 04:03:00,40.1,35.7,30.15,SSW,202,0.0,0.0,84,0.00,,---,0.00,VWS V14.01,2013-02-04 09:03:00,
2013-02-04 04:04:00,40.8,34.5,30.15,WNW,292,0.0,0.0,78,0.00,,---,0.00,VWS V14.01,2013-02-04 09:04:00,
2013-02-04 04:05:00,40.8,34.5,30.15,WNW,292,0.0,0.0,78,0.00,,---,0.00,VWS V14.01,2013-02-04 09:05:00,
2013-02-04 04:06:00,40.8,34.5,30.15,WNW,292,0.0,0.0,78,0.00,,---,0.00,VWS V14.01,2013-02-04 09:06:00,
2013-02-04 04:07:00,40.8,34.5,30.15,WNW,292,0.0,0.0,78,0.00,,---,0.00,VWS V14.01,2013-02-04 09:07:00,
2013-02-04 04:08:00,39.9,35.8,30.15,SSW,202,0.0,0.0,85,0.00,,---,0.00,VWS V14.01,2013-02-04 09:08:00,
2013-02-04 04:09:00,40.6,34.3,30.15,WNW,292,0.0,0.0,78,0.00,,---,0.00,VWS V14.01,2013-02-04 09:09:00,
2013-02-04 04:10:00,40.8,34.5,30.15,WNW,292,0.0,0.0,78,0.00,,---,0.00,VWS V14.01,2013-02-04 09:10:00,
2013-02-04 04:11:00,40.8,34.5,30.15,WNW,292,0.0,0.0,78,0.00,,---,0.00,VWS V14.01,2013-02-04 09:11:00,
2013-02-04 04:12:00,41.0,34.7,30.15,WNW,292,0.0,0.0,78,0.00,,---,0.00,VWS V14.01,2013-02-04 09:12:00,
2013-02-04 04:13:00,39.7,35.6,30.15,SSW,202,0.0,0.0,85,0.00,,---,0.00,VWS V14.01,2013-02-04 09:13:00,
2013-02-04 04:14:00,41.0,34.7,30.15,WNW,292,0.0,0.0,78,0.00,,---,0.00,VWS V14.01,2013-02-04 09:14:00,
2013-02-04 04:15:00,41.2,34.8,30.15,WNW,292,0.0,0.0,78,0.00,,---,0.00,VWS V14.01,2013-02-04 09:15:00,
2013-02-04 04:16:00,41.2,34.8,30.15,WNW,292,0.0,0.0,78,0.00,,---,0.00,VWS V14.01,2013-02-04 09:16:00,
2013-02-04 04:17:00,41.2,34.8,30.15,WNW,292,0.0,0.0,78,0.00,,---,0.00,VWS V14.01,2013-02-04 09:17:00,
2013-02-04 04:18:00,39.4,35.2,30.15,SSW,202,0.0,0.0,85,0.00,,---,0.00,VWS V14.01,2013-02-04 09:18:00,
2013-02-04 04:19:00,41.2,34.8,30.15,WNW,292,0.0,0.0,78,0.00,,---,0.00,VWS V14.01,2013-02-04 09:19:00,
2013-02-04 04:20:00,41.0,34.7,30.15,WNW,292,0.0,0.0,78,0.00,,---,0.00,VWS V14.01,2013-02-04 09:20:00,
2013-02-04 04:21:00,41.0,34.7,30.15,WNW,292,0.0,0.0,78,0.00,,---,0.00,VWS V14.01,2013-02-04 09:21:00,
2013-02-04 04:22:00,41.0,34.7,30.15,WNW,292,0.0,0.0,78,0.00,,---,0.00,VWS V14.01,2013-02-04 09:22:00,
2013-02-04 04:23:00,39.2,35.1,30.15,SSW,202,0.0,0.0,85,0.00,,---,0.00,VWS V14.01,2013-02-04 09:23:00,
2013-02-04 04:24:00,41.0,34.7,30.15,WNW,292,0.0,0.0,78,0.00,,---,0.00,VWS V14.01,2013-02-04 09:24:00,
2013-02-04 04:25:00,41.0,34.7,30.15,WNW,292,0.0,0.0,78,0.00,,---,0.00,VWS V14.01,2013-02-04 09:25:00,
2013-02-04 04:26:00,41.0,34.7,30.15,WNW,292,0.0,0.0,78,0.00,,---,0.00,VWS V14.01,2013-02-04 09:26:00,
2013-02-04 04:27:00,41.0,34.7,30.15,WNW,292,0.0,0.0,78,0.00,,---,0.00,VWS V14.01,2013-02-04 09:27:00,
2013-02-04 04:28:00,39.4,35.5,30.15,SSW,202,0.0,0.0,86,0.00,,---,0.00,VWS V14.01,2013-02-04 09:28:00,
2013-02-04 04:29:00,40.8,34.8,30.15,WNW,292,0.0,0.0,79,0.00,,---,0.00,VWS V14.01,2013-02-04 09:29:00,
2013-02-04 04:30:00,41.0,34.7,30.15,WNW,292,0.0,0.0,78,0.00,,---,0.00,VWS V14.01,2013-02-04 09:30:00,
2013-02-04 04:31:00,41.0,34.7,30.15,WNW,292,0.0,0.0,78,0.00,,---,0.00,VWS V14.01,2013-02-04 09:31:00,
2013-02-04 04:32:00,41.0,34.7,30.15,WNW,292,0.0,0.0,78,0.00,,---,0.00,VWS V14.01,2013-02-04 09:32:00,
2013-02-04 04:33:00,39.4,35.2,30.15,SSW,202,0.0,0.0,85,0.00,,---,0.00,VWS V14.01,2013-02-04 09:33:00,
2013-02-04 04:34:00,41.0,35.0,30.15,WNW,292,0.0,0.0,79,0.00,,---,0.00,VWS V14.01,2013-02-04 09:34:00,
2013-02-04 04:35:00,41.0,35.0,30.15,WNW,292,0.0,0.0,79,0.00,,---,0.00,VWS V14.01,2013-02-04 09:35:00,
2013-02-04 04:36:00,41.0,35.0,30.15,WNW,292,0.0,0.0,79,0.00,,---,0.00,VWS V14.01,2013-02-04 09:36:00,
2013-02-04 04:37:00,41.0,35.0,30.15,WNW,292,0.0,0.0,79,0.00,,---,0.00,VWS V14.01,2013-02-04 09:37:00,
2013-02-04 04:38:00,39.2,35.1,30.15,SSW,202,0.0,0.0,85,0.00,,---,0.00,VWS V14.01,2013-02-04 09:38:00,
2013-02-04 04:39:00,40.8,34.8,30.15,WNW,292,0.0,0.0,79,0.00,,---,0.00,VWS V14.01,2013-02-04 09:39:00,
2013-02-04 04:40:00,40.8,34.8,30.15,WNW,292,0.0,0.0,79,0.00,,---,0.00,VWS V14.01,2013-02-04 09:40:00,
2013-02-04 04:41:00,40.8,34.8,30.15,WNW,292,0.0,0.0,79,0.00,,---,0.00,VWS V14.01,2013-02-04 09:41:00,
2013-02-04 04:42:00,40.8,34.8,30.15,WNW,292,0.0,0.0,79,0.00,,---,0.00,VWS V14.01,2013-02-04 09:42:00,
2013-02-04 04:43:00,38.8,35.0,30.15,SSW,202,0.0,0.0,86,0.00,,---,0.00,VWS V14.01,2013-02-04 09:43:00,
2013-02-04 04:44:00,40.6,35.0,30.15,WNW,292,0.0,0.0,80,0.00,,---,0.00,VWS V14.01,2013-02-04 09:44:00,
2013-02-04 04:45:00,40.6,35.0,30.15,WNW,292,0.0,0.0,80,0.00,,---,0.00,VWS V14.01,2013-02-04 09:45:00,
2013-02-04 04:46:00,40.6,35.0,30.15,WNW,292,0.0,0.0,80,0.00,,---,0.00,VWS V14.01,2013-02-04 09:46:00,
2013-02-04 04:47:00,40.6,35.0,30.15,WNW,292,0.0,0.0,80,0.00,,---,0.00,VWS V14.01,2013-02-04 09:47:00,
2013-02-04 04:48:00,38.8,35.0,30.15,SSW,202,0.0,0.0,86,0.00,,---,0.00,VWS V14.01,2013-02-04 09:48:00,
2013-02-04 04:49:00,40.6,35.0,30.15,WNW,292,0.0,0.0,80,0.00,,---,0.00,VWS V14.01,2013-02-04 09:49:00,
2013-02-04 04:50:00,40.6,35.0,30.15,WNW,292,0.0,0.0,80,0.00,,---,0.00,VWS V14.01,2013-02-04 09:50:00,
2013-02-04 04:51:00,40.5,34.8,30.15,WNW,292,0.0,0.0,80,0.00,,---,0.00,VWS V14.01,2013-02-04 09:51:00,
2013-02-04 04:52:00,40.5,34.8,30.15,WNW,292,0.0,0.0,80,0.00,,---,0.00,VWS V14.01,2013-02-04 09:52:00,
2013-02-04 04:53:00,38.8,35.0,30.15,SSW,202,0.0,0.0,86,0.00,,---,0.00,VWS V14.01,2013-02-04 09:53:00,
2013-02-04 04:54:00,40.6,35.0,30.15,WNW,292,0.0,0.0,80,0.00,,---,0.00,VWS V14.01,2013-02-04 09:54:00,
2013-02-04 04:55:00,40.8,35.1,30.15,WNW,292,0.0,0.0,80,0.00,,---,0.00,VWS V14.01,2013-02-04 09:55:00,
2013-02-04 04:56:00,40.8,35.1,30.15,WNW,292,0.0,0.0,80,0.00,,---,0.00,VWS V14.01,2013-02-04 09:56:00,
2013-02-04 04:57:00,40.8,35.1,30.15,WNW,292,0.0,0.0,80,0.00,,---,0.00,VWS V14.01,2013-02-04 09:57:00,
2013-02-04 04:58:00,38.7,34.8,30.15,WNW,292,0.0,0.0,86,0.00,,---,0.00,VWS V14.01,2013-02-04 09:58:00,
2013-02-04 04:59:00,41.0,35.3,30.15,WNW,292,0.0,0.0,80,0.00,,---,0.00,VWS V14.01,2013-02-04 09:59:00,
2013-02-04 05:00:00,41.0,35.3,30.15,WNW,292,0.0,0.0,80,0.00,,---,0.00,VWS V14.01,2013-02-04 10:00:00,
2013-02-04 05:01:00,40.8,35.5,30.15,WNW,292,0.0,0.0,81,0.00,,---,0.00,VWS V14.01,2013-02-04 10:01:00,
2013-02-04 05:02:00,40.8,35.5,30.15,WNW,292,0.0,0.0,81,0.00,,---,0.00,VWS V14.01,2013-02-04 10:02:00,
2013-02-04 05:03:00,38.5,35.0,30.15,WNW,292,0.0,0.0,87,0.00,,---,0.00,VWS V14.01,2013-02-04 10:03:00,
2013-02-04 05:04:00,40.6,35.0,30.15,West,270,0.0,0.0,80,0.00,,---,0.00,VWS V14.01,2013-02-04 10:04:00,
2013-02-04 05:05:00,40.6,35.0,30.15,West,270,0.0,0.0,80,0.00,,---,0.00,VWS V14.01,2013-02-04 10:05:00,
2013-02-04 05:06:00,40.6,35.3,30.15,West,270,0.0,0.0,81,0.00,,---,0.00,VWS V14.01,2013-02-04 10:06:00,
2013-02-04 05:07:00,40.6,35.3,30.15,West,270,0.0,0.0,81,0.00,,---,0.00,VWS V14.01,2013-02-04 10:07:00,
2013-02-04 05:08:00,38.1,34.3,30.15,WNW,292,0.0,0.0,86,0.00,,---,0.00,VWS V14.01,2013-02-04 10:08:00,
2013-02-04 05:09:00,40.6,35.3,30.15,West,270,0.0,0.0,81,0.00,,---,0.00,VWS V14.01,2013-02-04 10:09:00,
2013-02-04 05:10:00,40.6,35.3,30.15,West,270,0.0,0.0,81,0.00,,---,0.00,VWS V14.01,2013-02-04 10:10:00,
2013-02-04 05:11:00,40.6,35.6,30.15,West,270,0.0,0.0,82,0.00,,---,0.00,VWS V14.01,2013-02-04 10:11:00,
2013-02-04 05:12:00,40.5,35.4,30.15,West,270,0.0,0.0,82,0.00,,---,0.00,VWS V14.01,2013-02-04 10:12:00,
2013-02-04 05:13:00,38.1,34.6,30.15,WNW,292,0.0,0.0,87,0.00,,---,0.00,VWS V14.01,2013-02-04 10:13:00,
2013-02-04 05:14:00,40.5,35.4,30.15,West,270,0.0,0.0,82,0.00,,---,0.00,VWS V14.01,2013-02-04 10:14:00,
2013-02-04 05:15:00,40.5,35.4,30.15,West,270,0.0,0.0,82,0.00,,---,0.00,VWS V14.01,2013-02-04 10:15:00,
2013-02-04 05:16:00,40.3,35.2,30.15,West,270,0.0,0.0,82,0.00,,---,0.00,VWS V14.01,2013-02-04 10:16:00,
2013-02-04 05:17:00,40.3,35.2,30.15,West,270,0.0,0.0,82,0.00,,---,0.00,VWS V14.01,2013-02-04 10:17:00,
2013-02-04 05:18:00,38.1,34.6,30.15,WNW,292,0.0,0.0,87,0.00,,---,0.00,VWS V14.01,2013-02-04 10:18:00,
2013-02-04 05:19:00,40.3,35.2,30.15,West,270,0.0,0.0,82,0.00,,---,0.00,VWS V14.01,2013-02-04 10:19:00,
2013-02-04 05:20:00,40.1,35.1,30.15,West,270,0.0,0.0,82,0.00,,---,0.00,VWS V14.01,2013-02-04 10:20:00,
2013-02-04 05:21:00,40.1,35.1,30.15,WSW,248,0.0,0.0,82,0.00,,---,0.00,VWS V14.01,2013-02-04 10:21:00,
2013-02-04 05:22:00,40.1,35.1,30.15,WSW,248,0.0,0.0,82,0.00,,---,0.00,VWS V14.01,2013-02-04 10:22:00,
2013-02-04 05:23:00,37.9,34.4,30.15,West,270,0.0,0.0,87,0.00,,---,0.00,VWS V14.01,2013-02-04 10:23:00,
2013-02-04 05:24:00,40.3,35.5,30.15,SSW,202,0.0,0.0,83,0.00,,---,0.00,VWS V14.01,2013-02-04 10:24:00,
2013-02-04 05:25:00,40.3,35.5,30.15,SW,225,0.0,0.0,83,0.00,,---,0.00,VWS V14.01,2013-02-04 10:25:00,
2013-02-04 05:26:00,40.3,35.8,30.15,SSW,202,0.0,0.0,84,0.00,,---,0.00,VWS V14.01,2013-02-04 10:26:00,
2013-02-04 05:27:00,40.3,35.8,30.15,SSW,202,0.0,0.0,84,0.00,,---,0.00,VWS V14.01,2013-02-04 10:27:00,
2013-02-04 05:28:00,37.9,34.4,30.15,WSW,248,0.0,0.0,87,0.00,,---,0.00,VWS V14.01,2013-02-04 10:28:00,
2013-02-04 05:29:00,40.3,35.8,30.15,SSW,202,0.0,0.0,84,0.00,,---,0.00,VWS V14.01,2013-02-04 10:29:00,
2013-02-04 05:30:00,40.1,35.7,30.15,SSW,202,0.0,0.0,84,0.00,,---,0.00,VWS V14.01,2013-02-04 10:30:00,
2013-02-04 05:31:00,40.1,35.7,30.15,SSW,202,0.0,0.0,84,0.00,,---,0.00,VWS V14.01,2013-02-04 10:31:00,
2013-02-04 05:32:00,39.9,35.5,30.15,SSW,202,0.0,0.0,84,0.00,,---,0.00,VWS V14.01,2013-02-04 10:32:00,
2013-02-04 05:33:00,38.1,34.6,30.15,NW,315,0.0,0.0,87,0.00,,---,0.00,VWS V14.01,2013-02-04 10:33:00,
2013-02-04 05:34:00,40.1,36.0,30.15,SSW,202,0.0,0.0,85,0.00,,---,0.00,VWS V14.01,2013-02-04 10:34:00,
2013-02-04 05:35:00,40.1,36.0,30.15,SSW,202,0.0,0.0,85,0.00,,---,0.00,VWS V14.01,2013-02-04 10:35:00,
2013-02-04 05:36:00,39.9,35.8,30.15,SSW,202,0.0,0.0,85,0.00,,---,0.00,VWS V14.01,2013-02-04 10:36:00,
2013-02-04 05:37:00,39.9,35.8,30.15,SSW,202,0.0,0.0,85,0.00,,---,0.00,VWS V14.01,2013-02-04 10:37:00,
2013-02-04 05:38:00,38.5,35.2,30.15,NNW,338,0.0,0.0,88,0.00,,---,0.00,VWS V14.01,2013-02-04 10:38:00,
2013-02-04 05:39:00,39.9,35.8,30.15,SSW,202,0.0,0.0,85,0.00,,---,0.00,VWS V14.01,2013-02-04 10:39:00,
2013-02-04 05:40:00,39.7,35.6,30.15,SSW,202,0.0,0.0,85,0.00,,---,0.00,VWS V14.01,2013-02-04 10:40:00,
2013-02-04 05:41:00,39.7,35.6,30.15,SSW,202,0.0,0.0,85,0.00,,---,0.00,VWS V14.01,2013-02-04 10:41:00,
2013-02-04 05:42:00,39.6,35.4,30.15,SSW,202,0.0,0.0,85,0.00,,---,0.00,VWS V14.01,2013-02-04 10:42:00,
2013-02-04 05:43:00,38.1,34.9,30.15,NNW,338,0.0,0.0,88,0.00,,---,0.00,VWS V14.01,2013-02-04 10:43:00,
2013-02-04 05:44:00,39.4,35.2,30.15,SSW,202,0.0,0.0,85,0.00,,---,0.00,VWS V14.01,2013-02-04 10:44:00,
2013-02-04 05:45:00,39.4,35.2,30.15,SSW,202,0.0,0.0,85,0.00,,---,0.00,VWS V14.01,2013-02-04 10:45:00,
2013-02-04 05:46:00,39.4,35.2,30.15,SSW,202,0.0,0.0,85,0.00,,---,0.00,VWS V14.01,2013-02-04 10:46:00,
2013-02-04 05:47:00,39.4,35.2,30.15,SSW,202,0.0,0.0,85,0.00,,---,0.00,VWS V14.01,2013-02-04 10:47:00,
2013-02-04 05:48:00,38.1,34.9,30.15,NNW,338,0.0,0.0,88,0.00,,---,0.00,VWS V14.01,2013-02-04 10:48:00,
2013-02-04 05:49:00,39.2,35.1,30.15,SSW,202,0.0,0.0,85,0.00,,---,0.00,VWS V14.01,2013-02-04 10:49:00,
2013-02-04 05:50:00,39.2,35.1,30.15,SSW,202,0.0,0.0,85,0.00,,---,0.00,VWS V14.01,2013-02-04 10:50:00,
2013-02-04 05:51:00,39.2,35.1,30.15,SSW,202,0.0,0.0,85,0.00,,---,0.00,VWS V14.01,2013-02-04 10:51:00,
2013-02-04 05:52:00,39.2,35.1,30.15,SSW,202,0.0,0.0,85,0.00,,---,0.00,VWS V14.01,2013-02-04 10:52:00,
2013-02-04 05:53:00,38.7,35.7,30.15,NNW,338,0.0,0.0,89,0.00,,---,0.00,VWS V14.01,2013-02-04 10:53:00,
2013-02-04 05:54:00,39.4,35.5,30.15,SSW,202,0.0,0.0,86,0.00,,---,0.00,VWS V14.01,2013-02-04 10:54:00,
2013-02-04 05:55:00,39.4,35.5,30.15,SSW,202,0.0,0.0,86,0.00,,---,0.00,VWS V14.01,2013-02-04 10:55:00,
2013-02-04 05:56:00,39.4,35.5,30.15,SSW,202,0.0,0.0,86,0.00,,---,0.00,VWS V14.01,2013-02-04 10:56:00,
2013-02-04 05:57:00,39.4,35.5,30.15,SSW,202,0.0,0.0,86,0.00,,---,0.00,VWS V14.01,2013-02-04 10:57:00,
2013-02-04 05:58:00,38.8,35.9,30.15,NNW,338,0.0,0.0,89,0.00,,---,0.00,VWS V14.01,2013-02-04 10:58:00,
2013-02-04 05:59:00,39.2,35.4,30.15,SSW,202,0.0,0.0,86,0.00,,---,0.00,VWS V14.01,2013-02-04 10:59:00,
2013-02-04 06:00:00,39.4,35.2,30.15,SSW,202,0.0,0.0,85,0.00,,---,0.00,VWS V14.01,2013-02-04 11:00:00,
2013-02-04 06:01:00,39.4,35.2,30.15,SSW,202,0.0,0.0,85,0.00,,---,0.00,VWS V14.01,2013-02-04 11:01:00,
2013-02-04 06:02:00,39.4,35.2,30.15,SSW,202,0.0,0.0,85,0.00,,---,0.00,VWS V14.01,2013-02-04 11:02:00,
2013-02-04 06:03:00,39.4,36.1,30.15,NNW,338,0.0,0.0,88,0.00,,---,0.00,VWS V14.01,2013-02-04 11:03:00,
2013-02-04 06:04:00,39.4,35.2,30.15,SSW,202,0.0,0.0,85,0.00,,---,0.00,VWS V14.01,2013-02-04 11:04:00,
2013-02-04 06:05:00,39.2,35.1,30.15,SSW,202,0.0,0.0,85,0.00,,---,0.00,VWS V14.01,2013-02-04 11:05:00,
2013-02-04 06:06:00,39.2,35.1,30.15,SSW,202,0.0,0.0,85,0.00,,---,0.00,VWS V14.01,2013-02-04 11:06:00,
2013-02-04 06:07:00,39.2,35.4,30.15,SSW,202,0.0,0.0,86,0.00,,---,0.00,VWS V14.01,2013-02-04 11:07:00,
2013-02-04 06:08:00,39.9,37.8,30.12,NNW,338,0.0,0.0,92,0.00,,---,0.00,VWS V14.01,2013-02-04 11:08:00,
2013-02-04 06:09:00,39.0,35.2,30.15,SSW,202,0.0,0.0,86,0.00,,---,0.00,VWS V14.01,2013-02-04 11:09:00,
2013-02-04 06:10:00,38.8,35.0,30.15,SSW,202,0.0,0.0,86,0.00,,---,0.00,VWS V14.01,2013-02-04 11:10:00,
2013-02-04 06:11:00,38.8,35.0,30.15,SSW,202,0.0,0.0,86,0.00,,---,0.00,VWS V14.01,2013-02-04 11:11:00,
2013-02-04 06:12:00,38.8,35.0,30.15,SSW,202,0.0,0.0,86,0.00,,---,0.00,VWS V14.01,2013-02-04 11:12:00,
2013-02-04 06:13:00,40.1,38.0,30.12,NNW,338,0.0,0.0,92,0.00,,---,0.00,VWS V14.01,2013-02-04 11:13:00,
2013-02-04 06:14:00,38.8,35.0,30.15,SSW,202,0.0,0.0,86,0.00,,---,0.00,VWS V14.01,2013-02-04 11:14:00,
2013-02-04 06:15:00,38.8,35.0,30.15,SSW,202,0.0,0.0,86,0.00,,---,0.00,VWS V14.01,2013-02-04 11:15:00,
2013-02-04 06:16:00,38.8,35.0,30.15,SSW,202,0.0,0.0,86,0.00,,---,0.00,VWS V14.01,2013-02-04 11:16:00,
2013-02-04 06:17:00,38.7,34.8,30.15,SSW,202,0.0,0.0,86,0.00,,---,0.00,VWS V14.01,2013-02-04 11:17:00,
2013-02-04 06:18:00,40.3,37.9,30.12,NW,315,0.0,0.0,91,0.00,,---,0.00,VWS V14.01,2013-02-04 11:18:00,
2013-02-04 06:19:00,38.7,34.8,30.15,SSW,202,0.0,0.0,86,0.00,,---,0.00,VWS V14.01,2013-02-04 11:19:00,
2013-02-04 06:20:00,38.8,35.0,30.15,SSW,202,0.0,0.0,86,0.00,,---,0.00,VWS V14.01,2013-02-04 11:20:00,
2013-02-04 06:21:00,38.8,35.0,30.15,SSW,202,0.0,0.0,86,0.00,,---,0.00,VWS V14.01,2013-02-04 11:21:00,
2013-02-04 06:22:00,38.8,35.0,30.15,WNW,292,0.0,0.0,86,0.00,,---,0.00,VWS V14.01,2013-02-04 11:22:00,
2013-02-04 06:23:00,40.3,37.9,30.15,NW,315,0.0,0.0,91,0.00,,---,0.00,VWS V14.01,2013-02-04 11:23:00,
2013-02-04 06:24:00,38.7,34.8,30.15,WNW,292,0.0,0.0,86,0.00,,---,0.00,VWS V14.01,2013-02-04 11:24:00,
2013-02-04 06:25:00,38.7,34.8,30.15,WNW,292,0.0,0.0,86,0.00,,---,0.00,VWS V14.01,2013-02-04 11:25:00,
2013-02-04 06:26:00,38.7,34.8,30.15,WNW,292,0.0,0.0,86,0.00,,---,0.00,VWS V14.01,2013-02-04 11:26:00,
2013-02-04 06:27:00,38.7,34.8,30.15,WNW,292,0.0,0.0,86,0.00,,---,0.00,VWS V14.01,2013-02-04 11:27:00,
2013-02-04 06:28:00,39.9,37.5,30.15,NW,315,0.0,0.0,91,0.00,,---,0.00,VWS V14.01,2013-02-04 11:28:00,
2013-02-04 06:29:00,38.7,34.8,30.15,WNW,292,0.0,0.0,86,0.00,,---,0.00,VWS V14.01,2013-02-04 11:29:00,
2013-02-04 06:30:00,38.7,34.8,30.15,WNW,292,0.0,0.0,86,0.00,,---,0.00,VWS V14.01,2013-02-04 11:30:00,
2013-02-04 06:31:00,38.5,35.0,30.15,WNW,292,0.0,0.0,87,0.00,,---,0.00,VWS V14.01,2013-02-04 11:31:00,
2013-02-04 06:32:00,38.3,34.8,30.15,WNW,292,0.0,0.0,87,0.00,,---,0.00,VWS V14.01,2013-02-04 11:32:00,
2013-02-04 06:33:00,40.3,37.9,30.15,NW,315,0.0,0.0,91,0.00,,---,0.00,VWS V14.01,2013-02-04 11:33:00,
2013-02-04 06:34:00,38.1,34.3,30.15,WNW,292,0.0,0.0,86,0.00,,---,0.00,VWS V14.01,2013-02-04 11:34:00,
2013-02-04 06:35:00,38.1,34.3,30.15,WNW,292,0.0,0.0,86,0.00,,---,0.00,VWS V14.01,2013-02-04 11:35:00,
2013-02-04 06:36:00,38.1,34.3,30.15,WNW,292,0.0,0.0,86,0.00,,---,0.00,VWS V14.01,2013-02-04 11:36:00,
2013-02-04 06:37:00,38.1,34.3,30.15,WNW,292,0.0,0.0,86,0.00,,---,0.00,VWS V14.01,2013-02-04 11:37:00,
2013-02-04 06:38:00,39.9,37.5,30.15,NW,315,0.0,0.0,91,0.00,,---,0.00,VWS V14.01,2013-02-04 11:38:00,
2013-02-04 06:39:00,38.1,34.3,30.15,WNW,292,0.0,0.0,86,0.00,,---,0.00,VWS V14.01,2013-02-04 11:39:00,
2013-02-04 06:40:00,38.1,34.6,30.15,WNW,292,0.0,0.0,87,0.00,,---,0.00,VWS V14.01,2013-02-04 11:40:00,
2013-02-04 06:41:00,38.1,34.6,30.15,WNW,292,0.0,0.0,87,0.00,,---,0.00,VWS V14.01,2013-02-04 11:41:00,
2013-02-04 06:42:00,38.1,34.6,30.15,WNW,292,0.0,0.0,87,0.00,,---,0.00,VWS V14.01,2013-02-04 11:42:00,
2013-02-04 06:43:00,40.1,37.7,30.15,NW,315,0.0,0.0,91,0.00,,---,0.00,VWS V14.01,2013-02-04 11:43:00,
2013-02-04 06:44:00,38.1,34.6,30.15,WNW,292,0.0,0.0,87,0.00,,---,0.00,VWS V14.01,2013-02-04 11:44:00,
2013-02-04 06:45:00,38.1,34.6,30.15,WNW,292,0.0,0.0,87,0.00,,---,0.00,VWS V14.01,2013-02-04 11:45:00,
2013-02-04 06:46:00,38.1,34.6,30.15,WNW,292,0.0,0.0,87,0.00,,---,0.00,VWS V14.01,2013-02-04 11:46:00,
2013-02-04 06:47:00,38.1,34.6,30.15,WNW,292,0.0,0.0,87,0.00,,---,0.00,VWS V14.01,2013-02-04 11:47:00,
2013-02-04 06:48:00,39.9,37.5,30.15,NW,315,0.0,0.0,91,0.00,,---,0.00,VWS V14.01,2013-02-04 11:48:00,
2013-02-04 06:49:00,37.9,34.4,30.15,WNW,292,0.0,0.0,87,0.00,,---,0.00,VWS V14.01,2013-02-04 11:49:00,
2013-02-04 06:50:00,37.9,34.4,30.15,WNW,292,0.0,0.0,87,0.00,,---,0.00,VWS V14.01,2013-02-04 11:50:00,
2013-02-04 06:51:00,37.9,34.4,30.15,West,270,0.0,0.0,87,0.00,,---,0.00,VWS V14.01,2013-02-04 11:51:00,
2013-02-04 06:52:00,37.9,34.4,30.15,West,270,0.0,0.0,87,0.00,,---,0.00,VWS V14.01,2013-02-04 11:52:00,
2013-02-04 06:53:00,40.3,37.9,30.15,NW,315,0.0,0.0,91,0.00,,---,0.00,VWS V14.01,2013-02-04 11:53:00,
2013-02-04 06:54:00,37.9,34.4,30.15,West,270,0.0,0.0,87,0.00,,---,0.00,VWS V14.01,2013-02-04 11:54:00,
2013-02-04 06:55:00,37.9,34.4,30.15,WSW,248,0.0,0.0,87,0.00,,---,0.00,VWS V14.01,2013-02-04 11:55:00,
2013-02-04 06:56:00,37.9,34.4,30.15,WSW,248,0.0,0.0,87,0.00,,---,0.00,VWS V14.01,2013-02-04 11:56:00,
2013-02-04 06:57:00,37.9,34.4,30.15,WSW,248,0.0,0.0,87,0.00,,---,0.00,VWS V14.01,2013-02-04 11:57:00,
2013-02-04 06:58:00,40.1,37.7,30.15,NW,315,0.0,0.0,91,0.00,,---,0.00,VWS V14.01,2013-02-04 11:58:00,
2013-02-04 06:59:00,38.1,34.6,30.15,WNW,292,0.0,0.0,87,0.00,,---,0.00,VWS V14.01,2013-02-04 11:59:00,
2013-02-04 07:00:00,38.1,34.6,30.15,WNW,292,0.0,0.0,87,0.00,,---,0.00,VWS V14.01,2013-02-04 12:00:00,
2013-02-04 07:01:00,38.1,34.6,30.15,NW,315,0.0,0.0,87,0.00,,---,0.00,VWS V14.01,2013-02-04 12:01:00,
2013-02-04 07:02:00,38.5,35.2,30.15,NW,315,0.0,0.0,88,0.00,,---,0.00,VWS V14.01,2013-02-04 12:02:00,
2013-02-04 07:03:00,40.3,37.9,30.15,NW,315,0.0,0.0,91,0.00,,---,0.00,VWS V14.01,2013-02-04 12:03:00,
2013-02-04 07:04:00,38.5,35.2,30.15,NNW,338,0.0,0.0,88,0.00,,---,0.00,VWS V14.01,2013-02-04 12:04:00,
2013-02-04 07:05:00,38.5,35.2,30.15,NNW,338,0.0,0.0,88,0.00,,---,0.00,VWS V14.01,2013-02-04 12:05:00,
2013-02-04 07:06:00,38.5,35.2,30.15,NNW,338,0.0,0.0,88,0.00,,---,0.00,VWS V14.01,2013-02-04 12:06:00,
2013-02-04 07:07:00,40.1,37.7,30.12,NW,315,0.0,0.0,91,0.00,,---,0.00,VWS V14.01,2013-02-04 12:07:00,
2013-02-04 07:08:00,38.5,35.2,30.15,NNW,338,0.0,0.0,88,0.00,,---,0.00,VWS V14.01,2013-02-04 12:08:00,
2013-02-04 07:09:00,38.3,35.1,30.15,NNW,338,0.0,0.0,88,0.00,,---,0.00,VWS V14.01,2013-02-04 12:09:00,
2013-02-04 07:10:00,38.3,35.1,30.15,NNW,338,0.0,0.0,88,0.00,,---,0.00,VWS V14.01,2013-02-04 12:10:00,
2013-02-04 07:11:00,38.1,34.9,30.15,NNW,338,0.0,0.0,88,0.00,,---,0.00,VWS V14.01,2013-02-04 12:11:00,
2013-02-04 07:12:00,38.1,34.9,30.15,NNW,338,0.0,0.0,88,0.00,,---,0.00,VWS V14.01,2013-02-04 12:12:00,
2013-02-04 07:13:00,40.1,37.7,30.12,NW,315,0.0,0.0,91,0.00,,---,0.00,VWS V14.01,2013-02-04 12:13:00,
2013-02-04 07:14:00,38.1,34.9,30.15,NNW,338,0.0,0.0,88,0.00,,---,0.00,VWS V14.01,2013-02-04 12:14:00,
2013-02-04 07:15:00,37.9,34.7,30.15,NNW,338,0.0,0.0,88,0.00,,---,0.00,VWS V14.01,2013-02-04 12:15:00,
2013-02-04 07:16:00,38.1,34.9,30.15,NNW,338,0.0,0.0,88,0.00,,---,0.00,VWS V14.01,2013-02-04 12:16:00,
2013-02-04 07:17:00,38.1,34.9,30.15,NNW,338,0.0,0.0,88,0.00,,---,0.00,VWS V14.01,2013-02-04 12:17:00,
2013-02-04 07:18:00,40.1,38.0,30.12,NW,315,0.0,0.0,92,0.00,,---,0.00,VWS V14.01,2013-02-04 12:18:00,
2013-02-04 07:19:00,38.5,35.2,30.15,NNW,338,0.0,0.0,88,0.00,,---,0.00,VWS V14.01,2013-02-04 12:19:00,
2013-02-04 07:20:00,38.7,35.4,30.15,NNW,338,0.0,0.0,88,0.00,,---,0.00,VWS V14.01,2013-02-04 12:20:00,
2013-02-04 07:21:00,38.7,35.7,30.15,NNW,338,0.0,0.0,89,0.00,,---,0.00,VWS V14.01,2013-02-04 12:21:00,
2013-02-04 07:22:00,38.7,35.7,30.15,NNW,338,0.0,0.0,89,0.00,,---,0.00,VWS V14.01,2013-02-04 12:22:00,
2013-02-04 07:23:00,39.9,37.8,30.15,NW,315,0.0,0.0,92,0.00,,---,0.00,VWS V14.01,2013-02-04 12:23:00,
2013-02-04 07:24:00,38.8,35.9,30.15,NNW,338,0.0,0.0,89,0.00,,---,0.00,VWS V14.01,2013-02-04 12:24:00,
2013-02-04 07:25:00,38.8,35.9,30.15,NNW,338,0.0,0.0,89,0.00,,---,0.00,VWS V14.01,2013-02-04 12:25:00,
2013-02-04 07:26:00,38.8,35.9,30.15,NNW,338,0.0,0.0,89,0.00,,---,0.00,VWS V14.01,2013-02-04 12:26:00,
2013-02-04 07:27:00,40.3,38.2,30.15,NW,315,0.0,0.0,92,0.00,,---,0.00,VWS V14.01,2013-02-04 12:27:00,
2013-02-04 07:28:00,38.8,35.9,30.15,North,0,0.0,0.0,89,0.00,,---,0.00,VWS V14.01,2013-02-04 12:28:00,
2013-02-04 07:29:00,38.7,35.7,30.15,North,0,0.0,0.0,89,0.00,,---,0.00,VWS V14.01,2013-02-04 12:29:00,
2013-02-04 07:30:00,38.8,35.9,30.15,NNW,338,0.0,0.0,89,0.00,,---,0.00,VWS V14.01,2013-02-04 12:30:00,
2013-02-04 07:31:00,39.4,36.1,30.15,NNW,338,0.0,0.0,88,0.00,,---,0.00,VWS V14.01,2013-02-04 12:31:00,
2013-02-04 07:32:00,39.7,37.0,30.12,NNW,338,0.0,0.0,90,0.00,,---,0.00,VWS V14.01,2013-02-04 12:32:00,
2013-02-04 07:33:00,40.5,38.6,30.15,NW,315,0.0,0.0,93,0.00,,---,0.00,VWS V14.01,2013-02-04 12:33:00,
2013-02-04 07:34:00,39.9,37.8,30.12,NNW,338,0.0,0.0,92,0.00,,---,0.00,VWS V14.01,2013-02-04 12:34:00,
2013-02-04 07:35:00,39.9,37.8,30.12,NNW,338,0.0,0.0,92,0.00,,---,0.00,VWS V14.01,2013-02-04 12:35:00,
2013-02-04 07:36:00,39.9,37.8,30.12,NNW,338,0.0,0.0,92,0.00,,---,0.00,VWS V14.01,2013-02-04 12:36:00,
2013-02-04 07:37:00,40.1,38.0,30.12,NNW,338,0.0,0.0,92,0.00,,---,0.00,VWS V14.01,2013-02-04 12:37:00,
2013-02-04 07:38:00,40.8,39.2,30.15,NW,315,0.0,0.0,94,0.00,,---,0.00,VWS V14.01,2013-02-04 12:38:00,
2013-02-04 07:39:00,40.1,38.0,30.12,NNW,338,0.0,0.0,92,0.00,,---,0.00,VWS V14.01,2013-02-04 12:39:00,
2013-02-04 07:40:00,40.1,38.0,30.12,NNW,338,0.0,0.0,92,0.00,,---,0.00,VWS V14.01,2013-02-04 12:40:00,
2013-02-04 07:41:00,40.1,38.0,30.12,NNW,338,0.0,0.0,92,0.00,,---,0.00,VWS V14.01,2013-02-04 12:41:00,
2013-02-04 07:42:00,40.3,38.2,30.12,NW,315,0.0,0.0,92,0.00,,---,0.00,VWS V14.01,2013-02-04 12:42:00,
2013-02-04 07:43:00,41.4,39.8,30.15,NNW,338,0.0,0.0,94,0.00,,---,0.00,VWS V14.01,2013-02-04 12:43:00,
2013-02-04 07:44:00,40.3,38.2,30.12,NW,315,0.0,0.0,92,0.00,,---,0.00,VWS V14.01,2013-02-04 12:44:00,
2013-02-04 07:45:00,40.3,37.9,30.12,NW,315,0.0,0.0,91,0.00,,---,0.00,VWS V14.01,2013-02-04 12:45:00,
2013-02-04 07:46:00,40.3,37.9,30.12,NW,315,0.0,0.0,91,0.00,,---,0.00,VWS V14.01,2013-02-04 12:46:00,
2013-02-04 07:47:00,40.3,37.9,30.15,NW,315,0.0,0.0,91,0.00,,---,0.00,VWS V14.01,2013-02-04 12:47:00,
2013-02-04 07:48:00,41.9,40.3,30.15,NNW,338,0.0,0.0,94,0.00,,---,0.00,VWS V14.01,2013-02-04 12:48:00,
2013-02-04 07:49:00,40.3,37.9,30.15,NW,315,0.0,0.0,91,0.00,,---,0.00,VWS V14.01,2013-02-04 12:49:00,
2013-02-04 07:50:00,40.3,37.9,30.15,NW,315,0.0,0.0,91,0.00,,---,0.00,VWS V14.01,2013-02-04 12:50:00,
2013-02-04 07:51:00,40.3,37.9,30.15,NW,315,0.0,0.0,91,0.00,,---,0.00,VWS V14.01,2013-02-04 12:51:00,
2013-02-04 07:52:00,42.1,40.5,30.15,NNW,338,0.0,0.0,94,0.00,,---,0.00,VWS V14.01,2013-02-04 12:52:00,
2013-02-04 07:53:00,40.1,37.7,30.15,NW,315,0.0,0.0,91,0.00,,---,0.00,VWS V14.01,2013-02-04 12:53:00,
2013-02-04 07:54:00,40.1,37.7,30.15,NW,315,0.0,0.0,91,0.00,,---,0.00,VWS V14.01,2013-02-04 12:54:00,
2013-02-04 07:55:00,40.1,37.7,30.15,NW,315,0.0,0.0,91,0.00,,---,0.00,VWS V14.01,2013-02-04 12:55:00,
2013-02-04 07:56:00,39.9,37.5,30.15,NW,315,0.0,0.0,91,0.00,,---,0.00,VWS V14.01,2013-02-04 12:56:00,
2013-02-04 07:57:00,42.8,41.2,30.15,NNW,338,0.0,0.0,94,0.00,,---,0.00,VWS V14.01,2013-02-04 12:57:00,
2013-02-04 07:58:00,39.9,37.2,30.15,NW,315,0.0,0.0,90,0.00,,---,0.00,VWS V14.01,2013-02-04 12:58:00,
2013-02-04 07:59:00,40.1,37.4,30.15,NW,315,0.0,0.0,90,0.00,,---,0.00,VWS V14.01,2013-02-04 12:59:00,
2013-02-04 08:00:00,40.3,37.9,30.15,NW,315,0.0,0.0,91,0.00,,---,0.00,VWS V14.01,2013-02-04 13:00:00,
2013-02-04 08:01:00,40.3,37.9,30.15,NW,315,0.0,0.0,91,0.00,,---,0.00,VWS V14.01,2013-02-04 13:01:00,
2013-02-04 08:02:00,43.3,42.0,30.15,NNW,338,0.0,0.0,95,0.00,,---,0.00,VWS V14.01,2013-02-04 13:02:00,
2013-02-04 08:03:00,40.1,37.7,30.15,NW,315,0.0,0.0,91,0.00,,---,0.00,VWS V14.01,2013-02-04 13:03:00,
2013-02-04 08:04:00,39.9,37.5,30.15,NW,315,0.0,0.0,91,0.00,,---,0.00,VWS V14.01,2013-02-04 13:04:00,
2013-02-04 08:05:00,39.9,37.5,30.15,NW,315,0.0,0.0,91,0.00,,---,0.00,VWS V14.01,2013-02-04 13:05:00,
2013-02-04 08:06:00,39.9,37.5,30.15,NW,315,0.0,0.0,91,0.00,,---,0.00,VWS V14.01,2013-02-04 13:06:00,
2013-02-04 08:07:00,44.4,43.1,30.12,NNW,338,0.0,0.0,95,0.00,,---,0.00,VWS V14.01,2013-02-04 13:07:00,
2013-02-04 08:08:00,40.1,37.7,30.15,NW,315,0.0,0.0,91,0.00,,---,0.00,VWS V14.01,2013-02-04 13:08:00,
2013-02-04 08:09:00,40.1,37.7,30.15,NW,315,0.0,0.0,91,0.00,,---,0.00,VWS V14.01,2013-02-04 13:09:00,
2013-02-04 08:10:00,40.1,37.7,30.15,NW,315,0.0,0.0,91,0.00,,---,0.00,VWS V14.01,2013-02-04 13:10:00,
2013-02-04 08:11:00,40.1,37.7,30.15,NW,315,0.0,0.0,91,0.00,,---,0.00,VWS V14.01,2013-02-04 13:11:00,
2013-02-04 08:12:00,45.5,44.4,30.12,NNW,338,0.0,0.0,96,0.00,,---,0.00,VWS V14.01,2013-02-04 13:12:00,
2013-02-04 08:13:00,40.1,37.7,30.15,NW,315,0.0,0.0,91,0.00,,---,0.00,VWS V14.01,2013-02-04 13:13:00,
2013-02-04 08:14:00,40.1,37.7,30.15,NW,315,0.0,0.0,91,0.00,,---,0.00,VWS V14.01,2013-02-04 13:14:00,
2013-02-04 08:15:00,39.9,37.5,30.15,NW,315,0.0,0.0,91,0.00,,---,0.00,VWS V14.01,2013-02-04 13:15:00,
2013-02-04 08:16:00,39.9,37.5,30.15,NW,315,0.0,0.0,91,0.00,,---,0.00,VWS V14.01,2013-02-04 13:16:00,
2013-02-04 08:17:00,46.6,45.8,30.12,NW,315,0.0,0.0,97,0.00,,---,0.00,VWS V14.01,2013-02-04 13:17:00,
2013-02-04 08:18:00,39.9,37.5,30.15,NW,315,0.0,0.0,91,0.00,,---,0.00,VWS V14.01,2013-02-04 13:18:00,
2013-02-04 08:19:00,39.9,37.5,30.15,NW,315,0.0,0.0,91,0.00,,---,0.00,VWS V14.01,2013-02-04 13:19:00,
2013-02-04 08:20:00,40.1,37.7,30.15,NW,315,0.0,0.0,91,0.00,,---,0.00,VWS V14.01,2013-02-04 13:20:00,
2013-02-04 08:21:00,40.3,37.9,30.15,NW,315,0.0,0.0,91,0.00,,---,0.00,VWS V14.01,2013-02-04 13:21:00,
2013-02-04 08:22:00,47.5,47.0,30.15,NNW,338,0.0,0.0,98,0.00,,---,0.00,VWS V14.01,2013-02-04 13:22:00,
2013-02-04 08:23:00,40.3,37.9,30.15,NW,315,0.0,0.0,91,0.00,,---,0.00,VWS V14.01,2013-02-04 13:23:00,
2013-02-04 08:24:00,40.3,37.9,30.15,NW,315,0.0,0.0,91,0.00,,---,0.00,VWS V14.01,2013-02-04 13:24:00,
2013-02-04 08:25:00,40.3,37.9,30.15,NW,315,0.0,0.0,91,0.00,,---,0.00,VWS V14.01,2013-02-04 13:25:00,
2013-02-04 08:26:00,40.1,37.7,30.15,NW,315,0.0,0.0,91,0.00,,---,0.00,VWS V14.01,2013-02-04 13:26:00,
2013-02-04 08:27:00,48.0,47.5,30.15,NNW,338,0.0,0.0,98,0.00,,---,0.00,VWS V14.01,2013-02-04 13:27:00,
2013-02-04 08:28:00,40.1,37.7,30.15,NW,315,0.0,0.0,91,0.00,,---,0.00,VWS V14.01,2013-02-04 13:28:00,
2013-02-04 08:29:00,40.1,37.7,30.15,NW,315,0.0,0.0,91,0.00,,---,0.00,VWS V14.01,2013-02-04 13:29:00,
2013-02-04 08:30:00,40.3,37.9,30.15,NW,315,0.0,0.0,91,0.00,,---,0.00,VWS V14.01,2013-02-04 13:30:00,
2013-02-04 08:31:00,40.3,37.9,30.15,NW,315,0.0,0.0,91,0.00,,---,0.00,VWS V14.01,2013-02-04 13:31:00,
2013-02-04 08:32:00,48.7,48.2,30.15,WNW,292,0.0,0.0,98,0.00,,---,0.00,VWS V14.01,2013-02-04 13:32:00,
2013-02-04 08:33:00,40.3,37.9,30.12,NW,315,0.0,0.0,91,0.00,,---,0.00,VWS V14.01,2013-02-04 13:33:00,
2013-02-04 08:34:00,40.1,37.7,30.12,NW,315,0.0,0.0,91,0.00,,---,0.00,VWS V14.01,2013-02-04 13:34:00,
2013-02-04 08:35:00,40.1,37.7,30.12,NW,315,0.0,0.0,91,0.00,,---,0.00,VWS V14.01,2013-02-04 13:35:00,
2013-02-04 08:36:00,40.1,37.7,30.12,NW,315,0.0,0.0,91,0.00,,---,0.00,VWS V14.01,2013-02-04 13:36:00,
2013-02-04 08:37:00,49.6,48.5,30.15,NNW,338,0.0,0.0,96,0.00,,---,0.00,VWS V14.01,2013-02-04 13:37:00,
2013-02-04 08:38:00,39.9,37.5,30.12,NW,315,0.0,0.0,91,0.00,,---,0.00,VWS V14.01,2013-02-04 13:38:00,
2013-02-04 08:39:00,39.9,37.5,30.12,NW,315,0.0,0.0,91,0.00,,---,0.00,VWS V14.01,2013-02-04 13:39:00,
2013-02-04 08:40:00,39.9,37.5,30.12,NW,315,0.0,0.0,91,0.00,,---,0.00,VWS V14.01,2013-02-04 13:40:00,
2013-02-04 08:41:00,40.1,37.7,30.12,NW,315,0.0,0.0,91,0.00,,---,0.00,VWS V14.01,2013-02-04 13:41:00,
2013-02-04 08:42:00,50.4,48.1,30.15,WNW,292,0.0,0.0,92,0.00,,---,0.00,VWS V14.01,2013-02-04 13:42:00,
2013-02-04 08:43:00,40.1,38.0,30.12,NW,315,0.0,0.0,92,0.00,,---,0.00,VWS V14.01,2013-02-04 13:43:00,
2013-02-04 08:44:00,40.1,38.0,30.12,NW,315,0.0,0.0,92,0.00,,---,0.00,VWS V14.01,2013-02-04 13:44:00,
2013-02-04 08:45:00,40.1,38.0,30.12,NW,315,0.0,0.0,92,0.00,,---,0.00,VWS V14.01,2013-02-04 13:45:00,
2013-02-04 08:46:00,40.1,38.0,30.12,NW,315,0.0,0.0,92,0.00,,---,0.00,VWS V14.01,2013-02-04 13:46:00,
2013-02-04 08:47:00,51.1,46.4,30.15,NNE,22,0.0,0.0,84,0.00,,---,0.00,VWS V14.01,2013-02-04 13:47:00,
2013-02-04 08:48:00,40.1,38.0,30.15,NW,315,0.0,0.0,92,0.00,,---,0.00,VWS V14.01,2013-02-04 13:48:00,
2013-02-04 08:49:00,39.9,37.8,30.15,NW,315,0.0,0.0,92,0.00,,---,0.00,VWS V14.01,2013-02-04 13:49:00,
2013-02-04 08:50:00,39.9,37.8,30.15,NW,315,0.0,0.0,92,0.00,,---,0.00,VWS V14.01,2013-02-04 13:50:00,
2013-02-04 08:51:00,39.9,37.8,30.15,NW,315,0.0,0.0,92,0.00,,---,0.00,VWS V14.01,2013-02-04 13:51:00,
2013-02-04 08:52:00,52.0,45.3,30.15,NW,315,0.0,0.0,78,0.00,,---,0.00,VWS V14.01,2013-02-04 13:52:00,
2013-02-04 08:53:00,39.9,37.8,30.15,NW,315,0.0,0.0,92,0.00,,---,0.00,VWS V14.01,2013-02-04 13:53:00,
2013-02-04 08:54:00,40.1,38.0,30.15,NW,315,0.0,0.0,92,0.00,,---,0.00,VWS V14.01,2013-02-04 13:54:00,
2013-02-04 08:55:00,40.1,38.0,30.15,NW,315,0.0,0.0,92,0.00,,---,0.00,VWS V14.01,2013-02-04 13:55:00,
2013-02-04 08:56:00,40.3,38.2,30.15,NW,315,0.0,0.0,92,0.00,,---,0.00,VWS V14.01,2013-02-04 13:56:00,
2013-02-04 08:57:00,52.7,44.7,30.15,North,0,0.0,0.0,74,0.00,,---,0.00,VWS V14.01,2013-02-04 13:57:00,
2013-02-04 08:58:00,40.3,38.4,30.15,NW,315,0.0,0.0,93,0.00,,---,0.00,VWS V14.01,2013-02-04 13:58:00,
2013-02-04 08:59:00,40.3,38.4,30.15,NW,315,0.0,0.0,93,0.00,,---,0.00,VWS V14.01,2013-02-04 13:59:00,
2013-02-04 09:00:00,40.3,38.4,30.15,NW,315,0.0,0.0,93,0.00,,---,0.00,VWS V14.01,2013-02-04 14:00:00,
2013-02-04 09:01:00,40.5,38.6,30.15,NW,315,0.0,0.0,93,0.00,,---,0.00,VWS V14.01,2013-02-04 14:01:00,
2013-02-04 09:02:00,53.4,44.3,30.15,NNW,338,0.0,0.0,71,0.00,,---,0.00,VWS V14.01,2013-02-04 14:02:00,
2013-02-04 09:03:00,40.5,38.6,30.15,NW,315,0.0,0.0,93,0.00,,---,0.00,VWS V14.01,2013-02-04 14:03:00,
2013-02-04 09:04:00,40.6,38.8,30.15,NW,315,0.0,0.0,93,0.00,,---,0.00,VWS V14.01,2013-02-04 14:04:00,
2013-02-04 09:05:00,40.8,39.0,30.15,NW,315,0.0,0.0,93,0.00,,---,0.00,VWS V14.01,2013-02-04 14:05:00,
2013-02-04 09:06:00,40.8,39.2,30.15,NW,315,0.0,0.0,94,0.00,,---,0.00,VWS V14.01,2013-02-04 14:06:00,
2013-02-04 09:07:00,54.0,43.3,30.15,North,0,0.0,0.0,67,0.00,,---,0.00,VWS V14.01,2013-02-04 14:07:00,
2013-02-04 09:08:00,41.2,39.3,30.15,NNW,338,0.0,0.0,93,0.00,,---,0.00,VWS V14.01,2013-02-04 14:08:00,
2013-02-04 09:09:00,41.4,39.5,30.15,NNW,338,0.0,0.0,93,0.00,,---,0.00,VWS V14.01,2013-02-04 14:09:00,
2013-02-04 09:10:00,41.4,39.8,30.15,NNW,338,0.0,0.0,94,0.00,,---,0.00,VWS V14.01,2013-02-04 14:10:00,
2013-02-04 09:11:00,41.4,39.8,30.15,NNW,338,0.0,0.0,94,0.00,,---,0.00,VWS V14.01,2013-02-04 14:11:00,
2013-02-04 09:12:00,54.5,43.4,30.15,NW,315,0.0,0.0,66,0.00,,---,0.00,VWS V14.01,2013-02-04 14:12:00,
2013-02-04 09:13:00,41.7,40.1,30.15,NNW,338,0.0,0.0,94,0.00,,---,0.00,VWS V14.01,2013-02-04 14:13:00,
2013-02-04 09:14:00,41.9,40.3,30.15,NNW,338,0.0,0.0,94,0.00,,---,0.00,VWS V14.01,2013-02-04 14:14:00,
2013-02-04 09:15:00,41.9,40.3,30.15,NNW,338,0.0,0.0,94,0.00,,---,0.00,VWS V14.01,2013-02-04 14:15:00,
2013-02-04 09:16:00,41.9,40.3,30.15,NNW,338,0.0,0.0,94,0.00,,---,0.00,VWS V14.01,2013-02-04 14:16:00,
2013-02-04 09:17:00,55.4,41.8,30.15,NNE,22,0.0,0.0,60,0.00,,---,0.00,VWS V14.01,2013-02-04 14:17:00,
2013-02-04 09:18:00,41.9,40.3,30.15,NNW,338,0.0,0.0,94,0.00,,---,0.00,VWS V14.01,2013-02-04 14:18:00,
2013-02-04 09:19:00,42.1,40.5,30.15,NNW,338,0.0,0.0,94,0.00,,---,0.00,VWS V14.01,2013-02-04 14:19:00,
2013-02-04 09:20:00,42.1,40.5,30.15,NNW,338,0.0,0.0,94,0.00,,---,0.00,VWS V14.01,2013-02-04 14:20:00,
2013-02-04 09:21:00,42.1,40.5,30.15,NNW,338,0.0,0.0,94,0.00,,---,0.00,VWS V14.01,2013-02-04 14:21:00,
2013-02-04 09:22:00,55.9,41.8,30.15,NNW,338,0.0,0.0,59,0.00,,---,0.00,VWS V14.01,2013-02-04 14:22:00,
2013-02-04 09:23:00,42.3,40.7,30.15,NNW,338,0.0,0.0,94,0.00,,---,0.00,VWS V14.01,2013-02-04 14:23:00,
2013-02-04 09:24:00,42.4,40.8,30.15,NNW,338,0.0,0.0,94,0.00,,---,0.00,VWS V14.01,2013-02-04 14:24:00,
2013-02-04 09:25:00,42.6,41.0,30.15,NNW,338,0.0,0.0,94,0.00,,---,0.00,VWS V14.01,2013-02-04 14:25:00,
2013-02-04 09:26:00,42.8,41.2,30.15,NNW,338,0.0,0.0,94,0.00,,---,0.00,VWS V14.01,2013-02-04 14:26:00,
2013-02-04 09:27:00,56.8,43.1,30.15,North,0,0.0,0.0,60,0.00,,---,0.00,VWS V14.01,2013-02-04 14:27:00,
2013-02-04 09:28:00,43.0,41.7,30.15,NNW,338,0.0,0.0,95,0.00,,---,0.00,VWS V14.01,2013-02-04 14:28:00,
2013-02-04 09:29:00,43.0,41.7,30.15,NNW,338,0.0,0.0,95,0.00,,---,0.00,VWS V14.01,2013-02-04 14:29:00,
2013-02-04 09:30:00,43.3,42.0,30.15,NNW,338,0.0,0.0,95,0.00,,---,0.00,VWS V14.01,2013-02-04 14:30:00,
2013-02-04 09:31:00,43.3,42.0,30.15,NNW,338,0.0,0.0,95,0.00,,---,0.00,VWS V14.01,2013-02-04 14:31:00,
2013-02-04 09:32:00,57.6,42.9,30.15,NNW,338,0.0,0.0,58,0.00,,---,0.00,VWS V14.01,2013-02-04 14:32:00,
2013-02-04 09:33:00,43.7,42.4,30.12,NNW,338,0.0,0.0,95,0.00,,---,0.00,VWS V14.01,2013-02-04 14:33:00,
2013-02-04 09:34:00,44.1,42.7,30.12,NNW,338,0.0,0.0,95,0.00,,---,0.00,VWS V14.01,2013-02-04 14:34:00,
2013-02-04 09:35:00,44.4,43.1,30.12,NNW,338,0.0,0.0,95,0.00,,---,0.00,VWS V14.01,2013-02-04 14:35:00,
2013-02-04 09:36:00,44.4,43.1,30.12,NNW,338,0.0,0.0,95,0.00,,---,0.00,VWS V14.01,2013-02-04 14:36:00,
2013-02-04 09:37:00,57.4,40.4,30.15,NNW,338,0.0,0.0,53,0.00,,---,0.00,VWS V14.01,2013-02-04 14:37:00,
2013-02-04 09:38:00,45.1,43.8,30.12,NNW,338,0.0,0.0,95,0.00,,---,0.00,VWS V14.01,2013-02-04 14:38:00,
2013-02-04 09:39:00,45.3,44.2,30.12,NNW,338,0.0,0.0,96,0.00,,---,0.00,VWS V14.01,2013-02-04 14:39:00,
2013-02-04 09:40:00,45.3,44.2,30.12,NNW,338,0.0,0.0,96,0.00,,---,0.00,VWS V14.01,2013-02-04 14:40:00,
2013-02-04 09:41:00,45.5,44.4,30.12,NNW,338,0.0,0.0,96,0.00,,---,0.00,VWS V14.01,2013-02-04 14:41:00,
2013-02-04 09:42:00,57.4,39.9,30.15,North,0,0.0,0.0,52,0.00,,---,0.00,VWS V14.01,2013-02-04 14:42:00,
2013-02-04 09:43:00,46.0,45.2,30.12,NNW,338,0.0,0.0,97,0.00,,---,0.00,VWS V14.01,2013-02-04 14:43:00,
2013-02-04 09:44:00,46.2,45.4,30.12,NNW,338,0.0,0.0,97,0.00,,---,0.00,VWS V14.01,2013-02-04 14:44:00,
2013-02-04 09:45:00,46.4,45.6,30.12,NNW,338,0.0,0.0,97,0.00,,---,0.00,VWS V14.01,2013-02-04 14:45:00,
2013-02-04 09:46:00,46.6,45.8,30.12,NW,315,0.0,0.0,97,0.00,,---,0.00,VWS V14.01,2013-02-04 14:46:00,
2013-02-04 09:47:00,57.6,40.6,30.15,NNW,338,0.0,0.0,53,0.00,,---,0.00,VWS V14.01,2013-02-04 14:47:00,
2013-02-04 09:48:00,46.9,46.1,30.15,NNW,338,0.0,0.0,97,0.00,,---,0.00,VWS V14.01,2013-02-04 14:48:00,
2013-02-04 09:49:00,47.3,46.5,30.15,WSW,248,0.0,0.0,97,0.00,,---,0.00,VWS V14.01,2013-02-04 14:49:00,
2013-02-04 09:50:00,47.3,46.8,30.15,North,0,0.0,0.0,98,0.00,,---,0.00,VWS V14.01,2013-02-04 14:50:00,
2013-02-04 09:51:00,47.5,47.0,30.15,NNW,338,0.0,0.0,98,0.00,,---,0.00,VWS V14.01,2013-02-04 14:51:00,
2013-02-04 09:52:00,58.3,40.2,30.18,NNW,338,0.0,0.0,51,0.00,,---,0.00,VWS V14.01,2013-02-04 14:52:00,
2013-02-04 09:53:00,47.7,47.1,30.15,NNW,338,0.0,0.0,98,0.00,,---,0.00,VWS V14.01,2013-02-04 14:53:00,
2013-02-04 09:54:00,47.8,47.3,30.15,NNW,338,0.0,0.0,98,0.00,,---,0.00,VWS V14.01,2013-02-04 14:54:00,
2013-02-04 09:55:00,47.8,47.3,30.15,NNW,338,0.0,0.0,98,0.00,,---,0.00,VWS V14.01,2013-02-04 14:55:00,
2013-02-04 09:56:00,48.0,47.5,30.15,NNW,338,0.0,0.0,98,0.00,,---,0.00,VWS V14.01,2013-02-04 14:56:00,
2013-02-04 09:57:00,58.8,40.8,30.18,NW,315,0.0,0.0,51,0.00,,---,0.00,VWS V14.01,2013-02-04 14:57:00,
2013-02-04 09:58:00,48.2,47.7,30.15,NNW,338,0.0,0.0,98,0.00,,---,0.00,VWS V14.01,2013-02-04 14:58:00,
2013-02-04 09:59:00,48.2,47.7,30.15,NNW,338,0.0,0.0,98,0.00,,---,0.00,VWS V14.01,2013-02-04 14:59:00,
2013-02-04 10:00:00,48.6,48.0,30.15,NNW,338,0.0,0.0,98,0.00,,---,0.00,VWS V14.01,2013-02-04 15:00:00,
2013-02-04 10:01:00,48.7,48.2,30.15,WNW,292,0.0,0.0,98,0.00,,---,0.00,VWS V14.01,2013-02-04 15:01:00,
2013-02-04 10:02:00,59.2,41.6,30.18,NNW,338,0.0,0.0,52,0.00,,---,0.00,VWS V14.01,2013-02-04 15:02:00,
2013-02-04 10:03:00,48.9,48.1,30.15,WNW,292,0.0,0.0,97,0.00,,---,0.00,VWS V14.01,2013-02-04 15:03:00,
2013-02-04 10:04:00,49.1,48.3,30.15,NNW,338,0.0,0.0,97,0.00,,---,0.00,VWS V14.01,2013-02-04 15:04:00,
2013-02-04 10:05:00,49.3,48.2,30.15,NNW,338,0.0,0.0,96,0.00,,---,0.00,VWS V14.01,2013-02-04 15:05:00,
2013-02-04 10:06:00,49.6,48.5,30.15,NNW,338,0.0,0.0,96,0.00,,---,0.00,VWS V14.01,2013-02-04 15:06:00,
2013-02-04 10:07:00,59.4,40.2,30.15,NNW,338,0.0,0.0,49,0.00,,---,0.00,VWS V14.01,2013-02-04 15:07:00,
2013-02-04 10:08:00,49.8,48.5,30.15,NW,315,0.0,0.0,95,0.00,,---,0.00,VWS V14.01,2013-02-04 15:08:00,
2013-02-04 10:09:00,50.0,48.3,30.15,NNW,338,0.0,0.0,94,0.00,,---,0.00,VWS V14.01,2013-02-04 15:09:00,
2013-02-04 10:10:00,50.2,48.2,30.15,NNW,338,0.0,0.0,93,0.00,,---,0.00,VWS V14.01,2013-02-04 15:10:00,
2013-02-04 10:11:00,50.4,48.1,30.15,WNW,292,0.0,0.0,92,0.00,,---,0.00,VWS V14.01,2013-02-04 15:11:00,
2013-02-04 10:12:00,60.1,40.3,30.15,WNW,292,0.0,0.0,48,0.00,,---,0.00,VWS V14.01,2013-02-04 15:12:00,
2013-02-04 10:13:00,50.7,47.6,30.15,NW,315,0.0,0.0,89,0.00,,---,0.00,VWS V14.01,2013-02-04 15:13:00,
2013-02-04 10:14:00,50.9,47.2,30.15,NNE,22,0.0,0.0,87,0.00,,---,0.00,VWS V14.01,2013-02-04 15:14:00,
2013-02-04 10:15:00,50.9,46.9,30.15,North,0,0.0,0.0,86,0.00,,---,0.00,VWS V14.01,2013-02-04 15:15:00,
2013-02-04 10:16:00,51.1,46.4,30.15,North,0,0.0,0.0,84,0.00,,---,0.00,VWS V14.01,2013-02-04 15:16:00,
2013-02-04 10:17:00,61.7,40.2,30.15,North,0,0.0,0.0,45,0.00,,---,0.00,VWS V14.01,2013-02-04 15:17:00,
2013-02-04 10:18:00,51.4,46.1,30.15,NW,315,0.0,0.0,82,0.00,,---,0.00,VWS V14.01,2013-02-04 15:18:00,
2013-02-04 10:19:00,51.6,46.3,30.15,NNW,338,0.0,0.0,82,0.00,,---,0.00,VWS V14.01,2013-02-04 15:19:00,
2013-02-04 10:20:00,52.0,46.0,30.15,NNE,22,0.0,0.0,80,0.00,,---,0.00,VWS V14.01,2013-02-04 15:20:00,
2013-02-04 10:21:00,52.0,45.3,30.15,NW,315,0.0,0.0,78,0.00,,---,0.00,VWS V14.01,2013-02-04 15:21:00,
2013-02-04 10:22:00,62.6,38.0,30.18,NNW,338,0.0,0.0,40,0.00,,---,0.00,VWS V14.01,2013-02-04 15:22:00,
2013-02-04 10:23:00,52.3,45.3,30.15,NNW,338,0.0,0.0,77,0.00,,---,0.00,VWS V14.01,2013-02-04 15:23:00,
2013-02-04 10:24:00,52.5,44.8,30.15,North,0,0.0,0.0,75,0.00,,---,0.00,VWS V14.01,2013-02-04 15:24:00,
2013-02-04 10:25:00,52.5,44.5,30.15,North,0,0.0,0.0,74,0.00,,---,0.00,VWS V14.01,2013-02-04 15:25:00,
2013-02-04 10:26:00,52.7,44.7,30.15,North,0,0.0,0.0,74,0.00,,---,0.00,VWS V14.01,2013-02-04 15:26:00,
2013-02-04 10:27:00,64.2,36.7,30.18,NNE,22,0.0,0.0,36,0.00,,---,0.00,VWS V14.01,2013-02-04 15:27:00,
2013-02-04 10:28:00,53.2,45.2,30.15,NNW,338,0.0,0.0,74,0.00,,---,0.00,VWS V14.01,2013-02-04 15:28:00,
2013-02-04 10:29:00,53.4,45.0,30.15,NNE,22,0.0,0.0,73,0.00,,---,0.00,VWS V14.01,2013-02-04 15:29:00,
2013-02-04 10:30:00,53.4,44.6,30.15,NNW,338,0.0,0.0,72,0.00,,---,0.00,VWS V14.01,2013-02-04 15:30:00,
2013-02-04 10:31:00,53.4,44.3,30.15,NNW,338,0.0,0.0,71,0.00,,---,0.00,VWS V14.01,2013-02-04 15:31:00,
2013-02-04 10:32:00,65.1,35.3,30.18,NNW,338,0.0,0.0,33,0.00,,---,0.00,VWS V14.01,2013-02-04 15:32:00,
2013-02-04 10:33:00,53.6,44.1,30.15,NW,315,0.0,0.0,70,0.00,,---,0.00,VWS V14.01,2013-02-04 15:33:00,
2013-02-04 10:34:00,53.8,43.9,30.15,NNE,22,0.0,0.0,69,0.00,,---,0.00,VWS V14.01,2013-02-04 15:34:00,
2013-02-04 10:35:00,53.8,43.5,30.15,NNE,22,0.0,0.0,68,0.00,,---,0.00,VWS V14.01,2013-02-04 15:35:00,
2013-02-04 10:36:00,54.0,42.9,30.15,North,0,0.0,0.0,66,0.00,,---,0.00,VWS V14.01,2013-02-04 15:36:00,
2013-02-04 10:37:00,66.2,36.3,30.18,NNW,338,0.0,0.0,33,0.00,,---,0.00,VWS V14.01,2013-02-04 15:37:00,
2013-02-04 10:38:00,54.3,42.8,30.15,North,0,0.0,0.0,65,0.00,,---,0.00,VWS V14.01,2013-02-04 15:38:00,
2013-02-04 10:39:00,54.5,43.4,30.15,NNW,338,0.0,0.0,66,0.00,,---,0.00,VWS V14.01,2013-02-04 15:39:00,
2013-02-04 10:40:00,54.5,43.4,30.15,NW,315,0.0,0.0,66,0.00,,---,0.00,VWS V14.01,2013-02-04 15:40:00,
2013-02-04 10:41:00,54.5,43.4,30.15,NNW,338,0.0,0.0,66,0.00,,---,0.00,VWS V14.01,2013-02-04 15:41:00,
2013-02-04 10:42:00,67.1,33.8,30.18,North,0,0.0,0.0,29,0.00,,---,0.00,VWS V14.01,2013-02-04 15:42:00,
2013-02-04 10:43:00,55.2,42.9,30.15,North,0,0.0,0.0,63,0.00,,---,0.00,VWS V14.01,2013-02-04 15:43:00,
2013-02-04 10:44:00,55.2,42.0,30.15,NW,315,0.0,0.0,61,0.00,,---,0.00,VWS V14.01,2013-02-04 15:44:00,
2013-02-04 10:45:00,55.4,42.6,30.15,North,0,0.0,0.0,62,0.00,,---,0.00,VWS V14.01,2013-02-04 15:45:00,
2013-02-04 10:46:00,55.4,41.8,30.15,WNW,292,0.0,0.0,60,0.00,,---,0.00,VWS V14.01,2013-02-04 15:46:00,
2013-02-04 10:47:00,67.3,33.1,30.18,NNW,338,0.0,0.0,28,0.00,,---,0.00,VWS V14.01,2013-02-04 15:47:00,
2013-02-04 10:48:00,55.4,41.8,30.15,NNE,22,0.0,0.0,60,0.00,,---,0.00,VWS V14.01,2013-02-04 15:48:00,
2013-02-04 10:49:00,55.8,42.1,30.15,North,0,0.0,0.0,60,0.00,,---,0.00,VWS V14.01,2013-02-04 15:49:00,
2013-02-04 10:50:00,55.9,42.7,30.15,NW,315,0.0,0.0,61,0.00,,---,0.00,VWS V14.01,2013-02-04 15:50:00,
2013-02-04 10:51:00,56.1,42.4,30.15,North,0,0.0,0.0,60,0.00,,---,0.00,VWS V14.01,2013-02-04 15:51:00,
2013-02-04 10:52:00,68.5,34.2,30.15,North,0,0.0,0.0,28,0.00,,---,0.00,VWS V14.01,2013-02-04 15:52:00,
2013-02-04 10:53:00,56.7,43.4,30.15,NNW,338,0.0,0.0,61,0.00,,---,0.00,VWS V14.01,2013-02-04 15:53:00,
2013-02-04 10:54:00,56.7,43.0,30.15,NNW,338,0.0,0.0,60,0.00,,---,0.00,VWS V14.01,2013-02-04 15:54:00,
2013-02-04 10:55:00,56.8,43.1,30.15,NNE,22,0.0,0.0,60,0.00,,---,0.00,VWS V14.01,2013-02-04 15:55:00,
2013-02-04 10:56:00,56.8,43.1,30.15,North,0,0.0,0.0,60,0.00,,---,0.00,VWS V14.01,2013-02-04 15:56:00,
2013-02-04 10:57:00,69.8,34.3,30.15,NW,315,0.0,0.0,27,0.00,,---,0.00,VWS V14.01,2013-02-04 15:57:00,
2013-02-04 10:58:00,57.0,41.5,30.15,NNW,338,0.0,0.0,56,0.00,,---,0.00,VWS V14.01,2013-02-04 15:58:00,
2013-02-04 10:59:00,57.2,42.1,30.15,NNW,338,0.0,0.0,57,0.00,,---,0.00,VWS V14.01,2013-02-04 15:59:00,
2013-02-04 11:00:00,57.4,42.3,30.15,NNW,338,0.0,0.0,57,0.00,,---,0.00,VWS V14.01,2013-02-04 16:00:00,
2013-02-04 11:01:00,57.6,42.9,30.15,NNW,338,0.0,0.0,58,0.00,,---,0.00,VWS V14.01,2013-02-04 16:01:00,
2013-02-04 11:02:00,70.5,34.0,30.15,NE,45,0.0,0.0,26,0.00,,---,0.00,VWS V14.01,2013-02-04 16:02:00,
2013-02-04 11:03:00,57.4,41.4,30.15,NNW,338,0.0,0.0,55,0.00,,---,0.00,VWS V14.01,2013-02-04 16:03:00,
2013-02-04 11:04:00,57.4,40.9,30.15,NW,315,0.0,0.0,54,0.00,,---,0.00,VWS V14.01,2013-02-04 16:04:00,
2013-02-04 11:05:00,57.4,40.4,30.15,NNW,338,0.0,0.0,53,0.00,,---,0.00,VWS V14.01,2013-02-04 16:05:00,
2013-02-04 11:06:00,57.2,39.8,30.15,NNW,338,0.0,0.0,52,0.00,,---,0.00,VWS V14.01,2013-02-04 16:06:00,
2013-02-04 11:07:00,70.3,32.9,30.15,NNW,338,0.0,0.0,25,0.00,,---,0.00,VWS V14.01,2013-02-04 16:07:00,
2013-02-04 11:08:00,57.4,39.9,30.15,NNW,338,0.0,0.0,52,0.00,,---,0.00,VWS V14.01,2013-02-04 16:08:00,
2013-02-04 11:09:00,57.4,39.9,30.15,NNW,338,0.0,0.0,52,0.00,,---,0.00,VWS V14.01,2013-02-04 16:09:00,
2013-02-04 11:10:00,57.4,39.4,30.15,NNE,22,0.0,0.0,51,0.00,,---,0.00,VWS V14.01,2013-02-04 16:10:00,
2013-02-04 11:11:00,57.4,39.9,30.15,North,0,0.0,0.0,52,0.00,,---,0.00,VWS V14.01,2013-02-04 16:11:00,
2013-02-04 11:12:00,71.4,34.8,30.15,North,0,0.0,0.0,26,0.00,,---,0.00,VWS V14.01,2013-02-04 16:12:00,
2013-02-04 11:13:00,57.6,40.6,30.15,West,270,0.0,0.0,53,0.00,,---,0.00,VWS V14.01,2013-02-04 16:13:00,
2013-02-04 11:14:00,57.4,39.4,30.15,North,0,0.0,0.0,51,0.00,,---,0.00,VWS V14.01,2013-02-04 16:14:00,
2013-02-04 11:15:00,57.6,40.6,30.15,NNW,338,0.0,0.0,53,0.00,,---,0.00,VWS V14.01,2013-02-04 16:15:00,
2013-02-04 11:16:00,57.6,40.6,30.15,NNE,22,0.0,0.0,53,0.00,,---,0.00,VWS V14.01,2013-02-04 16:16:00,
2013-02-04 11:17:00,72.9,34.0,30.15,SE,135,0.0,0.0,24,0.00,,---,0.00,VWS V14.01,2013-02-04 16:17:00,
2013-02-04 11:18:00,57.7,40.2,30.18,North,0,0.0,0.0,52,0.00,,---,0.00,VWS V14.01,2013-02-04 16:18:00,
2013-02-04 11:19:00,57.9,39.9,30.18,NNW,338,0.0,0.0,51,0.00,,---,0.00,VWS V14.01,2013-02-04 16:19:00,
2013-02-04 11:20:00,58.1,40.1,30.18,WNW,292,0.0,0.0,51,0.00,,---,0.00,VWS V14.01,2013-02-04 16:20:00,
2013-02-04 11:21:00,58.3,40.2,30.18,North,0,0.0,0.0,51,0.00,,---,0.00,VWS V14.01,2013-02-04 16:21:00,
2013-02-04 11:22:00,72.9,34.0,30.15,NE,45,0.0,0.0,24,0.00,,---,0.00,VWS V14.01,2013-02-04 16:22:00,
2013-02-04 11:23:00,58.5,40.9,30.18,NNE,22,0.0,0.0,52,0.00,,---,0.00,VWS V14.01,2013-02-04 16:23:00,
2013-02-04 11:24:00,58.6,41.1,30.18,North,0,0.0,0.0,52,0.00,,---,0.00,VWS V14.01,2013-02-04 16:24:00,
2013-02-04 11:25:00,58.6,40.6,30.18,North,0,0.0,0.0,51,0.00,,---,0.00,VWS V14.01,2013-02-04 16:25:00,
2013-02-04 11:26:00,58.8,40.8,30.18,NW,315,0.0,0.0,51,0.00,,---,0.00,VWS V14.01,2013-02-04 16:26:00,
2013-02-04 11:27:00,73.9,33.8,30.15,ESE,112,0.0,0.0,23,0.00,,---,0.00,VWS V14.01,2013-02-04 16:27:00,
2013-02-04 11:28:00,58.8,40.8,30.18,WNW,292,0.0,0.0,51,0.00,,---,0.00,VWS V14.01,2013-02-04 16:28:00,
2013-02-04 11:29:00,59.0,40.9,30.18,NNW,338,0.0,0.0,51,0.00,,---,0.00,VWS V14.01,2013-02-04 16:29:00,
2013-02-04 11:30:00,59.2,41.6,30.18,NW,315,0.0,0.0,52,0.00,,---,0.00,VWS V14.01,2013-02-04 16:30:00,
2013-02-04 11:31:00,59.2,41.6,30.18,NNW,338,0.0,0.0,52,0.00,,---,0.00,VWS V14.01,2013-02-04 16:31:00,
2013-02-04 11:32:00,74.1,34.0,30.15,NNE,22,0.0,0.0,23,0.00,,---,0.00,VWS V14.01,2013-02-04 16:32:00,
2013-02-04 11:33:00,59.2,40.6,30.15,NW,315,0.0,0.0,50,0.00,,---,0.00,VWS V14.01,2013-02-04 16:33:00,
2013-02-04 11:34:00,59.4,40.2,30.15,NW,315,0.0,0.0,49,0.00,,---,0.00,VWS V14.01,2013-02-04 16:34:00,
2013-02-04 11:35:00,59.2,39.5,30.15,North,0,0.0,0.0,48,0.00,,---,0.00,VWS V14.01,2013-02-04 16:35:00,
2013-02-04 11:36:00,59.4,40.2,30.15,NNW,338,0.0,0.0,49,0.00,,---,0.00,VWS V14.01,2013-02-04 16:36:00,
2013-02-04 11:37:00,74.1,34.0,30.15,North,0,0.0,0.0,23,0.00,,---,0.00,VWS V14.01,2013-02-04 16:37:00,
2013-02-04 11:38:00,59.5,40.4,30.15,NNE,22,0.0,0.0,49,0.00,,---,0.00,VWS V14.01,2013-02-04 16:38:00,
2013-02-04 11:39:00,59.7,40.0,30.15,NNW,338,0.0,0.0,48,0.00,,---,0.00,VWS V14.01,2013-02-04 16:39:00,
2013-02-04 11:40:00,59.7,40.0,30.15,WNW,292,0.0,0.0,48,0.00,,---,0.00,VWS V14.01,2013-02-04 16:40:00,
2013-02-04 11:41:00,60.1,40.3,30.15,WNW,292,0.0,0.0,48,0.00,,---,0.00,VWS V14.01,2013-02-04 16:41:00,
2013-02-04 11:42:00,72.9,32.9,30.15,ENE,68,0.0,0.0,23,0.00,,---,0.00,VWS V14.01,2013-02-04 16:42:00,
2013-02-04 11:43:00,60.4,40.1,30.15,North,0,0.0,0.0,47,0.00,,---,0.00,VWS V14.01,2013-02-04 16:43:00,
2013-02-04 11:44:00,61.0,39.5,30.15,North,0,0.0,0.0,45,0.00,,---,0.00,VWS V14.01,2013-02-04 16:44:00,
2013-02-04 11:45:00,61.3,39.8,30.15,North,0,0.0,0.0,45,0.00,,---,0.00,VWS V14.01,2013-02-04 16:45:00,
2013-02-04 11:46:00,61.7,40.2,30.15,NNW,338,0.0,0.0,45,0.00,,---,0.00,VWS V14.01,2013-02-04 16:46:00,
2013-02-04 11:47:00,70.5,31.0,30.15,NE,45,0.0,0.0,23,0.00,,---,0.00,VWS V14.01,2013-02-04 16:47:00,
2013-02-04 11:48:00,62.1,37.5,30.18,West,270,0.0,0.0,40,0.00,,---,0.00,VWS V14.01,2013-02-04 16:48:00,
2013-02-04 11:49:00,62.2,38.3,30.18,NW,315,0.0,0.0,41,0.00,,---,0.00,VWS V14.01,2013-02-04 16:49:00,
2013-02-04 11:50:00,62.6,37.3,30.18,North,0,0.0,0.0,39,0.00,,---,0.00,VWS V14.01,2013-02-04 16:50:00,
2013-02-04 11:51:00,62.6,38.0,30.18,North,0,0.0,0.0,40,0.00,,---,0.00,VWS V14.01,2013-02-04 16:51:00,
2013-02-04 11:52:00,71.1,31.4,30.15,NNE,22,0.0,0.0,23,0.00,,---,0.00,VWS V14.01,2013-02-04 16:52:00,
2013-02-04 11:53:00,63.5,37.5,30.18,NW,315,0.0,0.0,38,0.00,,---,0.00,VWS V14.01,2013-02-04 16:53:00,
2013-02-04 11:54:00,63.7,37.0,30.18,NNW,338,0.0,0.0,37,0.00,,---,0.00,VWS V14.01,2013-02-04 16:54:00,
2013-02-04 11:55:00,63.9,36.4,30.18,NW,315,0.0,0.0,36,0.00,,---,0.00,VWS V14.01,2013-02-04 16:55:00,
2013-02-04 11:56:00,64.2,36.7,30.18,North,0,0.0,0.0,36,0.00,,---,0.00,VWS V14.01,2013-02-04 16:56:00,
2013-02-04 11:57:00,73.2,33.2,30.15,East,90,0.0,0.0,23,0.00,,---,0.00,VWS V14.01,2013-02-04 16:57:00,
2013-02-04 11:58:00,64.4,35.5,30.18,NNW,338,0.0,0.0,34,0.00,,---,0.00,VWS V14.01,2013-02-04 16:58:00,
2013-02-04 11:59:00,64.9,35.2,30.18,North,0,0.0,0.0,33,0.00,,---,0.00,VWS V14.01,2013-02-04 16:59:00,
2013-02-04 12:00:00,65.1,35.3,30.18,NNW,338,0.0,0.0,33,0.00,,---,0.00,VWS V14.01,2013-02-04 17:00:00,
2013-02-04 12:01:00,65.1,35.3,30.18,NNW,338,0.0,0.0,33,0.00,,---,0.00,VWS V14.01,2013-02-04 17:01:00,
2013-02-04 12:02:00,72.9,32.9,30.15,NE,45,0.0,0.0,23,0.00,,---,0.00,VWS V14.01,2013-02-04 17:02:00,
2013-02-04 12:03:00,65.8,36.0,30.18,WSW,248,0.0,0.0,33,0.00,,---,0.00,VWS V14.01,2013-02-04 17:03:00,
2013-02-04 12:04:00,65.8,35.2,30.18,North,0,0.0,0.0,32,0.00,,---,0.00,VWS V14.01,2013-02-04 17:04:00,
2013-02-04 12:05:00,66.0,35.3,30.18,NW,315,0.0,0.0,32,0.00,,---,0.00,VWS V14.01,2013-02-04 17:05:00,
2013-02-04 12:06:00,66.2,36.3,30.18,NNW,338,0.0,0.0,33,0.00,,---,0.00,VWS V14.01,2013-02-04 17:06:00,
2013-02-04 12:07:00,71.1,31.4,30.12,ENE,68,0.0,0.0,23,0.00,,---,0.00,VWS V14.01,2013-02-04 17:07:00,
2013-02-04 12:08:00,66.4,34.9,30.18,NNE,22,0.0,0.0,31,0.00,,---,0.00,VWS V14.01,2013-02-04 17:08:00,
2013-02-04 12:09:00,66.6,33.3,30.18,North,0,0.0,0.0,29,0.00,,---,0.00,VWS V14.01,2013-02-04 17:09:00,
2013-02-04 12:10:00,66.7,35.2,30.18,NNW,338,0.0,0.0,31,0.00,,---,0.00,VWS V14.01,2013-02-04 17:10:00,
2013-02-04 12:11:00,67.1,33.8,30.18,NNW,338,0.0,0.0,29,0.00,,---,0.00,VWS V14.01,2013-02-04 17:11:00,
2013-02-04 12:12:00,71.1,31.4,30.12,NE,45,0.0,0.0,23,0.00,,---,0.00,VWS V14.01,2013-02-04 17:12:00,
2013-02-04 12:13:00,67.3,34.0,30.18,NNW,338,0.0,0.0,29,0.00,,---,0.00,VWS V14.01,2013-02-04 17:13:00,
2013-02-04 12:14:00,67.3,33.1,30.18,North,0,0.0,0.0,28,0.00,,---,0.00,VWS V14.01,2013-02-04 17:14:00,
2013-02-04 12:15:00,67.3,33.1,30.18,NNW,338,0.0,0.0,28,0.00,,---,0.00,VWS V14.01,2013-02-04 17:15:00,
2013-02-04 12:16:00,67.3,34.0,30.18,NNW,338,0.0,0.0,29,0.00,,---,0.00,VWS V14.01,2013-02-04 17:16:00,
2013-02-04 12:17:00,71.6,31.9,30.12,East,90,0.0,0.0,23,0.00,,---,0.00,VWS V14.01,2013-02-04 17:17:00,
2013-02-04 12:18:00,68.0,34.6,30.15,NNE,22,0.0,0.0,29,0.00,,---,0.00,VWS V14.01,2013-02-04 17:18:00,
2013-02-04 12:19:00,68.4,35.8,30.15,NNW,338,0.0,0.0,30,0.00,,---,0.00,VWS V14.01,2013-02-04 17:19:00,
2013-02-04 12:20:00,68.5,35.0,30.15,WNW,292,0.0,0.0,29,0.00,,---,0.00,VWS V14.01,2013-02-04 17:20:00,
2013-02-04 12:21:00,68.5,34.2,30.15,NNW,338,0.0,0.0,28,0.00,,---,0.00,VWS V14.01,2013-02-04 17:21:00,
2013-02-04 12:22:00,72.5,32.6,30.12,NNE,22,0.0,0.0,23,0.00,,---,0.00,VWS V14.01,2013-02-04 17:22:00,
2013-02-04 12:23:00,69.3,34.8,30.15,WNW,292,0.0,0.0,28,0.00,,---,0.00,VWS V14.01,2013-02-04 17:23:00,
2013-02-04 12:24:00,69.3,33.9,30.15,North,0,0.0,0.0,27,0.00,,---,0.00,VWS V14.01,2013-02-04 17:24:00,
2013-02-04 12:25:00,69.3,33.9,30.15,North,0,0.0,0.0,27,0.00,,---,0.00,VWS V14.01,2013-02-04 17:25:00,
2013-02-04 12:26:00,69.8,34.3,30.15,NNW,338,0.0,0.0,27,0.00,,---,0.00,VWS V14.01,2013-02-04 17:26:00,
2013-02-04 12:27:00,73.6,32.4,30.12,ENE,68,0.0,0.0,22,0.00,,---,0.00,VWS V14.01,2013-02-04 17:27:00,
2013-02-04 12:28:00,70.3,33.9,30.15,NNW,338,0.0,0.0,26,0.00,,---,0.00,VWS V14.01,2013-02-04 17:28:00,
2013-02-04 12:29:00,70.3,34.8,30.15,NNW,338,0.0,0.0,27,0.00,,---,0.00,VWS V14.01,2013-02-04 17:29:00,
2013-02-04 12:30:00,70.5,34.0,30.15,ENE,68,0.0,0.0,26,0.00,,---,0.00,VWS V14.01,2013-02-04 17:30:00,
2013-02-04 12:31:00,70.5,33.0,30.15,NNE,22,0.0,0.0,25,0.00,,---,0.00,VWS V14.01,2013-02-04 17:31:00,
2013-02-04 12:32:00,73.9,32.7,30.12,ENE,68,0.0,0.0,22,0.00,,---,0.00,VWS V14.01,2013-02-04 17:32:00,
2013-02-04 12:33:00,70.5,34.0,30.15,NNW,338,0.0,0.0,26,0.00,,---,0.00,VWS V14.01,2013-02-04 17:33:00,
2013-02-04 12:34:00,70.5,34.0,30.15,North,0,0.0,0.0,26,0.00,,---,0.00,VWS V14.01,2013-02-04 17:34:00,
2013-02-04 12:35:00,70.2,32.7,30.15,NNW,338,0.0,0.0,25,0.00,,---,0.00,VWS V14.01,2013-02-04 17:35:00,
2013-02-04 12:36:00,70.3,32.9,30.15,North,0,0.0,0.0,25,0.00,,---,0.00,VWS V14.01,2013-02-04 17:36:00,
2013-02-04 12:37:00,74.8,33.5,30.09,NE,45,0.0,0.0,22,0.00,,---,0.00,VWS V14.01,2013-02-04 17:37:00,
2013-02-04 12:38:00,70.3,32.9,30.15,North,0,0.0,0.0,25,0.00,,---,0.00,VWS V14.01,2013-02-04 17:38:00,
2013-02-04 12:39:00,70.7,33.2,30.15,NNE,22,0.0,0.0,25,0.00,,---,0.00,VWS V14.01,2013-02-04 17:39:00,
2013-02-04 12:40:00,70.9,33.3,30.15,ENE,68,0.0,0.0,25,0.00,,---,0.00,VWS V14.01,2013-02-04 17:40:00,
2013-02-04 12:41:00,71.4,34.8,30.15,NNW,338,0.0,0.0,26,0.00,,---,0.00,VWS V14.01,2013-02-04 17:41:00,
2013-02-04 12:42:00,75.7,34.2,30.09,SSE,158,0.0,0.0,22,0.00,,---,0.00,VWS V14.01,2013-02-04 17:42:00,
2013-02-04 12:43:00,72.3,35.5,30.15,NNW,338,0.0,0.0,26,0.00,,---,0.00,VWS V14.01,2013-02-04 17:43:00,
2013-02-04 12:44:00,72.5,35.7,30.15,South,180,0.0,0.0,26,0.00,,---,0.00,VWS V14.01,2013-02-04 17:44:00,
2013-02-04 12:45:00,72.9,34.0,30.15,SE,135,0.0,0.0,24,0.00,,---,0.00,VWS V14.01,2013-02-04 17:45:00,
2013-02-04 12:46:00,72.9,34.0,30.15,SE,135,0.0,0.0,24,0.00,,---,0.00,VWS V14.01,2013-02-04 17:46:00,
2013-02-04 12:47:00,76.5,34.8,30.09,SSW,202,0.0,0.0,22,0.00,,---,0.00,VWS V14.01,2013-02-04 17:47:00,
2013-02-04 12:48:00,73.6,34.6,30.15,North,0,0.0,0.0,24,0.00,,---,0.00,VWS V14.01,2013-02-04 17:48:00,
2013-02-04 12:49:00,73.4,34.5,30.15,WSW,248,0.0,0.0,24,0.00,,---,0.00,VWS V14.01,2013-02-04 17:49:00,
2013-02-04 12:50:00,73.4,34.5,30.15,NNW,338,0.0,0.0,24,0.00,,---,0.00,VWS V14.01,2013-02-04 17:50:00,
2013-02-04 12:51:00,72.9,34.0,30.15,NE,45,0.0,0.0,24,0.00,,---,0.00,VWS V14.01,2013-02-04 17:51:00,
2013-02-04 12:52:00,76.8,34.0,30.09,NE,45,0.0,0.0,21,0.00,,---,0.00,VWS V14.01,2013-02-04 17:52:00,
2013-02-04 12:53:00,73.9,34.9,30.15,East,90,0.0,0.0,24,0.00,,---,0.00,VWS V14.01,2013-02-04 17:53:00,
2013-02-04 12:54:00,74.3,35.2,30.15,NNE,22,0.0,0.0,24,0.00,,---,0.00,VWS V14.01,2013-02-04 17:54:00,
2013-02-04 12:55:00,74.1,34.0,30.15,ENE,68,0.0,0.0,23,0.00,,---,0.00,VWS V14.01,2013-02-04 17:55:00,
2013-02-04 12:56:00,73.9,33.8,30.15,ESE,112,0.0,0.0,23,0.00,,---,0.00,VWS V14.01,2013-02-04 17:56:00,
2013-02-04 12:57:00,76.8,34.0,30.09,SSW,202,0.0,0.0,21,0.00,,---,0.00,VWS V14.01,2013-02-04 17:57:00,
2013-02-04 12:58:00,74.1,34.0,30.15,ESE,112,0.0,0.0,23,0.00,,---,0.00,VWS V14.01,2013-02-04 17:58:00,
2013-02-04 12:59:00,74.1,34.0,30.15,ENE,68,0.0,0.0,23,0.00,,---,0.00,VWS V14.01,2013-02-04 17:59:00,
2013-02-04 13:00:00,74.1,34.0,30.15,ESE,112,0.0,0.0,23,0.00,,---,0.00,VWS V14.01,2013-02-04 18:00:00,
2013-02-04 13:01:00,74.3,34.1,30.15,NW,315,0.0,0.0,23,0.00,,---,0.00,VWS V14.01,2013-02-04 18:01:00,
2013-02-04 13:02:00,76.5,33.7,30.09,ENE,68,0.0,0.0,21,0.00,,---,0.00,VWS V14.01,2013-02-04 18:02:00,
2013-02-04 13:03:00,74.8,34.6,30.15,North,0,0.0,0.0,23,0.00,,---,0.00,VWS V14.01,2013-02-04 18:03:00,
2013-02-04 13:04:00,74.1,34.0,30.15,NNW,338,0.0,0.0,23,0.00,,---,0.00,VWS V14.01,2013-02-04 18:04:00,
2013-02-04 13:05:00,73.9,33.8,30.15,North,0,0.0,0.0,23,0.00,,---,0.00,VWS V14.01,2013-02-04 18:05:00,
2013-02-04 13:06:00,74.1,34.0,30.15,NNE,22,0.0,0.0,23,0.00,,---,0.00,VWS V14.01,2013-02-04 18:06:00,
2013-02-04 13:07:00,76.1,34.5,30.06,SSW,202,0.0,0.0,22,0.00,,---,0.00,VWS V14.01,2013-02-04 18:07:00,
2013-02-04 13:08:00,73.6,33.5,30.15,NNE,22,0.0,0.0,23,0.00,,---,0.00,VWS V14.01,2013-02-04 18:08:00,
2013-02-04 13:09:00,73.4,33.4,30.15,NE,45,0.0,0.0,23,0.00,,---,0.00,VWS V14.01,2013-02-04 18:09:00,
2013-02-04 13:10:00,73.0,33.1,30.15,NNE,22,0.0,0.0,23,0.00,,---,0.00,VWS V14.01,2013-02-04 18:10:00,
2013-02-04 13:11:00,72.9,32.9,30.15,NNE,22,0.0,0.0,23,0.00,,---,0.00,VWS V14.01,2013-02-04 18:11:00,
2013-02-04 13:12:00,77.2,34.3,30.06,ENE,68,0.0,0.0,21,0.00,,---,0.00,VWS V14.01,2013-02-04 18:12:00,
2013-02-04 13:13:00,71.8,32.0,30.15,ENE,68,0.0,0.0,23,0.00,,---,0.00,VWS V14.01,2013-02-04 18:13:00,
2013-02-04 13:14:00,71.2,31.6,30.15,ENE,68,0.0,0.0,23,0.00,,---,0.00,VWS V14.01,2013-02-04 18:14:00,
2013-02-04 13:15:00,70.5,31.0,30.15,ENE,68,0.0,0.0,23,0.00,,---,0.00,VWS V14.01,2013-02-04 18:15:00,
2013-02-04 13:16:00,70.2,30.7,30.15,NNE,22,0.0,0.0,23,0.00,,---,0.00,VWS V14.01,2013-02-04 18:16:00,
2013-02-04 13:17:00,78.3,35.2,30.06,SSW,202,0.0,0.0,21,0.00,,---,0.00,VWS V14.01,2013-02-04 18:17:00,
2013-02-04 13:18:00,69.8,30.4,30.15,ENE,68,0.0,0.0,23,0.00,,---,0.00,VWS V14.01,2013-02-04 18:18:00,
2013-02-04 13:19:00,70.0,30.5,30.15,NNE,22,0.0,0.0,23,0.00,,---,0.00,VWS V14.01,2013-02-04 18:19:00,
2013-02-04 13:20:00,70.5,31.0,30.15,East,90,0.0,0.0,23,0.00,,---,0.00,VWS V14.01,2013-02-04 18:20:00,
2013-02-04 13:21:00,71.1,31.4,30.15,NNE,22,0.0,0.0,23,0.00,,---,0.00,VWS V14.01,2013-02-04 18:21:00,
2013-02-04 13:22:00,77.7,34.7,30.09,South,180,0.0,0.0,21,0.00,,---,0.00,VWS V14.01,2013-02-04 18:22:00,
2013-02-04 13:23:00,72.5,32.6,30.15,NNW,338,0.0,0.0,23,0.00,,---,0.00,VWS V14.01,2013-02-04 18:23:00,
2013-02-04 13:24:00,72.9,32.9,30.15,NNE,22,0.0,0.0,23,0.00,,---,0.00,VWS V14.01,2013-02-04 18:24:00,
2013-02-04 13:25:00,73.2,33.2,30.15,ENE,68,0.0,0.0,23,0.00,,---,0.00,VWS V14.01,2013-02-04 18:25:00,
2013-02-04 13:26:00,73.2,33.2,30.15,ENE,68,0.0,0.0,23,0.00,,---,0.00,VWS V14.01,2013-02-04 18:26:00,
2013-02-04 13:27:00,77.7,34.7,30.09,SSE,158,0.0,0.0,21,0.00,,---,0.00,VWS V14.01,2013-02-04 18:27:00,
2013-02-04 13:28:00,73.4,33.4,30.15,ENE,68,0.0,0.0,23,0.00,,---,0.00,VWS V14.01,2013-02-04 18:28:00,
2013-02-04 13:29:00,73.2,33.2,30.15,NNE,22,0.0,0.0,23,0.00,,---,0.00,VWS V14.01,2013-02-04 18:29:00,
2013-02-04 13:30:00,72.9,32.9,30.15,NNE,22,0.0,0.0,23,0.00,,---,0.00,VWS V14.01,2013-02-04 18:30:00,
2013-02-04 13:31:00,72.5,32.6,30.15,ENE,68,0.0,0.0,23,0.00,,---,0.00,VWS V14.01,2013-02-04 18:31:00,
2013-02-04 13:32:00,79.3,36.0,30.09,ESE,112,0.0,0.0,21,0.00,,---,0.00,VWS V14.01,2013-02-04 18:32:00,
2013-02-04 13:33:00,72.0,32.2,30.12,ENE,68,0.0,0.0,23,0.00,,---,0.00,VWS V14.01,2013-02-04 18:33:00,
2013-02-04 13:34:00,71.6,31.9,30.12,NNW,338,0.0,0.0,23,0.00,,---,0.00,VWS V14.01,2013-02-04 18:34:00,
2013-02-04 13:35:00,71.1,31.4,30.12,ENE,68,0.0,0.0,23,0.00,,---,0.00,VWS V14.01,2013-02-04 18:35:00,
2013-02-04 13:36:00,71.1,31.4,30.12,East,90,0.0,0.0,23,0.00,,---,0.00,VWS V14.01,2013-02-04 18:36:00,
2013-02-04 13:37:00,78.8,35.6,30.09,NNW,338,0.0,0.0,21,0.00,,---,0.00,VWS V14.01,2013-02-04 18:37:00,
2013-02-04 13:38:00,71.2,31.6,30.12,ENE,68,0.0,0.0,23,0.00,,---,0.00,VWS V14.01,2013-02-04 18:38:00,
2013-02-04 13:39:00,71.4,32.8,30.12,ENE,68,0.0,0.0,24,0.00,,---,0.00,VWS V14.01,2013-02-04 18:39:00,
2013-02-04 13:40:00,71.4,32.8,30.12,NE,45,0.0,0.0,24,0.00,,---,0.00,VWS V14.01,2013-02-04 18:40:00,
2013-02-04 13:41:00,71.1,31.4,30.12,ENE,68,0.0,0.0,23,0.00,,---,0.00,VWS V14.01,2013-02-04 18:41:00,
2013-02-04 13:42:00,79.3,36.0,30.09,WSW,248,0.0,0.0,21,0.00,,---,0.00,VWS V14.01,2013-02-04 18:42:00,
2013-02-04 13:43:00,70.2,30.7,30.12,ESE,112,0.0,0.0,23,0.00,,---,0.00,VWS V14.01,2013-02-04 18:43:00,
2013-02-04 13:44:00,70.3,30.8,30.12,ESE,112,0.0,0.0,23,0.00,,---,0.00,VWS V14.01,2013-02-04 18:44:00,
2013-02-04 13:45:00,71.6,31.9,30.12,ENE,68,0.0,0.0,23,0.00,,---,0.00,VWS V14.01,2013-02-04 18:45:00,
2013-02-04 13:46:00,71.8,32.0,30.12,NE,45,0.0,0.0,23,0.00,,---,0.00,VWS V14.01,2013-02-04 18:46:00,
2013-02-04 13:47:00,80.2,36.8,30.09,NNE,22,0.0,0.0,21,0.00,,---,0.00,VWS V14.01,2013-02-04 18:47:00,
2013-02-04 13:48:00,72.1,32.3,30.12,ENE,68,0.0,0.0,23,0.00,,---,0.00,VWS V14.01,2013-02-04 18:48:00,
2013-02-04 13:49:00,72.5,32.6,30.12,NNE,22,0.0,0.0,23,0.00,,---,0.00,VWS V14.01,2013-02-04 18:49:00,
2013-02-04 13:50:00,72.3,32.5,30.12,ENE,68,0.0,0.0,23,0.00,,---,0.00,VWS V14.01,2013-02-04 18:50:00,
2013-02-04 13:51:00,72.5,32.6,30.12,ENE,68,0.0,0.0,23,0.00,,---,0.00,VWS V14.01,2013-02-04 18:51:00,
2013-02-04 13:52:00,80.6,35.9,30.06,NE,45,0.0,0.0,20,0.00,,---,0.00,VWS V14.01,2013-02-04 18:52:00,
2013-02-04 13:53:00,73.0,33.1,30.12,SSE,158,0.0,0.0,23,0.00,,---,0.00,VWS V14.01,2013-02-04 18:53:00,
2013-02-04 13:54:00,73.4,33.4,30.12,ENE,68,0.0,0.0,23,0.00,,---,0.00,VWS V14.01,2013-02-04 18:54:00,
2013-02-04 13:55:00,73.8,33.7,30.12,ENE,68,0.0,0.0,23,0.00,,---,0.00,VWS V14.01,2013-02-04 18:55:00,
2013-02-04 13:56:00,73.6,32.4,30.12,ENE,68,0.0,0.0,22,0.00,,---,0.00,VWS V14.01,2013-02-04 18:56:00,
2013-02-04 13:57:00,81.0,36.2,30.06,ESE,112,0.0,0.0,20,0.00,,---,0.00,VWS V14.01,2013-02-04 18:57:00,
2013-02-04 13:58:00,73.6,32.4,30.12,NE,45,0.0,0.0,22,0.00,,---,0.00,VWS V14.01,2013-02-04 18:58:00,
2013-02-04 13:59:00,73.6,32.4,30.12,NNE,22,0.0,0.0,22,0.00,,---,0.00,VWS V14.01,2013-02-04 18:59:00,
2013-02-04 14:00:00,73.9,32.7,30.12,WNW,292,0.0,0.0,22,0.00,,---,0.00,VWS V14.01,2013-02-04 19:00:00,
2013-02-04 14:01:00,74.1,32.9,30.12,ENE,68,0.0,0.0,22,0.00,,---,0.00,VWS V14.01,2013-02-04 19:01:00,
2013-02-04 14:02:00,80.4,35.7,30.06,SSE,158,0.0,0.0,20,0.00,,---,0.00,VWS V14.01,2013-02-04 19:02:00,
2013-02-04 14:03:00,74.1,32.9,30.09,ESE,112,0.0,0.0,22,0.00,,---,0.00,VWS V14.01,2013-02-04 19:03:00,
2013-02-04 14:04:00,75.0,33.6,30.09,ESE,112,0.0,0.0,22,0.00,,---,0.00,VWS V14.01,2013-02-04 19:04:00,
2013-02-04 14:05:00,75.0,33.6,30.09,ESE,112,0.0,0.0,22,0.00,,---,0.00,VWS V14.01,2013-02-04 19:05:00,
2013-02-04 14:06:00,74.8,33.5,30.09,ESE,112,0.0,0.0,22,0.00,,---,0.00,VWS V14.01,2013-02-04 19:06:00,
2013-02-04 14:07:00,80.4,35.7,30.06,SSW,202,0.0,0.0,20,0.00,,---,0.00,VWS V14.01,2013-02-04 19:07:00,
2013-02-04 14:08:00,74.7,34.4,30.09,ENE,68,0.0,0.0,23,0.00,,---,0.00,VWS V14.01,2013-02-04 19:08:00,
2013-02-04 14:09:00,75.0,33.6,30.09,ENE,68,0.0,0.0,22,0.00,,---,0.00,VWS V14.01,2013-02-04 19:09:00,
2013-02-04 14:10:00,75.2,33.8,30.09,East,90,0.0,0.0,22,0.00,,---,0.00,VWS V14.01,2013-02-04 19:10:00,
2013-02-04 14:11:00,75.7,34.2,30.09,SSE,158,0.0,0.0,22,0.00,,---,0.00,VWS V14.01,2013-02-04 19:11:00,
2013-02-04 14:12:00,81.0,36.2,30.06,SSE,158,0.0,0.0,20,0.00,,---,0.00,VWS V14.01,2013-02-04 19:12:00,
2013-02-04 14:13:00,76.1,34.5,30.09,ESE,112,0.0,0.0,22,0.00,,---,0.00,VWS V14.01,2013-02-04 19:13:00,
2013-02-04 14:14:00,76.5,34.8,30.09,ENE,68,0.0,0.0,22,0.00,,---,0.00,VWS V14.01,2013-02-04 19:14:00,
2013-02-04 14:15:00,76.5,34.8,30.09,SSE,158,0.0,0.0,22,0.00,,---,0.00,VWS V14.01,2013-02-04 19:15:00,
2013-02-04 14:16:00,76.5,34.8,30.09,SSE,158,0.0,0.0,22,0.00,,---,0.00,VWS V14.01,2013-02-04 19:16:00,
2013-02-04 14:17:00,81.0,36.2,30.06,SSW,202,0.0,0.0,20,0.00,,---,0.00,VWS V14.01,2013-02-04 19:17:00,
2013-02-04 14:18:00,77.2,34.3,30.09,ENE,68,0.0,0.0,21,0.00,,---,0.00,VWS V14.01,2013-02-04 19:18:00,
2013-02-04 14:19:00,77.2,34.3,30.09,SSW,202,0.0,0.0,21,0.00,,---,0.00,VWS V14.01,2013-02-04 19:19:00,
2013-02-04 14:20:00,77.4,34.4,30.09,East,90,0.0,0.0,21,0.00,,---,0.00,VWS V14.01,2013-02-04 19:20:00,
2013-02-04 14:21:00,76.8,34.0,30.09,SE,135,0.0,0.0,21,0.00,,---,0.00,VWS V14.01,2013-02-04 19:21:00,
2013-02-04 14:22:00,80.1,35.4,30.06,SSW,202,0.0,0.0,20,0.00,,---,0.00,VWS V14.01,2013-02-04 19:22:00,
2013-02-04 14:23:00,76.8,35.1,30.09,East,90,0.0,0.0,22,0.00,,---,0.00,VWS V14.01,2013-02-04 19:23:00,
2013-02-04 14:24:00,77.0,34.1,30.09,SSW,202,0.0,0.0,21,0.00,,---,0.00,VWS V14.01,2013-02-04 19:24:00,
2013-02-04 14:25:00,76.8,34.0,30.09,South,180,0.0,0.0,21,0.00,,---,0.00,VWS V14.01,2013-02-04 19:25:00,
2013-02-04 14:26:00,77.0,34.1,30.09,SSW,202,0.0,0.0,21,0.00,,---,0.00,VWS V14.01,2013-02-04 19:26:00,
2013-02-04 14:27:00,80.8,36.0,30.06,SE,135,0.0,0.0,20,0.00,,---,0.00,VWS V14.01,2013-02-04 19:27:00,
2013-02-04 14:28:00,77.5,34.6,30.09,ENE,68,0.0,0.0,21,0.00,,---,0.00,VWS V14.01,2013-02-04 19:28:00,
2013-02-04 14:29:00,77.5,34.6,30.09,ENE,68,0.0,0.0,21,0.00,,---,0.00,VWS V14.01,2013-02-04 19:29:00,
2013-02-04 14:30:00,77.5,34.6,30.09,ENE,68,0.0,0.0,21,0.00,,---,0.00,VWS V14.01,2013-02-04 19:30:00,
2013-02-04 14:31:00,75.7,33.1,30.09,ENE,68,0.0,0.0,21,0.00,,---,0.00,VWS V14.01,2013-02-04 19:31:00,
2013-02-04 14:32:00,81.7,36.8,30.06,SSW,202,0.0,0.0,20,0.00,,---,0.00,VWS V14.01,2013-02-04 19:32:00,
2013-02-04 14:33:00,75.7,33.1,30.06,NE,45,0.0,0.0,21,0.00,,---,0.00,VWS V14.01,2013-02-04 19:33:00,
2013-02-04 14:34:00,75.9,33.2,30.06,WSW,248,0.0,0.0,21,0.00,,---,0.00,VWS V14.01,2013-02-04 19:34:00,
2013-02-04 14:35:00,76.1,34.5,30.06,SSW,202,0.0,0.0,22,0.00,,---,0.00,VWS V14.01,2013-02-04 19:35:00,
2013-02-04 14:36:00,76.1,34.5,30.06,WNW,292,0.0,0.0,22,0.00,,---,0.00,VWS V14.01,2013-02-04 19:36:00,
2013-02-04 14:37:00,79.5,35.0,30.06,ENE,68,0.0,0.0,20,0.00,,---,0.00,VWS V14.01,2013-02-04 19:37:00,
2013-02-04 14:38:00,76.1,34.5,30.06,NNE,22,0.0,0.0,22,0.00,,---,0.00,VWS V14.01,2013-02-04 19:38:00,
2013-02-04 14:39:00,77.4,34.4,30.06,ESE,112,0.0,0.0,21,0.00,,---,0.00,VWS V14.01,2013-02-04 19:39:00,
2013-02-04 14:40:00,77.2,34.3,30.06,ENE,68,0.0,0.0,21,0.00,,---,0.00,VWS V14.01,2013-02-04 19:40:00,
2013-02-04 14:41:00,77.5,34.6,30.06,ESE,112,0.0,0.0,21,0.00,,---,0.00,VWS V14.01,2013-02-04 19:41:00,
2013-02-04 14:42:00,78.3,35.2,30.06,ENE,68,0.0,0.0,21,0.00,,---,0.00,VWS V14.01,2013-02-04 19:42:00,
2013-02-04 14:43:00,78.4,35.3,30.06,ENE,68,0.0,0.0,21,0.00,,---,0.00,VWS V14.01,2013-02-04 19:43:00,
2013-02-04 14:44:00,78.3,35.2,30.06,South,180,0.0,0.0,21,0.00,,---,0.00,VWS V14.01,2013-02-04 19:44:00,
2013-02-04 14:45:00,78.3,35.2,30.06,SSW,202,0.0,0.0,21,0.00,,---,0.00,VWS V14.01,2013-02-04 19:45:00,
2013-02-04 14:46:00,78.4,35.3,30.06,SSE,158,0.0,0.0,21,0.00,,---,0.00,VWS V14.01,2013-02-04 19:46:00,
2013-02-04 14:47:00,76.3,33.5,30.06,ESE,112,0.0,0.0,21,0.00,,---,0.00,VWS V14.01,2013-02-04 19:47:00,
2013-02-04 14:48:00,78.1,35.0,30.09,ENE,68,0.0,0.0,21,0.00,,---,0.00,VWS V14.01,2013-02-04 19:48:00,
2013-02-04 14:49:00,77.7,34.7,30.09,ENE,68,0.0,0.0,21,0.00,,---,0.00,VWS V14.01,2013-02-04 19:49:00,
2013-02-04 14:50:00,77.5,34.6,30.09,South,180,0.0,0.0,21,0.00,,---,0.00,VWS V14.01,2013-02-04 19:50:00,
2013-02-04 14:51:00,77.7,34.7,30.09,SE,135,0.0,0.0,21,0.00,,---,0.00,VWS V14.01,2013-02-04 19:51:00,
2013-02-04 14:52:00,75.7,33.1,30.06,NE,45,0.0,0.0,21,0.00,,---,0.00,VWS V14.01,2013-02-04 19:52:00,
2013-02-04 14:53:00,77.7,34.7,30.09,ENE,68,0.0,0.0,21,0.00,,---,0.00,VWS V14.01,2013-02-04 19:53:00,
2013-02-04 14:54:00,77.7,34.7,30.09,NNW,338,0.0,0.0,21,0.00,,---,0.00,VWS V14.01,2013-02-04 19:54:00,
2013-02-04 14:55:00,77.7,34.7,30.09,SSE,158,0.0,0.0,21,0.00,,---,0.00,VWS V14.01,2013-02-04 19:55:00,
2013-02-04 14:56:00,77.9,34.9,30.09,SSE,158,0.0,0.0,21,0.00,,---,0.00,VWS V14.01,2013-02-04 19:56:00,
2013-02-04 14:57:00,73.9,32.7,30.06,ENE,68,0.0,0.0,22,0.00,,---,0.00,VWS V14.01,2013-02-04 19:57:00,
2013-02-04 14:58:00,78.3,35.2,30.09,SSW,202,0.0,0.0,21,0.00,,---,0.00,VWS V14.01,2013-02-04 19:58:00,
2013-02-04 14:59:00,78.8,35.6,30.09,SSW,202,0.0,0.0,21,0.00,,---,0.00,VWS V14.01,2013-02-04 19:59:00,
2013-02-04 15:00:00,79.3,36.0,30.09,SE,135,0.0,0.0,21,0.00,,---,0.00,VWS V14.01,2013-02-04 20:00:00,
2013-02-04 15:01:00,79.3,36.0,30.09,ENE,68,0.0,0.0,21,0.00,,---,0.00,VWS V14.01,2013-02-04 20:01:00,
2013-02-04 15:02:00,74.5,33.2,30.06,ENE,68,0.0,0.0,22,0.00,,---,0.00,VWS V14.01,2013-02-04 20:02:00,
2013-02-04 15:03:00,79.9,36.5,30.09,ENE,68,0.0,0.0,21,0.00,,---,0.00,VWS V14.01,2013-02-04 20:03:00,
2013-02-04 15:04:00,79.5,36.2,30.09,North,0,0.0,0.0,21,0.00,,---,0.00,VWS V14.01,2013-02-04 20:04:00,
2013-02-04 15:05:00,78.8,35.6,30.09,NNW,338,0.0,0.0,21,0.00,,---,0.00,VWS V14.01,2013-02-04 20:05:00,
2013-02-04 15:06:00,78.8,35.6,30.09,NNW,338,0.0,0.0,21,0.00,,---,0.00,VWS V14.01,2013-02-04 20:06:00,
2013-02-04 15:07:00,73.8,33.7,30.03,ENE,68,0.0,0.0,23,0.00,,---,0.00,VWS V14.01,2013-02-04 20:07:00,
2013-02-04 15:08:00,79.0,35.8,30.09,SSE,158,0.0,0.0,21,0.00,,---,0.00,VWS V14.01,2013-02-04 20:08:00,
2013-02-04 15:09:00,79.0,35.8,30.09,SSE,158,0.0,0.0,21,0.00,,---,0.00,VWS V14.01,2013-02-04 20:09:00,
2013-02-04 15:10:00,79.3,36.0,30.09,ESE,112,0.0,0.0,21,0.00,,---,0.00,VWS V14.01,2013-02-04 20:10:00,
2013-02-04 15:11:00,79.9,36.5,30.09,SW,225,0.0,0.0,21,0.00,,---,0.00,VWS V14.01,2013-02-04 20:11:00,
2013-02-04 15:12:00,73.9,33.8,30.03,East,90,0.0,0.0,23,0.00,,---,0.00,VWS V14.01,2013-02-04 20:12:00,
2013-02-04 15:13:00,79.9,36.5,30.09,ENE,68,0.0,0.0,21,0.00,,---,0.00,VWS V14.01,2013-02-04 20:13:00,
2013-02-04 15:14:00,80.1,36.7,30.09,South,180,0.0,0.0,21,0.00,,---,0.00,VWS V14.01,2013-02-04 20:14:00,
2013-02-04 15:15:00,80.2,36.8,30.09,SSE,158,0.0,0.0,21,0.00,,---,0.00,VWS V14.01,2013-02-04 20:15:00,
2013-02-04 15:16:00,80.6,35.9,30.09,SSW,202,0.0,0.0,20,0.00,,---,0.00,VWS V14.01,2013-02-04 20:16:00,
2013-02-04 15:17:00,73.6,33.5,30.03,ENE,68,0.0,0.0,23,0.00,,---,0.00,VWS V14.01,2013-02-04 20:17:00,
2013-02-04 15:18:00,80.6,35.9,30.06,NNE,22,0.0,0.0,20,0.00,,---,0.00,VWS V14.01,2013-02-04 20:18:00,
2013-02-04 15:19:00,80.6,35.9,30.06,ESE,112,0.0,0.0,20,0.00,,---,0.00,VWS V14.01,2013-02-04 20:19:00,
2013-02-04 15:20:00,80.8,36.0,30.06,NE,45,0.0,0.0,20,0.00,,---,0.00,VWS V14.01,2013-02-04 20:20:00,
2013-02-04 15:21:00,80.6,35.9,30.06,West,270,0.0,0.0,20,0.00,,---,0.00,VWS V14.01,2013-02-04 20:21:00,
2013-02-04 15:22:00,72.7,33.8,30.03,ESE,112,0.0,0.0,24,0.00,,---,0.00,VWS V14.01,2013-02-04 20:22:00,
2013-02-04 15:23:00,80.1,36.7,30.06,ESE,112,0.0,0.0,21,0.00,,---,0.00,VWS V14.01,2013-02-04 20:23:00,
2013-02-04 15:24:00,80.6,35.9,30.06,SSE,158,0.0,0.0,20,0.00,,---,0.00,VWS V14.01,2013-02-04 20:24:00,
2013-02-04 15:25:00,81.0,36.2,30.06,ENE,68,0.0,0.0,20,0.00,,---,0.00,VWS V14.01,2013-02-04 20:25:00,
2013-02-04 15:26:00,80.6,35.9,30.06,ESE,112,0.0,0.0,20,0.00,,---,0.00,VWS V14.01,2013-02-04 20:26:00,
2013-02-04 15:27:00,71.6,32.9,30.03,ENE,68,0.0,0.0,24,0.00,,---,0.00,VWS V14.01,2013-02-04 20:27:00,
2013-02-04 15:28:00,80.6,35.9,30.06,ESE,112,0.0,0.0,20,0.00,,---,0.00,VWS V14.01,2013-02-04 20:28:00,
2013-02-04 15:29:00,80.8,36.0,30.06,SSE,158,0.0,0.0,20,0.00,,---,0.00,VWS V14.01,2013-02-04 20:29:00,
2013-02-04 15:30:00,80.4,35.7,30.06,SSE,158,0.0,0.0,20,0.00,,---,0.00,VWS V14.01,2013-02-04 20:30:00,
2013-02-04 15:31:00,80.4,35.7,30.06,SSW,202,0.0,0.0,20,0.00,,---,0.00,VWS V14.01,2013-02-04 20:31:00,
2013-02-04 15:32:00,70.9,34.3,30.03,ESE,112,0.0,0.0,26,0.00,,---,0.00,VWS V14.01,2013-02-04 20:32:00,
2013-02-04 15:33:00,80.4,37.0,30.06,WSW,248,0.0,0.0,21,0.00,,---,0.00,VWS V14.01,2013-02-04 20:33:00,
2013-02-04 15:34:00,80.1,35.4,30.06,SSW,202,0.0,0.0,20,0.00,,---,0.00,VWS V14.01,2013-02-04 20:34:00,
2013-02-04 15:35:00,80.2,35.6,30.06,SSW,202,0.0,0.0,20,0.00,,---,0.00,VWS V14.01,2013-02-04 20:35:00,
2013-02-04 15:36:00,80.4,35.7,30.06,SSW,202,0.0,0.0,20,0.00,,---,0.00,VWS V14.01,2013-02-04 20:36:00,
2013-02-04 15:37:00,70.9,35.3,30.06,ESE,112,0.0,0.0,27,0.00,,---,0.00,VWS V14.01,2013-02-04 20:37:00,
2013-02-04 15:38:00,80.2,35.6,30.06,NW,315,0.0,0.0,20,0.00,,---,0.00,VWS V14.01,2013-02-04 20:38:00,
2013-02-04 15:39:00,80.4,37.0,30.06,NNE,22,0.0,0.0,21,0.00,,---,0.00,VWS V14.01,2013-02-04 20:39:00,
2013-02-04 15:40:00,81.0,36.2,30.06,East,90,0.0,0.0,20,0.00,,---,0.00,VWS V14.01,2013-02-04 20:40:00,
2013-02-04 15:41:00,81.3,36.5,30.06,SE,135,0.0,0.0,20,0.00,,---,0.00,VWS V14.01,2013-02-04 20:41:00,
2013-02-04 15:42:00,70.7,36.0,30.06,ENE,68,0.0,0.0,28,0.00,,---,0.00,VWS V14.01,2013-02-04 20:42:00,
2013-02-04 15:43:00,81.1,36.3,30.06,SE,135,0.0,0.0,20,0.00,,---,0.00,VWS V14.01,2013-02-04 20:43:00,
2013-02-04 15:44:00,81.0,36.2,30.06,SSW,202,0.0,0.0,20,0.00,,---,0.00,VWS V14.01,2013-02-04 20:44:00,
2013-02-04 15:45:00,81.0,36.2,30.06,South,180,0.0,0.0,20,0.00,,---,0.00,VWS V14.01,2013-02-04 20:45:00,
2013-02-04 15:46:00,80.8,36.0,30.06,SSW,202,0.0,0.0,20,0.00,,---,0.00,VWS V14.01,2013-02-04 20:46:00,
2013-02-04 15:47:00,70.7,36.9,30.06,SSE,158,0.0,0.0,29,0.00,,---,0.00,VWS V14.01,2013-02-04 20:47:00,
2013-02-04 15:48:00,80.6,35.9,30.06,SSW,202,0.0,0.0,20,0.00,,---,0.00,VWS V14.01,2013-02-04 20:48:00,
2013-02-04 15:49:00,80.8,36.0,30.06,SSW,202,0.0,0.0,20,0.00,,---,0.00,VWS V14.01,2013-02-04 20:49:00,
2013-02-04 15:50:00,80.8,36.0,30.06,SW,225,0.0,0.0,20,0.00,,---,0.00,VWS V14.01,2013-02-04 20:50:00,
2013-02-04 15:51:00,80.1,35.4,30.06,SSW,202,0.0,0.0,20,0.00,,---,0.00,VWS V14.01,2013-02-04 20:51:00,
2013-02-04 15:52:00,71.1,37.2,30.06,ENE,68,0.0,0.0,29,0.00,,---,0.00,VWS V14.01,2013-02-04 20:52:00,
2013-02-04 15:53:00,81.0,36.2,30.06,SSE,158,0.0,0.0,20,0.00,,---,0.00,VWS V14.01,2013-02-04 20:53:00,
2013-02-04 15:54:00,80.4,35.7,30.06,South,180,0.0,0.0,20,0.00,,---,0.00,VWS V14.01,2013-02-04 20:54:00,
2013-02-04 15:55:00,80.4,35.7,30.06,South,180,0.0,0.0,20,0.00,,---,0.00,VWS V14.01,2013-02-04 20:55:00,
2013-02-04 15:56:00,80.8,36.0,30.06,SE,135,0.0,0.0,20,0.00,,---,0.00,VWS V14.01,2013-02-04 20:56:00,
2013-02-04 15:57:00,70.2,37.3,30.06,NE,45,0.0,0.0,30,0.00,,---,0.00,VWS V14.01,2013-02-04 20:57:00,
2013-02-04 15:58:00,81.1,36.3,30.06,ESE,112,0.0,0.0,20,0.00,,---,0.00,VWS V14.01,2013-02-04 20:58:00,
2013-02-04 15:59:00,81.5,36.6,30.06,ENE,68,0.0,0.0,20,0.00,,---,0.00,VWS V14.01,2013-02-04 20:59:00,
2013-02-04 16:00:00,81.5,36.6,30.06,ESE,112,0.0,0.0,20,0.00,,---,0.00,VWS V14.01,2013-02-04 21:00:00,
2013-02-04 16:01:00,81.7,36.8,30.06,WSW,248,0.0,0.0,20,0.00,,---,0.00,VWS V14.01,2013-02-04 21:01:00,
2013-02-04 16:02:00,69.8,37.8,30.06,ESE,112,0.0,0.0,31,0.00,,---,0.00,VWS V14.01,2013-02-04 21:02:00,
2013-02-04 16:03:00,79.3,34.8,30.06,WSW,248,0.0,0.0,20,0.00,,---,0.00,VWS V14.01,2013-02-04 21:03:00,
2013-02-04 16:04:00,79.3,34.8,30.06,SSW,202,0.0,0.0,20,0.00,,---,0.00,VWS V14.01,2013-02-04 21:04:00,
2013-02-04 16:05:00,79.3,34.8,30.06,SSE,158,0.0,0.0,20,0.00,,---,0.00,VWS V14.01,2013-02-04 21:05:00,
2013-02-04 16:06:00,79.5,35.0,30.06,NE,45,0.0,0.0,20,0.00,,---,0.00,VWS V14.01,2013-02-04 21:06:00,
2013-02-04 16:07:00,70.3,38.3,30.06,SSE,158,0.0,0.0,31,0.00,,---,0.00,VWS V14.01,2013-02-04 21:07:00,
2013-02-04 16:08:00,79.7,35.1,30.06,ESE,112,0.0,0.0,20,0.00,,---,0.00,VWS V14.01,2013-02-04 21:08:00,
2013-02-04 16:09:00,79.0,35.8,30.06,East,90,0.0,0.0,21,0.00,,---,0.00,VWS V14.01,2013-02-04 21:09:00,
2013-02-04 16:10:00,78.8,35.6,30.06,NE,45,0.0,0.0,21,0.00,,---,0.00,VWS V14.01,2013-02-04 21:10:00,
2013-02-04 16:11:00,78.3,35.2,30.06,NE,45,0.0,0.0,21,0.00,,---,0.00,VWS V14.01,2013-02-04 21:11:00,
2013-02-04 16:12:00,70.0,38.0,30.06,East,90,0.0,0.0,31,0.00,,---,0.00,VWS V14.01,2013-02-04 21:12:00,
2013-02-04 16:13:00,77.2,34.3,30.06,ENE,68,0.0,0.0,21,0.00,,---,0.00,VWS V14.01,2013-02-04 21:13:00,
2013-02-04 16:14:00,76.5,33.7,30.06,ENE,68,0.0,0.0,21,0.00,,---,0.00,VWS V14.01,2013-02-04 21:14:00,
2013-02-04 16:15:00,76.6,33.8,30.06,ENE,68,0.0,0.0,21,0.00,,---,0.00,VWS V14.01,2013-02-04 21:15:00,
2013-02-04 16:16:00,76.3,33.5,30.06,SSE,158,0.0,0.0,21,0.00,,---,0.00,VWS V14.01,2013-02-04 21:16:00,
2013-02-04 16:17:00,69.6,38.5,30.06,NE,45,0.0,0.0,32,0.00,,---,0.00,VWS V14.01,2013-02-04 21:17:00,
2013-02-04 16:18:00,76.5,33.7,30.06,ENE,68,0.0,0.0,21,0.00,,---,0.00,VWS V14.01,2013-02-04 21:18:00,
2013-02-04 16:19:00,76.6,35.0,30.06,ENE,68,0.0,0.0,22,0.00,,---,0.00,VWS V14.01,2013-02-04 21:19:00,
2013-02-04 16:20:00,76.1,33.4,30.06,NE,45,0.0,0.0,21,0.00,,---,0.00,VWS V14.01,2013-02-04 21:20:00,
2013-02-04 16:21:00,75.7,33.1,30.06,ENE,68,0.0,0.0,21,0.00,,---,0.00,VWS V14.01,2013-02-04 21:21:00,
2013-02-04 16:22:00,69.4,38.3,30.06,NE,45,0.0,0.0,32,0.00,,---,0.00,VWS V14.01,2013-02-04 21:22:00,
2013-02-04 16:23:00,75.0,33.6,30.06,ENE,68,0.0,0.0,22,0.00,,---,0.00,VWS V14.01,2013-02-04 21:23:00,
2013-02-04 16:24:00,74.5,33.2,30.06,ESE,112,0.0,0.0,22,0.00,,---,0.00,VWS V14.01,2013-02-04 21:24:00,
2013-02-04 16:25:00,74.1,32.9,30.06,ENE,68,0.0,0.0,22,0.00,,---,0.00,VWS V14.01,2013-02-04 21:25:00,
2013-02-04 16:26:00,73.9,32.7,30.06,ENE,68,0.0,0.0,22,0.00,,---,0.00,VWS V14.01,2013-02-04 21:26:00,
2013-02-04 16:27:00,69.4,38.3,30.06,NE,45,0.0,0.0,32,0.00,,---,0.00,VWS V14.01,2013-02-04 21:27:00,
2013-02-04 16:28:00,73.8,32.6,30.06,South,180,0.0,0.0,22,0.00,,---,0.00,VWS V14.01,2013-02-04 21:28:00,
2013-02-04 16:29:00,74.1,32.9,30.06,ESE,112,0.0,0.0,22,0.00,,---,0.00,VWS V14.01,2013-02-04 21:29:00,
2013-02-04 16:30:00,74.5,33.2,30.06,ENE,68,0.0,0.0,22,0.00,,---,0.00,VWS V14.01,2013-02-04 21:30:00,
2013-02-04 16:31:00,74.5,33.2,30.06,NE,45,0.0,0.0,22,0.00,,---,0.00,VWS V14.01,2013-02-04 21:31:00,
2013-02-04 16:32:00,68.7,37.7,30.06,ENE,68,0.0,0.0,32,0.00,,---,0.00,VWS V14.01,2013-02-04 21:32:00,
2013-02-04 16:33:00,73.8,33.7,30.03,NNE,22,0.0,0.0,23,0.00,,---,0.00,VWS V14.01,2013-02-04 21:33:00,
2013-02-04 16:34:00,73.8,33.7,30.03,East,90,0.0,0.0,23,0.00,,---,0.00,VWS V14.01,2013-02-04 21:34:00,
2013-02-04 16:35:00,73.8,33.7,30.03,ESE,112,0.0,0.0,23,0.00,,---,0.00,VWS V14.01,2013-02-04 21:35:00,
2013-02-04 16:36:00,73.8,33.7,30.03,ESE,112,0.0,0.0,23,0.00,,---,0.00,VWS V14.01,2013-02-04 21:36:00,
2013-02-04 16:37:00,68.5,37.5,30.06,NE,45,0.0,0.0,32,0.00,,---,0.00,VWS V14.01,2013-02-04 21:37:00,
2013-02-04 16:38:00,73.8,33.7,30.03,NE,45,0.0,0.0,23,0.00,,---,0.00,VWS V14.01,2013-02-04 21:38:00,
2013-02-04 16:39:00,73.9,33.8,30.03,East,90,0.0,0.0,23,0.00,,---,0.00,VWS V14.01,2013-02-04 21:39:00,
2013-02-04 16:40:00,73.8,33.7,30.03,SSW,202,0.0,0.0,23,0.00,,---,0.00,VWS V14.01,2013-02-04 21:40:00,
2013-02-04 16:41:00,73.9,33.8,30.03,ESE,112,0.0,0.0,23,0.00,,---,0.00,VWS V14.01,2013-02-04 21:41:00,
2013-02-04 16:42:00,68.5,37.5,30.06,ENE,68,0.0,0.0,32,0.00,,---,0.00,VWS V14.01,2013-02-04 21:42:00,
2013-02-04 16:43:00,73.8,33.7,30.03,ENE,68,0.0,0.0,23,0.00,,---,0.00,VWS V14.01,2013-02-04 21:43:00,
2013-02-04 16:44:00,73.6,33.5,30.03,NE,45,0.0,0.0,23,0.00,,---,0.00,VWS V14.01,2013-02-04 21:44:00,
2013-02-04 16:45:00,73.6,33.5,30.03,ESE,112,0.0,0.0,23,0.00,,---,0.00,VWS V14.01,2013-02-04 21:45:00,
2013-02-04 16:46:00,73.6,33.5,30.03,ENE,68,0.0,0.0,23,0.00,,---,0.00,VWS V14.01,2013-02-04 21:46:00,
2013-02-04 16:47:00,68.9,37.8,30.06,SSE,158,0.0,0.0,32,0.00,,---,0.00,VWS V14.01,2013-02-04 21:47:00,
2013-02-04 16:48:00,72.9,34.0,30.03,SE,135,0.0,0.0,24,0.00,,---,0.00,VWS V14.01,2013-02-04 21:48:00,
2013-02-04 16:49:00,72.9,34.0,30.03,SSE,158,0.0,0.0,24,0.00,,---,0.00,VWS V14.01,2013-02-04 21:49:00,
2013-02-04 16:50:00,72.9,34.0,30.03,ESE,112,0.0,0.0,24,0.00,,---,0.00,VWS V14.01,2013-02-04 21:50:00,
2013-02-04 16:51:00,72.7,33.8,30.03,SE,135,0.0,0.0,24,0.00,,---,0.00,VWS V14.01,2013-02-04 21:51:00,
2013-02-04 16:52:00,68.7,37.7,30.06,ENE,68,0.0,0.0,32,0.00,,---,0.00,VWS V14.01,2013-02-04 21:52:00,
2013-02-04 16:53:00,72.3,33.5,30.03,ESE,112,0.0,0.0,24,0.00,,---,0.00,VWS V14.01,2013-02-04 21:53:00,
2013-02-04 16:54:00,72.1,33.4,30.03,NE,45,0.0,0.0,24,0.00,,---,0.00,VWS V14.01,2013-02-04 21:54:00,
2013-02-04 16:55:00,71.6,32.9,30.03,ENE,68,0.0,0.0,24,0.00,,---,0.00,VWS V14.01,2013-02-04 21:55:00,
2013-02-04 16:56:00,71.2,33.6,30.03,NE,45,0.0,0.0,25,0.00,,---,0.00,VWS V14.01,2013-02-04 21:56:00,
2013-02-04 16:57:00,68.4,37.4,30.06,SSE,158,0.0,0.0,32,0.00,,---,0.00,VWS V14.01,2013-02-04 21:57:00,
2013-02-04 16:58:00,71.1,33.5,30.03,ENE,68,0.0,0.0,25,0.00,,---,0.00,VWS V14.01,2013-02-04 21:58:00,
2013-02-04 16:59:00,70.7,34.2,30.03,WNW,292,0.0,0.0,26,0.00,,---,0.00,VWS V14.01,2013-02-04 21:59:00,
2013-02-04 17:00:00,71.1,34.5,30.03,NE,45,0.0,0.0,26,0.00,,---,0.00,VWS V14.01,2013-02-04 22:00:00,
2013-02-04 17:01:00,70.9,34.3,30.03,ENE,68,0.0,0.0,26,0.00,,---,0.00,VWS V14.01,2013-02-04 22:01:00,
2013-02-04 17:02:00,68.2,37.2,30.06,ENE,68,0.0,0.0,32,0.00,,---,0.00,VWS V14.01,2013-02-04 22:02:00,
2013-02-04 17:03:00,71.1,35.4,30.06,ENE,68,0.0,0.0,27,0.00,,---,0.00,VWS V14.01,2013-02-04 22:03:00,
2013-02-04 17:04:00,70.9,35.3,30.06,NE,45,0.0,0.0,27,0.00,,---,0.00,VWS V14.01,2013-02-04 22:04:00,
2013-02-04 17:05:00,70.9,35.3,30.06,ENE,68,0.0,0.0,27,0.00,,---,0.00,VWS V14.01,2013-02-04 22:05:00,
2013-02-04 17:06:00,70.9,35.3,30.06,ENE,68,0.0,0.0,27,0.00,,---,0.00,VWS V14.01,2013-02-04 22:06:00,
2013-02-04 17:07:00,67.3,37.2,30.06,ENE,68,0.0,0.0,33,0.00,,---,0.00,VWS V14.01,2013-02-04 22:07:00,
2013-02-04 17:08:00,70.7,36.0,30.06,East,90,0.0,0.0,28,0.00,,---,0.00,VWS V14.01,2013-02-04 22:08:00,
2013-02-04 17:09:00,70.7,36.0,30.06,ENE,68,0.0,0.0,28,0.00,,---,0.00,VWS V14.01,2013-02-04 22:09:00,
2013-02-04 17:10:00,70.7,36.0,30.06,NE,45,0.0,0.0,28,0.00,,---,0.00,VWS V14.01,2013-02-04 22:10:00,
2013-02-04 17:11:00,70.5,35.9,30.06,ENE,68,0.0,0.0,28,0.00,,---,0.00,VWS V14.01,2013-02-04 22:11:00,
2013-02-04 17:12:00,67.3,37.2,30.06,ESE,112,0.0,0.0,33,0.00,,---,0.00,VWS V14.01,2013-02-04 22:12:00,
2013-02-04 17:13:00,70.5,36.8,30.06,ESE,112,0.0,0.0,29,0.00,,---,0.00,VWS V14.01,2013-02-04 22:13:00,
2013-02-04 17:14:00,70.5,36.8,30.06,ENE,68,0.0,0.0,29,0.00,,---,0.00,VWS V14.01,2013-02-04 22:14:00,
2013-02-04 17:15:00,70.5,36.8,30.06,ESE,112,0.0,0.0,29,0.00,,---,0.00,VWS V14.01,2013-02-04 22:15:00,
2013-02-04 17:16:00,70.7,36.9,30.06,ESE,112,0.0,0.0,29,0.00,,---,0.00,VWS V14.01,2013-02-04 22:16:00,
2013-02-04 17:17:00,67.5,37.4,30.06,East,90,0.0,0.0,33,0.00,,---,0.00,VWS V14.01,2013-02-04 22:17:00,
2013-02-04 17:18:00,70.9,37.1,30.06,ENE,68,0.0,0.0,29,0.00,,---,0.00,VWS V14.01,2013-02-04 22:18:00,
2013-02-04 17:19:00,70.9,37.1,30.06,ENE,68,0.0,0.0,29,0.00,,---,0.00,VWS V14.01,2013-02-04 22:19:00,
2013-02-04 17:20:00,71.1,37.2,30.06,ESE,112,0.0,0.0,29,0.00,,---,0.00,VWS V14.01,2013-02-04 22:20:00,
2013-02-04 17:21:00,71.1,37.2,30.06,NE,45,0.0,0.0,29,0.00,,---,0.00,VWS V14.01,2013-02-04 22:21:00,
2013-02-04 17:22:00,67.5,37.4,30.06,ENE,68,0.0,0.0,33,0.00,,---,0.00,VWS V14.01,2013-02-04 22:22:00,
2013-02-04 17:23:00,70.7,37.8,30.06,ENE,68,0.0,0.0,30,0.00,,---,0.00,VWS V14.01,2013-02-04 22:23:00,
2013-02-04 17:24:00,70.5,37.6,30.06,ENE,68,0.0,0.0,30,0.00,,---,0.00,VWS V14.01,2013-02-04 22:24:00,
2013-02-04 17:25:00,70.2,37.3,30.06,ENE,68,0.0,0.0,30,0.00,,---,0.00,VWS V14.01,2013-02-04 22:25:00,
2013-02-04 17:26:00,70.0,37.2,30.06,ENE,68,0.0,0.0,30,0.00,,---,0.00,VWS V14.01,2013-02-04 22:26:00,
2013-02-04 17:27:00,67.3,37.2,30.06,East,90,0.0,0.0,33,0.00,,---,0.00,VWS V14.01,2013-02-04 22:27:00,
2013-02-04 17:28:00,69.8,37.8,30.06,East,90,0.0,0.0,31,0.00,,---,0.00,VWS V14.01,2013-02-04 22:28:00,
2013-02-04 17:29:00,69.8,37.8,30.06,ESE,112,0.0,0.0,31,0.00,,---,0.00,VWS V14.01,2013-02-04 22:29:00,
2013-02-04 17:30:00,69.8,37.8,30.06,ENE,68,0.0,0.0,31,0.00,,---,0.00,VWS V14.01,2013-02-04 22:30:00,
2013-02-04 17:31:00,69.8,37.8,30.06,ENE,68,0.0,0.0,31,0.00,,---,0.00,VWS V14.01,2013-02-04 22:31:00,
2013-02-04 17:32:00,66.6,36.6,30.06,East,90,0.0,0.0,33,0.00,,---,0.00,VWS V14.01,2013-02-04 22:32:00,
2013-02-04 17:33:00,70.0,38.0,30.06,SE,135,0.0,0.0,31,0.00,,---,0.00,VWS V14.01,2013-02-04 22:33:00,
2013-02-04 17:34:00,70.2,39.0,30.06,SE,135,0.0,0.0,32,0.00,,---,0.00,VWS V14.01,2013-02-04 22:34:00,
2013-02-04 17:35:00,70.2,38.1,30.06,SSW,202,0.0,0.0,31,0.00,,---,0.00,VWS V14.01,2013-02-04 22:35:00,
2013-02-04 17:36:00,70.3,38.3,30.06,SE,135,0.0,0.0,31,0.00,,---,0.00,VWS V14.01,2013-02-04 22:36:00,
2013-02-04 17:37:00,66.4,36.4,30.06,ESE,112,0.0,0.0,33,0.00,,---,0.00,VWS V14.01,2013-02-04 22:37:00,
2013-02-04 17:38:00,70.2,38.1,30.06,ENE,68,0.0,0.0,31,0.00,,---,0.00,VWS V14.01,2013-02-04 22:38:00,
2013-02-04 17:39:00,70.0,38.0,30.06,NNE,22,0.0,0.0,31,0.00,,---,0.00,VWS V14.01,2013-02-04 22:39:00,
2013-02-04 17:40:00,70.0,38.0,30.06,ENE,68,0.0,0.0,31,0.00,,---,0.00,VWS V14.01,2013-02-04 22:40:00,
2013-02-04 17:41:00,70.0,38.8,30.06,ENE,68,0.0,0.0,32,0.00,,---,0.00,VWS V14.01,2013-02-04 22:41:00,
2013-02-04 17:42:00,66.4,36.4,30.06,ENE,68,0.0,0.0,33,0.00,,---,0.00,VWS V14.01,2013-02-04 22:42:00,
2013-02-04 17:43:00,69.8,37.8,30.06,ESE,112,0.0,0.0,31,0.00,,---,0.00,VWS V14.01,2013-02-04 22:43:00,
2013-02-04 17:44:00,69.6,38.5,30.06,NE,45,0.0,0.0,32,0.00,,---,0.00,VWS V14.01,2013-02-04 22:44:00,
2013-02-04 17:45:00,69.6,38.5,30.06,ENE,68,0.0,0.0,32,0.00,,---,0.00,VWS V14.01,2013-02-04 22:45:00,
2013-02-04 17:46:00,69.6,38.5,30.06,ENE,68,0.0,0.0,32,0.00,,---,0.00,VWS V14.01,2013-02-04 22:46:00,
2013-02-04 17:47:00,66.0,36.9,30.06,ENE,68,0.0,0.0,34,0.00,,---,0.00,VWS V14.01,2013-02-04 22:47:00,
2013-02-04 17:48:00,69.6,38.5,30.06,ENE,68,0.0,0.0,32,0.00,,---,0.00,VWS V14.01,2013-02-04 22:48:00,
2013-02-04 17:49:00,69.6,38.5,30.06,ESE,112,0.0,0.0,32,0.00,,---,0.00,VWS V14.01,2013-02-04 22:49:00,
2013-02-04 17:50:00,69.6,38.5,30.06,NE,45,0.0,0.0,32,0.00,,---,0.00,VWS V14.01,2013-02-04 22:50:00,
2013-02-04 17:51:00,69.4,38.3,30.06,ENE,68,0.0,0.0,32,0.00,,---,0.00,VWS V14.01,2013-02-04 22:51:00,
2013-02-04 17:52:00,65.7,36.6,30.09,ENE,68,0.0,0.0,34,0.00,,---,0.00,VWS V14.01,2013-02-04 22:52:00,
2013-02-04 17:53:00,69.4,38.3,30.06,ENE,68,0.0,0.0,32,0.00,,---,0.00,VWS V14.01,2013-02-04 22:53:00,
2013-02-04 17:54:00,69.4,38.3,30.06,ENE,68,0.0,0.0,32,0.00,,---,0.00,VWS V14.01,2013-02-04 22:54:00,
2013-02-04 17:55:00,69.4,38.3,30.06,ENE,68,0.0,0.0,32,0.00,,---,0.00,VWS V14.01,2013-02-04 22:55:00,
2013-02-04 17:56:00,69.3,38.2,30.06,East,90,0.0,0.0,32,0.00,,---,0.00,VWS V14.01,2013-02-04 22:56:00,
2013-02-04 17:57:00,65.3,36.2,30.09,NE,45,0.0,0.0,34,0.00,,---,0.00,VWS V14.01,2013-02-04 22:57:00,
2013-02-04 17:58:00,69.1,38.0,30.06,ENE,68,0.0,0.0,32,0.00,,---,0.00,VWS V14.01,2013-02-04 22:58:00,
2013-02-04 17:59:00,68.9,37.8,30.06,SE,135,0.0,0.0,32,0.00,,---,0.00,VWS V14.01,2013-02-04 22:59:00,
2013-02-04 18:00:00,68.9,37.8,30.06,ENE,68,0.0,0.0,32,0.00,,---,0.00,VWS V14.01,2013-02-04 23:00:00,
2013-02-04 18:01:00,68.7,37.7,30.06,ENE,68,0.0,0.0,32,0.00,,---,0.00,VWS V14.01,2013-02-04 23:01:00,
2013-02-04 18:02:00,64.9,35.9,30.09,ENE,68,0.0,0.0,34,0.00,,---,0.00,VWS V14.01,2013-02-04 23:02:00,
2013-02-04 18:03:00,68.5,37.5,30.06,NE,45,0.0,0.0,32,0.00,,---,0.00,VWS V14.01,2013-02-04 23:03:00,
2013-02-04 18:04:00,68.7,37.7,30.06,ESE,112,0.0,0.0,32,0.00,,---,0.00,VWS V14.01,2013-02-04 23:04:00,
2013-02-04 18:05:00,68.7,37.7,30.06,ENE,68,0.0,0.0,32,0.00,,---,0.00,VWS V14.01,2013-02-04 23:05:00,
2013-02-04 18:06:00,68.5,37.5,30.06,NE,45,0.0,0.0,32,0.00,,---,0.00,VWS V14.01,2013-02-04 23:06:00,
2013-02-04 18:07:00,64.8,35.8,30.09,ENE,68,0.0,0.0,34,0.00,,---,0.00,VWS V14.01,2013-02-04 23:07:00,
2013-02-04 18:08:00,68.5,37.5,30.06,East,90,0.0,0.0,32,0.00,,---,0.00,VWS V14.01,2013-02-04 23:08:00,
2013-02-04 18:09:00,68.5,37.5,30.06,ENE,68,0.0,0.0,32,0.00,,---,0.00,VWS V14.01,2013-02-04 23:09:00,
2013-02-04 18:10:00,68.5,37.5,30.06,NNE,22,0.0,0.0,32,0.00,,---,0.00,VWS V14.01,2013-02-04 23:10:00,
2013-02-04 18:11:00,68.5,37.5,30.06,ENE,68,0.0,0.0,32,0.00,,---,0.00,VWS V14.01,2013-02-04 23:11:00,
2013-02-04 18:12:00,64.4,36.2,30.09,ENE,68,0.0,0.0,35,0.00,,---,0.00,VWS V14.01,2013-02-04 23:12:00,
2013-02-04 18:13:00,68.5,37.5,30.06,ESE,112,0.0,0.0,32,0.00,,---,0.00,VWS V14.01,2013-02-04 23:13:00,
2013-02-04 18:14:00,68.7,37.7,30.06,ENE,68,0.0,0.0,32,0.00,,---,0.00,VWS V14.01,2013-02-04 23:14:00,
2013-02-04 18:15:00,68.9,37.8,30.06,ESE,112,0.0,0.0,32,0.00,,---,0.00,VWS V14.01,2013-02-04 23:15:00,
2013-02-04 18:16:00,68.9,37.8,30.06,ESE,112,0.0,0.0,32,0.00,,---,0.00,VWS V14.01,2013-02-04 23:16:00,
2013-02-04 18:17:00,64.0,35.9,30.09,ENE,68,0.0,0.0,35,0.00,,---,0.00,VWS V14.01,2013-02-04 23:17:00,
2013-02-04 18:18:00,68.9,37.8,30.06,SE,135,0.0,0.0,32,0.00,,---,0.00,VWS V14.01,2013-02-04 23:18:00,
2013-02-04 18:19:00,68.7,37.7,30.06,East,90,0.0,0.0,32,0.00,,---,0.00,VWS V14.01,2013-02-04 23:19:00,
2013-02-04 18:20:00,68.7,37.7,30.06,ENE,68,0.0,0.0,32,0.00,,---,0.00,VWS V14.01,2013-02-04 23:20:00,
2013-02-04 18:21:00,68.7,37.7,30.06,ENE,68,0.0,0.0,32,0.00,,---,0.00,VWS V14.01,2013-02-04 23:21:00,
2013-02-04 18:22:00,63.7,35.5,30.09,ENE,68,0.0,0.0,35,0.00,,---,0.00,VWS V14.01,2013-02-04 23:22:00,
2013-02-04 18:23:00,68.5,37.5,30.06,ENE,68,0.0,0.0,32,0.00,,---,0.00,VWS V14.01,2013-02-04 23:23:00,
2013-02-04 18:24:00,68.5,37.5,30.06,ESE,112,0.0,0.0,32,0.00,,---,0.00,VWS V14.01,2013-02-04 23:24:00,
2013-02-04 18:25:00,68.5,37.5,30.06,ENE,68,0.0,0.0,32,0.00,,---,0.00,VWS V14.01,2013-02-04 23:25:00,
2013-02-04 18:26:00,68.4,37.4,30.06,ENE,68,0.0,0.0,32,0.00,,---,0.00,VWS V14.01,2013-02-04 23:26:00,
2013-02-04 18:27:00,63.5,36.1,30.09,NE,45,0.0,0.0,36,0.00,,---,0.00,VWS V14.01,2013-02-04 23:27:00,
2013-02-04 18:28:00,68.2,37.2,30.06,East,90,0.0,0.0,32,0.00,,---,0.00,VWS V14.01,2013-02-04 23:28:00,
2013-02-04 18:29:00,68.2,37.2,30.06,ENE,68,0.0,0.0,32,0.00,,---,0.00,VWS V14.01,2013-02-04 23:29:00,
2013-02-04 18:30:00,68.2,37.2,30.06,ENE,68,0.0,0.0,32,0.00,,---,0.00,VWS V14.01,2013-02-04 23:30:00,
2013-02-04 18:31:00,68.2,37.2,30.06,ENE,68,0.0,0.0,32,0.00,,---,0.00,VWS V14.01,2013-02-04 23:31:00,
2013-02-04 18:32:00,63.1,35.8,30.09,NE,45,0.0,0.0,36,0.00,,---,0.00,VWS V14.01,2013-02-04 23:32:00,
2013-02-04 18:33:00,67.5,37.4,30.06,ENE,68,0.0,0.0,33,0.00,,---,0.00,VWS V14.01,2013-02-04 23:33:00,
2013-02-04 18:34:00,67.5,37.4,30.06,ENE,68,0.0,0.0,33,0.00,,---,0.00,VWS V14.01,2013-02-04 23:34:00,
2013-02-04 18:35:00,67.3,37.2,30.06,ENE,68,0.0,0.0,33,0.00,,---,0.00,VWS V14.01,2013-02-04 23:35:00,
2013-02-04 18:36:00,67.3,37.2,30.06,East,90,0.0,0.0,33,0.00,,---,0.00,VWS V14.01,2013-02-04 23:36:00,
2013-02-04 18:37:00,62.8,35.5,30.09,NE,45,0.0,0.0,36,0.00,,---,0.00,VWS V14.01,2013-02-04 23:37:00,
2013-02-04 18:38:00,67.1,37.1,30.06,NE,45,0.0,0.0,33,0.00,,---,0.00,VWS V14.01,2013-02-04 23:38:00,
2013-02-04 18:39:00,67.1,37.1,30.06,ENE,68,0.0,0.0,33,0.00,,---,0.00,VWS V14.01,2013-02-04 23:39:00,
2013-02-04 18:40:00,67.1,37.1,30.06,NE,45,0.0,0.0,33,0.00,,---,0.00,VWS V14.01,2013-02-04 23:40:00,
2013-02-04 18:41:00,67.3,37.2,30.06,NE,45,0.0,0.0,33,0.00,,---,0.00,VWS V14.01,2013-02-04 23:41:00,
2013-02-04 18:42:00,62.2,36.3,30.09,NE,45,0.0,0.0,38,0.00,,---,0.00,VWS V14.01,2013-02-04 23:42:00,
2013-02-04 18:43:00,67.3,37.2,30.06,NE,45,0.0,0.0,33,0.00,,---,0.00,VWS V14.01,2013-02-04 23:43:00,
2013-02-04 18:44:00,67.3,37.2,30.06,ENE,68,0.0,0.0,33,0.00,,---,0.00,VWS V14.01,2013-02-04 23:44:00,
2013-02-04 18:45:00,67.5,37.4,30.06,East,90,0.0,0.0,33,0.00,,---,0.00,VWS V14.01,2013-02-04 23:45:00,
2013-02-04 18:46:00,67.5,37.4,30.06,ESE,112,0.0,0.0,33,0.00,,---,0.00,VWS V14.01,2013-02-04 23:46:00,
2013-02-04 18:47:00,61.9,36.0,30.09,NE,45,0.0,0.0,38,0.00,,---,0.00,VWS V14.01,2013-02-04 23:47:00,
2013-02-04 18:48:00,67.5,37.4,30.06,NNE,22,0.0,0.0,33,0.00,,---,0.00,VWS V14.01,2013-02-04 23:48:00,
2013-02-04 18:49:00,67.5,37.4,30.06,ENE,68,0.0,0.0,33,0.00,,---,0.00,VWS V14.01,2013-02-04 23:49:00,
2013-02-04 18:50:00,67.5,37.4,30.06,ENE,68,0.0,0.0,33,0.00,,---,0.00,VWS V14.01,2013-02-04 23:50:00,
2013-02-04 18:51:00,67.5,37.4,30.06,ENE,68,0.0,0.0,33,0.00,,---,0.00,VWS V14.01,2013-02-04 23:51:00,
2013-02-04 18:52:00,61.5,35.7,30.09,NE,45,0.0,0.0,38,0.00,,---,0.00,VWS V14.01,2013-02-04 23:52:00,
2013-02-04 18:53:00,67.5,37.4,30.06,NE,45,0.0,0.0,33,0.00,,---,0.00,VWS V14.01,2013-02-04 23:53:00,
2013-02-04 18:54:00,67.5,37.4,30.06,East,90,0.0,0.0,33,0.00,,---,0.00,VWS V14.01,2013-02-04 23:54:00,
2013-02-04 18:55:00,67.5,37.4,30.06,East,90,0.0,0.0,33,0.00,,---,0.00,VWS V14.01,2013-02-04 23:55:00,
2013-02-04 18:56:00,67.1,37.1,30.06,ENE,68,0.0,0.0,33,0.00,,---,0.00,VWS V14.01,2013-02-04 23:56:00,
2013-02-04 18:57:00,60.8,35.7,30.09,SSE,158,0.0,0.0,39,0.00,,---,0.00,VWS V14.01,2013-02-04 23:57:00,
2013-02-04 18:58:00,66.9,36.9,30.06,East,90,0.0,0.0,33,0.00,,---,0.00,VWS V14.01,2013-02-04 23:58:00,
2013-02-04 18:59:00,66.7,36.8,30.06,ESE,112,0.0,0.0,33,0.00,,---,0.00,VWS V14.01,2013-02-04 23:59:00,
2013-02-04 19:00:00,66.7,36.8,30.06,East,90,0.0,0.0,33,0.00,,---,0.00,VWS V14.01,2013-02-05 00:00:00,
2013-02-04 19:01:00,66.6,36.6,30.06,ENE,68,0.0,0.0,33,0.00,,---,0.00,VWS V14.01,2013-02-05 00:01:00,
2013-02-04 19:02:00,60.3,35.9,30.09,SSE,158,0.0,0.0,40,0.00,,---,0.00,VWS V14.01,2013-02-05 00:02:00,
2013-02-04 19:03:00,66.4,36.4,30.06,ESE,112,0.0,0.0,33,0.00,,---,0.00,VWS V14.01,2013-02-05 00:03:00,
2013-02-04 19:04:00,66.4,36.4,30.06,ENE,68,0.0,0.0,33,0.00,,---,0.00,VWS V14.01,2013-02-05 00:04:00,
2013-02-04 19:05:00,66.4,36.4,30.06,ENE,68,0.0,0.0,33,0.00,,---,0.00,VWS V14.01,2013-02-05 00:05:00,
2013-02-04 19:06:00,66.4,36.4,30.06,East,90,0.0,0.0,33,0.00,,---,0.00,VWS V14.01,2013-02-05 00:06:00,
2013-02-04 19:07:00,59.5,35.8,30.09,SSE,158,0.0,0.0,41,0.00,,---,0.00,VWS V14.01,2013-02-05 00:07:00,
2013-02-04 19:08:00,66.2,36.3,30.06,ENE,68,0.0,0.0,33,0.00,,---,0.00,VWS V14.01,2013-02-05 00:08:00,
2013-02-04 19:09:00,66.4,36.4,30.06,East,90,0.0,0.0,33,0.00,,---,0.00,VWS V14.01,2013-02-05 00:09:00,
2013-02-04 19:10:00,66.4,36.4,30.06,ESE,112,0.0,0.0,33,0.00,,---,0.00,VWS V14.01,2013-02-05 00:10:00,
2013-02-04 19:11:00,66.4,36.4,30.06,NE,45,0.0,0.0,33,0.00,,---,0.00,VWS V14.01,2013-02-05 00:11:00,
2013-02-04 19:12:00,59.0,36.6,30.09,SSE,158,0.0,0.0,43,0.00,,---,0.00,VWS V14.01,2013-02-05 00:12:00,
2013-02-04 19:13:00,66.2,36.3,30.06,ENE,68,0.0,0.0,33,0.00,,---,0.00,VWS V14.01,2013-02-05 00:13:00,
2013-02-04 19:14:00,66.0,36.9,30.06,ENE,68,0.0,0.0,34,0.00,,---,0.00,VWS V14.01,2013-02-05 00:14:00,
2013-02-04 19:15:00,66.0,36.9,30.06,NE,45,0.0,0.0,34,0.00,,---,0.00,VWS V14.01,2013-02-05 00:15:00,
2013-02-04 19:16:00,66.0,36.9,30.06,ENE,68,0.0,0.0,34,0.00,,---,0.00,VWS V14.01,2013-02-05 00:16:00,
2013-02-04 19:17:00,58.6,36.2,30.09,SSE,158,0.0,0.0,43,0.00,,---,0.00,VWS V14.01,2013-02-05 00:17:00,
2013-02-04 19:18:00,65.8,36.7,30.09,ENE,68,0.0,0.0,34,0.00,,---,0.00,VWS V14.01,2013-02-05 00:18:00,
2013-02-04 19:19:00,65.7,36.6,30.09,East,90,0.0,0.0,34,0.00,,---,0.00,VWS V14.01,2013-02-05 00:19:00,
2013-02-04 19:20:00,65.7,36.6,30.09,ENE,68,0.0,0.0,34,0.00,,---,0.00,VWS V14.01,2013-02-05 00:20:00,
2013-02-04 19:21:00,65.5,36.4,30.09,ESE,112,0.0,0.0,34,0.00,,---,0.00,VWS V14.01,2013-02-05 00:21:00,
2013-02-04 19:22:00,58.1,36.3,30.09,SSE,158,0.0,0.0,44,0.00,,---,0.00,VWS V14.01,2013-02-05 00:22:00,
2013-02-04 19:23:00,65.5,36.4,30.09,NNE,22,0.0,0.0,34,0.00,,---,0.00,VWS V14.01,2013-02-05 00:23:00,
2013-02-04 19:24:00,65.3,36.2,30.09,ENE,68,0.0,0.0,34,0.00,,---,0.00,VWS V14.01,2013-02-05 00:24:00,
2013-02-04 19:25:00,65.3,36.2,30.09,ESE,112,0.0,0.0,34,0.00,,---,0.00,VWS V14.01,2013-02-05 00:25:00,
2013-02-04 19:26:00,65.3,36.2,30.09,ENE,68,0.0,0.0,34,0.00,,---,0.00,VWS V14.01,2013-02-05 00:26:00,
2013-02-04 19:27:00,57.9,36.2,30.09,SSE,158,0.0,0.0,44,0.00,,---,0.00,VWS V14.01,2013-02-05 00:27:00,
2013-02-04 19:28:00,65.1,36.1,30.09,ENE,68,0.0,0.0,34,0.00,,---,0.00,VWS V14.01,2013-02-05 00:28:00,
2013-02-04 19:29:00,65.1,36.1,30.09,NE,45,0.0,0.0,34,0.00,,---,0.00,VWS V14.01,2013-02-05 00:29:00,
2013-02-04 19:30:00,64.9,35.9,30.09,ENE,68,0.0,0.0,34,0.00,,---,0.00,VWS V14.01,2013-02-05 00:30:00,
2013-02-04 19:31:00,64.9,35.9,30.09,ENE,68,0.0,0.0,34,0.00,,---,0.00,VWS V14.01,2013-02-05 00:31:00,
2013-02-04 19:32:00,57.7,36.0,30.09,SSE,158,0.0,0.0,44,0.00,,---,0.00,VWS V14.01,2013-02-05 00:32:00,
2013-02-04 19:33:00,64.9,35.9,30.09,NE,45,0.0,0.0,34,0.00,,---,0.00,VWS V14.01,2013-02-05 00:33:00,
2013-02-04 19:34:00,64.8,35.8,30.09,NE,45,0.0,0.0,34,0.00,,---,0.00,VWS V14.01,2013-02-05 00:34:00,
2013-02-04 19:35:00,64.8,35.8,30.09,NE,45,0.0,0.0,34,0.00,,---,0.00,VWS V14.01,2013-02-05 00:35:00,
2013-02-04 19:36:00,64.8,35.8,30.09,ENE,68,0.0,0.0,34,0.00,,---,0.00,VWS V14.01,2013-02-05 00:36:00,
2013-02-04 19:37:00,57.4,36.8,30.09,SSE,158,0.0,0.0,46,0.00,,---,0.00,VWS V14.01,2013-02-05 00:37:00,
2013-02-04 19:38:00,64.6,35.6,30.09,ENE,68,0.0,0.0,34,0.00,,---,0.00,VWS V14.01,2013-02-05 00:38:00,
2013-02-04 19:39:00,64.6,35.6,30.09,ENE,68,0.0,0.0,34,0.00,,---,0.00,VWS V14.01,2013-02-05 00:39:00,
2013-02-04 19:40:00,64.4,36.2,30.09,East,90,0.0,0.0,35,0.00,,---,0.00,VWS V14.01,2013-02-05 00:40:00,
2013-02-04 19:41:00,64.4,36.2,30.09,ENE,68,0.0,0.0,35,0.00,,---,0.00,VWS V14.01,2013-02-05 00:41:00,
2013-02-04 19:42:00,56.8,36.8,30.09,SSE,158,0.0,0.0,47,0.00,,---,0.00,VWS V14.01,2013-02-05 00:42:00,
2013-02-04 19:43:00,64.2,36.0,30.09,NE,45,0.0,0.0,35,0.00,,---,0.00,VWS V14.01,2013-02-05 00:43:00,
2013-02-04 19:44:00,64.2,36.0,30.09,ENE,68,0.0,0.0,35,0.00,,---,0.00,VWS V14.01,2013-02-05 00:44:00,
2013-02-04 19:45:00,64.0,35.9,30.09,ENE,68,0.0,0.0,35,0.00,,---,0.00,VWS V14.01,2013-02-05 00:45:00,
2013-02-04 19:46:00,64.0,35.9,30.09,ENE,68,0.0,0.0,35,0.00,,---,0.00,VWS V14.01,2013-02-05 00:46:00,
2013-02-04 19:47:00,56.3,36.3,30.09,SSE,158,0.0,0.0,47,0.00,,---,0.00,VWS V14.01,2013-02-05 00:47:00,
2013-02-04 19:48:00,63.9,35.7,30.09,ENE,68,0.0,0.0,35,0.00,,---,0.00,VWS V14.01,2013-02-05 00:48:00,
2013-02-04 19:49:00,63.7,35.5,30.09,ENE,68,0.0,0.0,35,0.00,,---,0.00,VWS V14.01,2013-02-05 00:49:00,
2013-02-04 19:50:00,63.7,35.5,30.09,ENE,68,0.0,0.0,35,0.00,,---,0.00,VWS V14.01,2013-02-05 00:50:00,
2013-02-04 19:51:00,63.7,36.2,30.09,ENE,68,0.0,0.0,36,0.00,,---,0.00,VWS V14.01,2013-02-05 00:51:00,
2013-02-04 19:52:00,55.8,36.4,30.09,SSE,158,0.0,0.0,48,0.00,,---,0.00,VWS V14.01,2013-02-05 00:52:00,
2013-02-04 19:53:00,63.5,36.1,30.09,ENE,68,0.0,0.0,36,0.00,,---,0.00,VWS V14.01,2013-02-05 00:53:00,
2013-02-04 19:54:00,63.5,36.1,30.09,ENE,68,0.0,0.0,36,0.00,,---,0.00,VWS V14.01,2013-02-05 00:54:00,
2013-02-04 19:55:00,63.5,36.1,30.09,ENE,68,0.0,0.0,36,0.00,,---,0.00,VWS V14.01,2013-02-05 00:55:00,
2013-02-04 19:56:00,63.5,36.1,30.09,NE,45,0.0,0.0,36,0.00,,---,0.00,VWS V14.01,2013-02-05 00:56:00,
2013-02-04 19:57:00,55.4,36.6,30.09,SSE,158,0.0,0.0,49,0.00,,---,0.00,VWS V14.01,2013-02-05 00:57:00,
2013-02-04 19:58:00,63.3,35.9,30.09,NE,45,0.0,0.0,36,0.00,,---,0.00,VWS V14.01,2013-02-05 00:58:00,
2013-02-04 19:59:00,63.1,35.8,30.09,NE,45,0.0,0.0,36,0.00,,---,0.00,VWS V14.01,2013-02-05 00:59:00,
2013-02-04 20:00:00,63.1,35.8,30.09,NE,45,0.0,0.0,36,0.00,,---,0.00,VWS V14.01,2013-02-05 01:00:00,
2013-02-04 20:01:00,63.1,35.8,30.09,NE,45,0.0,0.0,36,0.00,,---,0.00,VWS V14.01,2013-02-05 01:01:00,
2013-02-04 20:02:00,55.0,36.2,30.09,SSE,158,0.0,0.0,49,0.00,,---,0.00,VWS V14.01,2013-02-05 01:02:00,
2013-02-04 20:03:00,63.0,35.6,30.09,NE,45,0.0,0.0,36,0.00,,---,0.00,VWS V14.01,2013-02-05 01:03:00,
2013-02-04 20:04:00,62.8,35.5,30.09,NE,45,0.0,0.0,36,0.00,,---,0.00,VWS V14.01,2013-02-05 01:04:00,
2013-02-04 20:05:00,62.8,35.5,30.09,NE,45,0.0,0.0,36,0.00,,---,0.00,VWS V14.01,2013-02-05 01:05:00,
2013-02-04 20:06:00,62.6,35.3,30.09,NE,45,0.0,0.0,36,0.00,,---,0.00,VWS V14.01,2013-02-05 01:06:00,
2013-02-04 20:07:00,54.5,36.3,30.09,SSE,158,0.0,0.0,50,0.00,,---,0.00,VWS V14.01,2013-02-05 01:07:00,
2013-02-04 20:08:00,62.6,35.3,30.09,NE,45,0.0,0.0,36,0.00,,---,0.00,VWS V14.01,2013-02-05 01:08:00,
2013-02-04 20:09:00,62.4,35.8,30.09,NE,45,0.0,0.0,37,0.00,,---,0.00,VWS V14.01,2013-02-05 01:09:00,
2013-02-04 20:10:00,62.4,35.8,30.09,NE,45,0.0,0.0,37,0.00,,---,0.00,VWS V14.01,2013-02-05 01:10:00,
2013-02-04 20:11:00,62.2,36.3,30.09,NE,45,0.0,0.0,38,0.00,,---,0.00,VWS V14.01,2013-02-05 01:11:00,
2013-02-04 20:12:00,54.1,36.4,30.09,SSE,158,0.0,0.0,51,0.00,,---,0.00,VWS V14.01,2013-02-05 01:12:00,
2013-02-04 20:13:00,62.1,36.2,30.09,NE,45,0.0,0.0,38,0.00,,---,0.00,VWS V14.01,2013-02-05 01:13:00,
2013-02-04 20:14:00,62.1,36.2,30.09,NE,45,0.0,0.0,38,0.00,,---,0.00,VWS V14.01,2013-02-05 01:14:00,
2013-02-04 20:15:00,62.1,36.2,30.09,NE,45,0.0,0.0,38,0.00,,---,0.00,VWS V14.01,2013-02-05 01:15:00,
2013-02-04 20:16:00,61.9,36.0,30.09,NE,45,0.0,0.0,38,0.00,,---,0.00,VWS V14.01,2013-02-05 01:16:00,
2013-02-04 20:17:00,53.8,36.6,30.09,SSE,158,0.0,0.0,52,0.00,,---,0.00,VWS V14.01,2013-02-05 01:17:00,
2013-02-04 20:18:00,61.7,35.9,30.09,NE,45,0.0,0.0,38,0.00,,---,0.00,VWS V14.01,2013-02-05 01:18:00,
2013-02-04 20:19:00,61.7,35.9,30.09,NE,45,0.0,0.0,38,0.00,,---,0.00,VWS V14.01,2013-02-05 01:19:00,
2013-02-04 20:20:00,61.5,35.7,30.09,NE,45,0.0,0.0,38,0.00,,---,0.00,VWS V14.01,2013-02-05 01:20:00,
2013-02-04 20:21:00,61.3,35.5,30.09,NE,45,0.0,0.0,38,0.00,,---,0.00,VWS V14.01,2013-02-05 01:21:00,
2013-02-04 20:22:00,53.2,36.6,30.09,SSE,158,0.0,0.0,53,0.00,,---,0.00,VWS V14.01,2013-02-05 01:22:00,
2013-02-04 20:23:00,61.2,35.4,30.09,SSE,158,0.0,0.0,38,0.00,,---,0.00,VWS V14.01,2013-02-05 01:23:00,
2013-02-04 20:24:00,61.0,35.2,30.09,SSE,158,0.0,0.0,38,0.00,,---,0.00,VWS V14.01,2013-02-05 01:24:00,
2013-02-04 20:25:00,61.0,35.9,30.09,SSE,158,0.0,0.0,39,0.00,,---,0.00,VWS V14.01,2013-02-05 01:25:00,
2013-02-04 20:26:00,60.8,35.7,30.09,SSE,158,0.0,0.0,39,0.00,,---,0.00,VWS V14.01,2013-02-05 01:26:00,
2013-02-04 20:27:00,52.7,36.5,30.09,SSE,158,0.0,0.0,54,0.00,,---,0.00,VWS V14.01,2013-02-05 01:27:00,
2013-02-04 20:28:00,60.4,36.0,30.09,SSE,158,0.0,0.0,40,0.00,,---,0.00,VWS V14.01,2013-02-05 01:28:00,
2013-02-04 20:29:00,60.4,36.0,30.09,SSE,158,0.0,0.0,40,0.00,,---,0.00,VWS V14.01,2013-02-05 01:29:00,
2013-02-04 20:30:00,60.3,35.9,30.09,SSE,158,0.0,0.0,40,0.00,,---,0.00,VWS V14.01,2013-02-05 01:30:00,
2013-02-04 20:31:00,60.3,35.9,30.09,SSE,158,0.0,0.0,40,0.00,,---,0.00,VWS V14.01,2013-02-05 01:31:00,
2013-02-04 20:32:00,52.5,36.4,30.09,SSE,158,0.0,0.0,54,0.00,,---,0.00,VWS V14.01,2013-02-05 01:32:00,
2013-02-04 20:33:00,60.1,35.7,30.09,SSE,158,0.0,0.0,40,0.00,,---,0.00,VWS V14.01,2013-02-05 01:33:00,
2013-02-04 20:34:00,59.9,36.2,30.09,SSE,158,0.0,0.0,41,0.00,,---,0.00,VWS V14.01,2013-02-05 01:34:00,
2013-02-04 20:35:00,59.5,35.8,30.09,SSE,158,0.0,0.0,41,0.00,,---,0.00,VWS V14.01,2013-02-05 01:35:00,
2013-02-04 20:36:00,59.5,35.8,30.09,SSE,158,0.0,0.0,41,0.00,,---,0.00,VWS V14.01,2013-02-05 01:36:00,
2013-02-04 20:37:00,52.2,36.0,30.09,NE,45,0.0,0.0,54,0.00,,---,0.00,VWS V14.01,2013-02-05 01:37:00,
2013-02-04 20:38:00,59.4,36.3,30.09,SSE,158,0.0,0.0,42,0.00,,---,0.00,VWS V14.01,2013-02-05 01:38:00,
2013-02-04 20:39:00,59.2,36.1,30.09,SSE,158,0.0,0.0,42,0.00,,---,0.00,VWS V14.01,2013-02-05 01:39:00,
2013-02-04 20:40:00,59.2,36.1,30.09,SSE,158,0.0,0.0,42,0.00,,---,0.00,VWS V14.01,2013-02-05 01:40:00,
2013-02-04 20:41:00,59.0,36.6,30.09,SSE,158,0.0,0.0,43,0.00,,---,0.00,VWS V14.01,2013-02-05 01:41:00,
2013-02-04 20:42:00,52.2,37.0,30.09,NE,45,0.0,0.0,56,0.00,,---,0.00,VWS V14.01,2013-02-05 01:42:00,
2013-02-04 20:43:00,58.8,36.4,30.09,SSE,158,0.0,0.0,43,0.00,,---,0.00,VWS V14.01,2013-02-05 01:43:00,
2013-02-04 20:44:00,58.6,36.2,30.09,SSE,158,0.0,0.0,43,0.00,,---,0.00,VWS V14.01,2013-02-05 01:44:00,
2013-02-04 20:45:00,58.6,36.2,30.09,SSE,158,0.0,0.0,43,0.00,,---,0.00,VWS V14.01,2013-02-05 01:45:00,
2013-02-04 20:46:00,58.5,36.1,30.09,SSE,158,0.0,0.0,43,0.00,,---,0.00,VWS V14.01,2013-02-05 01:46:00,
2013-02-04 20:47:00,51.6,36.5,30.09,SSE,158,0.0,0.0,56,0.00,,---,0.00,VWS V14.01,2013-02-05 01:47:00,
2013-02-04 20:48:00,58.5,36.7,30.09,SSE,158,0.0,0.0,44,0.00,,---,0.00,VWS V14.01,2013-02-05 01:48:00,
2013-02-04 20:49:00,58.3,36.5,30.09,SSE,158,0.0,0.0,44,0.00,,---,0.00,VWS V14.01,2013-02-05 01:49:00,
2013-02-04 20:50:00,58.1,36.3,30.09,SSE,158,0.0,0.0,44,0.00,,---,0.00,VWS V14.01,2013-02-05 01:50:00,
2013-02-04 20:51:00,58.1,36.3,30.09,SSE,158,0.0,0.0,44,0.00,,---,0.00,VWS V14.01,2013-02-05 01:51:00,
2013-02-04 20:52:00,51.4,37.2,30.09,SSE,158,0.0,0.0,58,0.00,,---,0.00,VWS V14.01,2013-02-05 01:52:00,
2013-02-04 20:53:00,58.1,36.3,30.09,SSE,158,0.0,0.0,44,0.00,,---,0.00,VWS V14.01,2013-02-05 01:53:00,
2013-02-04 20:54:00,58.1,36.3,30.09,SSE,158,0.0,0.0,44,0.00,,---,0.00,VWS V14.01,2013-02-05 01:54:00,
2013-02-04 20:55:00,57.9,36.2,30.09,SSE,158,0.0,0.0,44,0.00,,---,0.00,VWS V14.01,2013-02-05 01:55:00,
2013-02-04 20:56:00,57.9,36.2,30.09,SSE,158,0.0,0.0,44,0.00,,---,0.00,VWS V14.01,2013-02-05 01:56:00,
2013-02-04 20:57:00,50.9,37.1,30.09,SSE,158,0.0,0.0,59,0.00,,---,0.00,VWS V14.01,2013-02-05 01:57:00,
2013-02-04 20:58:00,57.9,36.2,30.09,SSE,158,0.0,0.0,44,0.00,,---,0.00,VWS V14.01,2013-02-05 01:58:00,
2013-02-04 20:59:00,57.7,36.0,30.09,SSE,158,0.0,0.0,44,0.00,,---,0.00,VWS V14.01,2013-02-05 01:59:00,
2013-02-04 21:00:00,57.7,36.0,30.09,SSE,158,0.0,0.0,44,0.00,,---,0.00,VWS V14.01,2013-02-05 02:00:00,
2013-02-04 21:01:00,57.7,36.6,30.09,SSE,158,0.0,0.0,45,0.00,,---,0.00,VWS V14.01,2013-02-05 02:01:00,
2013-02-04 21:02:00,50.7,37.4,30.09,SSE,158,0.0,0.0,60,0.00,,---,0.00,VWS V14.01,2013-02-05 02:02:00,
2013-02-04 21:03:00,57.7,36.6,30.09,SSE,158,0.0,0.0,45,0.00,,---,0.00,VWS V14.01,2013-02-05 02:03:00,
2013-02-04 21:04:00,57.6,36.4,30.09,SSE,158,0.0,0.0,45,0.00,,---,0.00,VWS V14.01,2013-02-05 02:04:00,
2013-02-04 21:05:00,57.4,36.8,30.09,SSE,158,0.0,0.0,46,0.00,,---,0.00,VWS V14.01,2013-02-05 02:05:00,
2013-02-04 21:06:00,57.2,36.6,30.09,SSE,158,0.0,0.0,46,0.00,,---,0.00,VWS V14.01,2013-02-05 02:06:00,
2013-02-04 21:07:00,50.9,37.1,30.09,NNW,338,0.0,0.0,59,0.00,,---,0.00,VWS V14.01,2013-02-05 02:07:00,
2013-02-04 21:08:00,57.0,36.5,30.09,SSE,158,0.0,0.0,46,0.00,,---,0.00,VWS V14.01,2013-02-05 02:08:00,
2013-02-04 21:09:00,56.8,36.3,30.09,SSE,158,0.0,0.0,46,0.00,,---,0.00,VWS V14.01,2013-02-05 02:09:00,
2013-02-04 21:10:00,56.8,36.8,30.09,SSE,158,0.0,0.0,47,0.00,,---,0.00,VWS V14.01,2013-02-05 02:10:00,
2013-02-04 21:11:00,56.8,36.8,30.09,SSE,158,0.0,0.0,47,0.00,,---,0.00,VWS V14.01,2013-02-05 02:11:00,
2013-02-04 21:12:00,50.5,38.0,30.09,NNW,338,0.0,0.0,62,0.00,,---,0.00,VWS V14.01,2013-02-05 02:12:00,
2013-02-04 21:13:00,56.5,36.5,30.09,SSE,158,0.0,0.0,47,0.00,,---,0.00,VWS V14.01,2013-02-05 02:13:00,
2013-02-04 21:14:00,56.3,36.3,30.09,SSE,158,0.0,0.0,47,0.00,,---,0.00,VWS V14.01,2013-02-05 02:14:00,
2013-02-04 21:15:00,56.3,36.3,30.09,SSE,158,0.0,0.0,47,0.00,,---,0.00,VWS V14.01,2013-02-05 02:15:00,
2013-02-04 21:16:00,56.3,36.3,30.09,SSE,158,0.0,0.0,47,0.00,,---,0.00,VWS V14.01,2013-02-05 02:16:00,
2013-02-04 21:17:00,50.9,39.6,30.09,NNW,338,0.0,0.0,65,0.00,,---,0.00,VWS V14.01,2013-02-05 02:17:00,
2013-02-04 21:18:00,55.9,36.5,30.09,SSE,158,0.0,0.0,48,0.00,,---,0.00,VWS V14.01,2013-02-05 02:18:00,
2013-02-04 21:19:00,55.9,36.5,30.09,SSE,158,0.0,0.0,48,0.00,,---,0.00,VWS V14.01,2013-02-05 02:19:00,
2013-02-04 21:20:00,55.8,36.4,30.09,SSE,158,0.0,0.0,48,0.00,,---,0.00,VWS V14.01,2013-02-05 02:20:00,
2013-02-04 21:21:00,55.8,36.4,30.09,SSE,158,0.0,0.0,48,0.00,,---,0.00,VWS V14.01,2013-02-05 02:21:00,
2013-02-04 21:22:00,50.4,39.8,30.09,NNW,338,0.0,0.0,67,0.00,,---,0.00,VWS V14.01,2013-02-05 02:22:00,
2013-02-04 21:23:00,55.6,36.2,30.09,SSE,158,0.0,0.0,48,0.00,,---,0.00,VWS V14.01,2013-02-05 02:23:00,
2013-02-04 21:24:00,55.4,36.1,30.09,SSE,158,0.0,0.0,48,0.00,,---,0.00,VWS V14.01,2013-02-05 02:24:00,
2013-02-04 21:25:00,55.4,36.6,30.09,SSE,158,0.0,0.0,49,0.00,,---,0.00,VWS V14.01,2013-02-05 02:25:00,
2013-02-04 21:26:00,55.4,36.6,30.09,SSE,158,0.0,0.0,49,0.00,,---,0.00,VWS V14.01,2013-02-05 02:26:00,
2013-02-04 21:27:00,50.2,40.0,30.09,NNW,338,0.0,0.0,68,0.00,,---,0.00,VWS V14.01,2013-02-05 02:27:00,
2013-02-04 21:28:00,55.2,36.4,30.09,SSE,158,0.0,0.0,49,0.00,,---,0.00,VWS V14.01,2013-02-05 02:28:00,
2013-02-04 21:29:00,55.2,36.4,30.09,SSE,158,0.0,0.0,49,0.00,,---,0.00,VWS V14.01,2013-02-05 02:29:00,
2013-02-04 21:30:00,55.0,36.2,30.09,SSE,158,0.0,0.0,49,0.00,,---,0.00,VWS V14.01,2013-02-05 02:30:00,
2013-02-04 21:31:00,55.0,36.2,30.09,SSE,158,0.0,0.0,49,0.00,,---,0.00,VWS V14.01,2013-02-05 02:31:00,
2013-02-04 21:32:00,50.0,39.9,30.09,NNW,338,0.0,0.0,68,0.00,,---,0.00,VWS V14.01,2013-02-05 02:32:00,
2013-02-04 21:33:00,54.9,36.6,30.09,SSE,158,0.0,0.0,50,0.00,,---,0.00,VWS V14.01,2013-02-05 02:33:00,
2013-02-04 21:34:00,54.7,36.4,30.09,SSE,158,0.0,0.0,50,0.00,,---,0.00,VWS V14.01,2013-02-05 02:34:00,
2013-02-04 21:35:00,54.5,36.3,30.09,SSE,158,0.0,0.0,50,0.00,,---,0.00,VWS V14.01,2013-02-05 02:35:00,
2013-02-04 21:36:00,54.5,36.3,30.09,SSE,158,0.0,0.0,50,0.00,,---,0.00,VWS V14.01,2013-02-05 02:36:00,
2013-02-04 21:37:00,49.6,39.5,30.06,NNW,338,0.0,0.0,68,0.00,,---,0.00,VWS V14.01,2013-02-05 02:37:00,
2013-02-04 21:38:00,54.3,36.1,30.09,SSE,158,0.0,0.0,50,0.00,,---,0.00,VWS V14.01,2013-02-05 02:38:00,
2013-02-04 21:40:00,54.1,35.9,30.09,SSE,158,0.0,0.0,50,0.00,,---,0.00,VWS V14.01,2013-02-05 02:40:00,
2013-02-04 21:41:00,54.1,36.4,30.09,SSE,158,0.0,0.0,51,0.00,,---,0.00,VWS V14.01,2013-02-05 02:41:00,
2013-02-04 21:42:00,49.3,39.5,30.06,WSW,248,0.0,0.0,69,0.00,,---,0.00,VWS V14.01,2013-02-05 02:42:00,
2013-02-04 21:43:00,53.8,36.1,30.09,SSE,158,0.0,0.0,51,0.00,,---,0.00,VWS V14.01,2013-02-05 02:43:00,
2013-02-04 21:44:00,53.8,36.1,30.09,SSE,158,0.0,0.0,51,0.00,,---,0.00,VWS V14.01,2013-02-05 02:44:00,
2013-02-04 21:45:00,53.8,36.6,30.09,SSE,158,0.0,0.0,52,0.00,,---,0.00,VWS V14.01,2013-02-05 02:45:00,
2013-02-04 21:46:00,53.6,36.4,30.09,SSE,158,0.0,0.0,52,0.00,,---,0.00,VWS V14.01,2013-02-05 02:46:00,
2013-02-04 21:47:00,48.9,39.2,30.06,WSW,248,0.0,0.0,69,0.00,,---,0.00,VWS V14.01,2013-02-05 02:47:00,
2013-02-04 21:48:00,53.4,36.2,30.09,SSE,158,0.0,0.0,52,0.00,,---,0.00,VWS V14.01,2013-02-05 02:48:00,
2013-02-04 21:49:00,53.4,36.7,30.09,SSE,158,0.0,0.0,53,0.00,,---,0.00,VWS V14.01,2013-02-05 02:49:00,
2013-02-04 21:50:00,53.2,36.6,30.09,SSE,158,0.0,0.0,53,0.00,,---,0.00,VWS V14.01,2013-02-05 02:50:00,
2013-02-04 21:51:00,53.1,36.9,30.09,SSE,158,0.0,0.0,54,0.00,,---,0.00,VWS V14.01,2013-02-05 02:51:00,
2013-02-04 21:52:00,48.9,39.9,30.12,WSW,248,0.0,0.0,71,0.00,,---,0.00,VWS V14.01,2013-02-05 02:52:00,
2013-02-04 21:53:00,53.1,36.9,30.09,SSE,158,0.0,0.0,54,0.00,,---,0.00,VWS V14.01,2013-02-05 02:53:00,
2013-02-04 21:54:00,52.9,36.7,30.09,SSE,158,0.0,0.0,54,0.00,,---,0.00,VWS V14.01,2013-02-05 02:54:00,
2013-02-04 21:55:00,52.9,36.7,30.09,SSE,158,0.0,0.0,54,0.00,,---,0.00,VWS V14.01,2013-02-05 02:55:00,
2013-02-04 21:56:00,52.7,36.5,30.09,SSE,158,0.0,0.0,54,0.00,,---,0.00,VWS V14.01,2013-02-05 02:56:00,
2013-02-04 21:57:00,48.6,39.6,30.12,WSW,248,0.0,0.0,71,0.00,,---,0.00,VWS V14.01,2013-02-05 02:57:00,
2013-02-04 21:58:00,52.7,36.5,30.09,SSE,158,0.0,0.0,54,0.00,,---,0.00,VWS V14.01,2013-02-05 02:58:00,
2013-02-04 21:59:00,52.5,36.4,30.09,SSE,158,0.0,0.0,54,0.00,,---,0.00,VWS V14.01,2013-02-05 02:59:00,
2013-02-04 22:00:00,52.5,36.4,30.09,SSE,158,0.0,0.0,54,0.00,,---,0.00,VWS V14.01,2013-02-05 03:00:00,
2013-02-04 22:01:00,52.3,35.7,30.09,SSE,158,0.0,0.0,53,0.00,,---,0.00,VWS V14.01,2013-02-05 03:01:00,
2013-02-04 22:02:00,48.4,39.8,30.12,WSW,248,0.0,0.0,72,0.00,,---,0.00,VWS V14.01,2013-02-05 03:02:00,
2013-02-04 22:03:00,52.3,35.7,30.09,NE,45,0.0,0.0,53,0.00,,---,0.00,VWS V14.01,2013-02-05 03:03:00,
2013-02-04 22:04:00,52.3,36.2,30.09,NE,45,0.0,0.0,54,0.00,,---,0.00,VWS V14.01,2013-02-05 03:04:00,
2013-02-04 22:05:00,52.2,36.0,30.09,NE,45,0.0,0.0,54,0.00,,---,0.00,VWS V14.01,2013-02-05 03:05:00,
2013-02-04 22:06:00,52.2,36.5,30.09,NE,45,0.0,0.0,55,0.00,,---,0.00,VWS V14.01,2013-02-05 03:06:00,
2013-02-04 22:07:00,48.0,39.4,30.09,WSW,248,0.0,0.0,72,0.00,,---,0.00,VWS V14.01,2013-02-05 03:07:00,
2013-02-04 22:08:00,52.2,36.5,30.09,NE,45,0.0,0.0,55,0.00,,---,0.00,VWS V14.01,2013-02-05 03:08:00,
2013-02-04 22:09:00,52.2,37.0,30.09,NE,45,0.0,0.0,56,0.00,,---,0.00,VWS V14.01,2013-02-05 03:09:00,
2013-02-04 22:10:00,52.2,37.0,30.09,NE,45,0.0,0.0,56,0.00,,---,0.00,VWS V14.01,2013-02-05 03:10:00,
2013-02-04 22:11:00,52.2,37.0,30.09,NE,45,0.0,0.0,56,0.00,,---,0.00,VWS V14.01,2013-02-05 03:11:00,
2013-02-04 22:12:00,48.2,39.6,30.09,WSW,248,0.0,0.0,72,0.00,,---,0.00,VWS V14.01,2013-02-05 03:12:00,
2013-02-04 22:13:00,51.8,36.6,30.09,ENE,68,0.0,0.0,56,0.00,,---,0.00,VWS V14.01,2013-02-05 03:13:00,
2013-02-04 22:14:00,51.8,36.6,30.09,SSE,158,0.0,0.0,56,0.00,,---,0.00,VWS V14.01,2013-02-05 03:14:00,
2013-02-04 22:15:00,51.6,36.5,30.09,SSE,158,0.0,0.0,56,0.00,,---,0.00,VWS V14.01,2013-02-05 03:15:00,
2013-02-04 22:16:00,51.6,36.5,30.09,SSE,158,0.0,0.0,56,0.00,,---,0.00,VWS V14.01,2013-02-05 03:16:00,
2013-02-04 22:17:00,47.7,39.4,30.09,WSW,248,0.0,0.0,73,0.00,,---,0.00,VWS V14.01,2013-02-05 03:17:00,
2013-02-04 22:18:00,51.6,36.5,30.09,SSE,158,0.0,0.0,56,0.00,,---,0.00,VWS V14.01,2013-02-05 03:18:00,
2013-02-04 22:19:00,51.6,36.5,30.09,SSE,158,0.0,0.0,56,0.00,,---,0.00,VWS V14.01,2013-02-05 03:19:00,
2013-02-04 22:20:00,51.4,37.2,30.09,SSE,158,0.0,0.0,58,0.00,,---,0.00,VWS V14.01,2013-02-05 03:20:00,
2013-02-04 22:21:00,51.3,37.0,30.09,SSE,158,0.0,0.0,58,0.00,,---,0.00,VWS V14.01,2013-02-05 03:21:00,
2013-02-04 22:22:00,47.7,39.4,30.09,WSW,248,0.0,0.0,73,0.00,,---,0.00,VWS V14.01,2013-02-05 03:22:00,
2013-02-04 22:23:00,51.1,37.3,30.09,SSE,158,0.0,0.0,59,0.00,,---,0.00,VWS V14.01,2013-02-05 03:23:00,
2013-02-04 22:24:00,51.1,37.3,30.09,SSE,158,0.0,0.0,59,0.00,,---,0.00,VWS V14.01,2013-02-05 03:24:00,
2013-02-04 22:25:00,50.9,37.1,30.09,SSE,158,0.0,0.0,59,0.00,,---,0.00,VWS V14.01,2013-02-05 03:25:00,
2013-02-04 22:26:00,50.9,37.1,30.09,SSE,158,0.0,0.0,59,0.00,,---,0.00,VWS V14.01,2013-02-05 03:26:00,
2013-02-04 22:27:00,47.5,39.6,30.09,WSW,248,0.0,0.0,74,0.00,,---,0.00,VWS V14.01,2013-02-05 03:27:00,
2013-02-04 22:28:00,50.7,36.9,30.09,SSE,158,0.0,0.0,59,0.00,,---,0.00,VWS V14.01,2013-02-05 03:28:00,
2013-02-04 22:29:00,50.7,37.4,30.09,SSE,158,0.0,0.0,60,0.00,,---,0.00,VWS V14.01,2013-02-05 03:29:00,
2013-02-04 22:30:00,50.7,37.4,30.09,SSE,158,0.0,0.0,60,0.00,,---,0.00,VWS V14.01,2013-02-05 03:30:00,
2013-02-04 22:31:00,50.7,36.9,30.09,SSE,158,0.0,0.0,59,0.00,,---,0.00,VWS V14.01,2013-02-05 03:31:00,
2013-02-04 22:32:00,47.3,39.5,30.09,WSW,248,0.0,0.0,74,0.00,,---,0.00,VWS V14.01,2013-02-05 03:32:00,
2013-02-04 22:33:00,50.9,36.7,30.09,NNW,338,0.0,0.0,58,0.00,,---,0.00,VWS V14.01,2013-02-05 03:33:00,
2013-02-04 22:34:00,50.9,36.7,30.09,NNW,338,0.0,0.0,58,0.00,,---,0.00,VWS V14.01,2013-02-05 03:34:00,
2013-02-04 22:35:00,50.9,37.1,30.09,NNW,338,0.0,0.0,59,0.00,,---,0.00,VWS V14.01,2013-02-05 03:35:00,
2013-02-04 22:36:00,50.9,37.5,30.09,NNW,338,0.0,0.0,60,0.00,,---,0.00,VWS V14.01,2013-02-05 03:36:00,
2013-02-04 22:37:00,47.1,39.3,30.06,WSW,248,0.0,0.0,74,0.00,,---,0.00,VWS V14.01,2013-02-05 03:37:00,
2013-02-04 22:38:00,50.9,38.0,30.09,NNW,338,0.0,0.0,61,0.00,,---,0.00,VWS V14.01,2013-02-05 03:38:00,
2013-02-04 22:39:00,50.7,37.8,30.09,NNW,338,0.0,0.0,61,0.00,,---,0.00,VWS V14.01,2013-02-05 03:39:00,
2013-02-04 22:40:00,50.7,37.8,30.09,NNW,338,0.0,0.0,61,0.00,,---,0.00,VWS V14.01,2013-02-05 03:40:00,
2013-02-04 22:41:00,50.5,38.0,30.09,NNW,338,0.0,0.0,62,0.00,,---,0.00,VWS V14.01,2013-02-05 03:41:00,
2013-02-04 22:42:00,46.8,39.3,30.06,WSW,248,0.0,0.0,75,0.00,,---,0.00,VWS V14.01,2013-02-05 03:42:00,
2013-02-04 22:43:00,50.7,38.6,30.09,NNW,338,0.0,0.0,63,0.00,,---,0.00,VWS V14.01,2013-02-05 03:43:00,
2013-02-04 22:44:00,50.9,39.6,30.09,NNW,338,0.0,0.0,65,0.00,,---,0.00,VWS V14.01,2013-02-05 03:44:00,
2013-02-04 22:45:00,50.9,39.6,30.09,NNW,338,0.0,0.0,65,0.00,,---,0.00,VWS V14.01,2013-02-05 03:45:00,
2013-02-04 22:46:00,50.9,40.0,30.09,NNW,338,0.0,0.0,66,0.00,,---,0.00,VWS V14.01,2013-02-05 03:46:00,
2013-02-04 22:47:00,46.4,38.9,30.06,SSW,202,0.0,0.0,75,0.00,,---,0.00,VWS V14.01,2013-02-05 03:47:00,
2013-02-04 22:48:00,50.7,39.8,30.09,NNW,338,0.0,0.0,66,0.00,,---,0.00,VWS V14.01,2013-02-05 03:48:00,
2013-02-04 22:49:00,50.5,39.6,30.09,NNW,338,0.0,0.0,66,0.00,,---,0.00,VWS V14.01,2013-02-05 03:49:00,
2013-02-04 22:50:00,50.5,40.0,30.09,NNW,338,0.0,0.0,67,0.00,,---,0.00,VWS V14.01,2013-02-05 03:50:00,
2013-02-04 22:51:00,50.2,39.7,30.09,NNW,338,0.0,0.0,67,0.00,,---,0.00,VWS V14.01,2013-02-05 03:51:00,
2013-02-04 22:52:00,46.4,39.3,30.09,SSW,202,0.0,0.0,76,0.00,,---,0.00,VWS V14.01,2013-02-05 03:52:00,
2013-02-04 22:53:00,50.4,39.8,30.09,NNW,338,0.0,0.0,67,0.00,,---,0.00,VWS V14.01,2013-02-05 03:53:00,
2013-02-04 22:54:00,50.2,39.7,30.09,NNW,338,0.0,0.0,67,0.00,,---,0.00,VWS V14.01,2013-02-05 03:54:00,
2013-02-04 22:55:00,50.2,39.7,30.09,NNW,338,0.0,0.0,67,0.00,,---,0.00,VWS V14.01,2013-02-05 03:55:00,
2013-02-04 22:56:00,50.2,40.0,30.09,NNW,338,0.0,0.0,68,0.00,,---,0.00,VWS V14.01,2013-02-05 03:56:00,
2013-02-04 22:57:00,46.0,39.2,30.09,West,270,0.0,0.0,77,0.00,,---,0.00,VWS V14.01,2013-02-05 03:57:00,
2013-02-04 22:58:00,50.2,39.3,30.09,NNW,338,0.0,0.0,66,0.00,,---,0.00,VWS V14.01,2013-02-05 03:58:00,
2013-02-04 22:59:00,50.2,39.3,30.09,NNW,338,0.0,0.0,66,0.00,,---,0.00,VWS V14.01,2013-02-05 03:59:00,
2013-02-04 23:00:00,50.0,39.9,30.09,NNW,338,0.0,0.0,68,0.00,,---,0.00,VWS V14.01,2013-02-05 04:00:00,
2013-02-04 23:01:00,49.8,39.7,30.09,NNW,338,0.0,0.0,68,0.00,,---,0.00,VWS V14.01,2013-02-05 04:01:00,
2013-02-04 23:02:00,45.9,39.1,30.09,West,270,0.0,0.0,77,0.00,,---,0.00,VWS V14.01,2013-02-05 04:02:00,
2013-02-04 23:03:00,49.8,39.7,30.06,NNW,338,0.0,0.0,68,0.00,,---,0.00,VWS V14.01,2013-02-05 04:03:00,
2013-02-04 23:04:00,49.8,39.7,30.06,NNW,338,0.0,0.0,68,0.00,,---,0.00,VWS V14.01,2013-02-05 04:04:00,
2013-02-04 23:05:00,49.6,39.5,30.06,NNW,338,0.0,0.0,68,0.00,,---,0.00,VWS V14.01,2013-02-05 04:05:00,
2013-02-04 23:06:00,49.6,39.5,30.06,NNW,338,0.0,0.0,68,0.00,,---,0.00,VWS V14.01,2013-02-05 04:06:00,
2013-02-04 23:07:00,45.9,39.1,30.09,West,270,0.0,0.0,77,0.00,,---,0.00,VWS V14.01,2013-02-05 04:07:00,
2013-02-04 23:08:00,49.3,39.5,30.06,NNW,338,0.0,0.0,69,0.00,,---,0.00,VWS V14.01,2013-02-05 04:08:00,
2013-02-04 23:09:00,49.3,39.5,30.06,NNW,338,0.0,0.0,69,0.00,,---,0.00,VWS V14.01,2013-02-05 04:09:00,
2013-02-04 23:10:00,49.3,39.5,30.06,NNW,338,0.0,0.0,69,0.00,,---,0.00,VWS V14.01,2013-02-05 04:10:00,
2013-02-04 23:11:00,49.3,39.5,30.06,WSW,248,0.0,0.0,69,0.00,,---,0.00,VWS V14.01,2013-02-05 04:11:00,
2013-02-04 23:12:00,45.5,39.0,30.09,West,270,0.0,0.0,78,0.00,,---,0.00,VWS V14.01,2013-02-05 04:12:00,
2013-02-04 23:13:00,49.1,39.4,30.06,WSW,248,0.0,0.0,69,0.00,,---,0.00,VWS V14.01,2013-02-05 04:13:00,
2013-02-04 23:14:00,48.9,39.2,30.06,WSW,248,0.0,0.0,69,0.00,,---,0.00,VWS V14.01,2013-02-05 04:14:00,
2013-02-04 23:15:00,48.9,39.2,30.06,WSW,248,0.0,0.0,69,0.00,,---,0.00,VWS V14.01,2013-02-05 04:15:00,
2013-02-04 23:16:00,48.9,39.2,30.06,WSW,248,0.0,0.0,69,0.00,,---,0.00,VWS V14.01,2013-02-05 04:16:00,
2013-02-04 23:17:00,45.5,39.4,30.09,West,270,0.0,0.0,79,0.00,,---,0.00,VWS V14.01,2013-02-05 04:17:00,
2013-02-04 23:18:00,48.9,39.6,30.12,WSW,248,0.0,0.0,70,0.00,,---,0.00,VWS V14.01,2013-02-05 04:18:00,
2013-02-04 23:19:00,48.9,39.6,30.12,WSW,248,0.0,0.0,70,0.00,,---,0.00,VWS V14.01,2013-02-05 04:19:00,
2013-02-04 23:20:00,48.9,39.6,30.12,WSW,248,0.0,0.0,70,0.00,,---,0.00,VWS V14.01,2013-02-05 04:20:00,
2013-02-04 23:21:00,48.9,39.9,30.12,WSW,248,0.0,0.0,71,0.00,,---,0.00,VWS V14.01,2013-02-05 04:21:00,
2013-02-04 23:22:00,45.3,39.2,30.09,West,270,0.0,0.0,79,0.00,,---,0.00,VWS V14.01,2013-02-05 04:22:00,
2013-02-04 23:23:00,48.7,39.8,30.12,WSW,248,0.0,0.0,71,0.00,,---,0.00,VWS V14.01,2013-02-05 04:23:00,
2013-02-04 23:24:00,48.7,39.8,30.12,WSW,248,0.0,0.0,71,0.00,,---,0.00,VWS V14.01,2013-02-05 04:24:00,
2013-02-04 23:25:00,48.6,39.6,30.12,WSW,248,0.0,0.0,71,0.00,,---,0.00,VWS V14.01,2013-02-05 04:25:00,
2013-02-04 23:26:00,48.6,40.0,30.12,WSW,248,0.0,0.0,72,0.00,,---,0.00,VWS V14.01,2013-02-05 04:26:00,
2013-02-04 23:27:00,45.5,38.7,30.09,West,270,0.0,0.0,77,0.00,,---,0.00,VWS V14.01,2013-02-05 04:27:00,
2013-02-04 23:28:00,48.4,39.8,30.12,WSW,248,0.0,0.0,72,0.00,,---,0.00,VWS V14.01,2013-02-05 04:28:00,
2013-02-04 23:29:00,48.4,39.8,30.12,WSW,248,0.0,0.0,72,0.00,,---,0.00,VWS V14.01,2013-02-05 04:29:00,
2013-02-04 23:30:00,48.4,39.8,30.12,WSW,248,0.0,0.0,72,0.00,,---,0.00,VWS V14.01,2013-02-05 04:30:00,
2013-02-04 23:31:00,48.2,39.6,30.12,WSW,248,0.0,0.0,72,0.00,,---,0.00,VWS V14.01,2013-02-05 04:31:00,
2013-02-04 23:32:00,45.3,39.2,30.09,WSW,248,0.0,0.0,79,0.00,,---,0.00,VWS V14.01,2013-02-05 04:32:00,
2013-02-04 23:33:00,48.0,39.4,30.09,WSW,248,0.0,0.0,72,0.00,,---,0.00,VWS V14.01,2013-02-05 04:33:00,
2013-02-04 23:34:00,48.0,39.4,30.09,WSW,248,0.0,0.0,72,0.00,,---,0.00,VWS V14.01,2013-02-05 04:34:00,
2013-02-04 23:35:00,48.0,39.4,30.09,WSW,248,0.0,0.0,72,0.00,,---,0.00,VWS V14.01,2013-02-05 04:35:00,
2013-02-04 23:36:00,48.2,39.2,30.09,WSW,248,0.0,0.0,71,0.00,,---,0.00,VWS V14.01,2013-02-05 04:36:00,
2013-02-04 23:37:00,45.0,38.8,30.09,WSW,248,0.0,0.0,79,0.00,,---,0.00,VWS V14.01,2013-02-05 04:37:00,
2013-02-04 23:38:00,48.2,39.2,30.09,WSW,248,0.0,0.0,71,0.00,,---,0.00,VWS V14.01,2013-02-05 04:38:00,
2013-02-04 23:39:00,48.2,39.6,30.09,WSW,248,0.0,0.0,72,0.00,,---,0.00,VWS V14.01,2013-02-05 04:39:00,
2013-02-04 23:40:00,48.2,39.6,30.09,WSW,248,0.0,0.0,72,0.00,,---,0.00,VWS V14.01,2013-02-05 04:40:00,
2013-02-04 23:41:00,48.0,39.4,30.09,WSW,248,0.0,0.0,72,0.00,,---,0.00,VWS V14.01,2013-02-05 04:41:00,
2013-02-04 23:42:00,44.6,38.8,30.09,WSW,248,0.0,0.0,80,0.00,,---,0.00,VWS V14.01,2013-02-05 04:42:00,
2013-02-04 23:43:00,47.8,39.6,30.09,WSW,248,0.0,0.0,73,0.00,,---,0.00,VWS V14.01,2013-02-05 04:43:00,
2013-02-04 23:44:00,47.7,39.4,30.09,WSW,248,0.0,0.0,73,0.00,,---,0.00,VWS V14.01,2013-02-05 04:44:00,
2013-02-04 23:45:00,47.7,39.4,30.09,WSW,248,0.0,0.0,73,0.00,,---,0.00,VWS V14.01,2013-02-05 04:45:00,
2013-02-04 23:46:00,47.7,39.4,30.09,WSW,248,0.0,0.0,73,0.00,,---,0.00,VWS V14.01,2013-02-05 04:46:00,
2013-02-04 23:47:00,44.6,38.8,30.09,West,270,0.0,0.0,80,0.00,,---,0.00,VWS V14.01,2013-02-05 04:47:00,
2013-02-04 23:48:00,47.7,39.4,30.09,WSW,248,0.0,0.0,73,0.00,,---,0.00,VWS V14.01,2013-02-05 04:48:00,
2013-02-04 23:49:00,47.7,39.4,30.09,WSW,248,0.0,0.0,73,0.00,,---,0.00,VWS V14.01,2013-02-05 04:49:00,
2013-02-04 23:50:00,47.7,39.4,30.09,WSW,248,0.0,0.0,73,0.00,,---,0.00,VWS V14.01,2013-02-05 04:50:00,
2013-02-04 23:51:00,47.7,39.4,30.09,WSW,248,0.0,0.0,73,0.00,,---,0.00,VWS V14.01,2013-02-05 04:51:00,
2013-02-04 23:52:00,44.8,39.0,30.09,West,270,0.0,0.0,80,0.00,,---,0.00,VWS V14.01,2013-02-05 04:52:00,
2013-02-04 23:53:00,47.7,39.8,30.09,WSW,248,0.0,0.0,74,0.00,,---,0.00,VWS V14.01,2013-02-05 04:53:00,
2013-02-04 23:54:00,47.5,39.6,30.09,WSW,248,0.0,0.0,74,0.00,,---,0.00,VWS V14.01,2013-02-05 04:54:00,
2013-02-04 23:55:00,47.5,39.6,30.09,WSW,248,0.0,0.0,74,0.00,,---,0.00,VWS V14.01,2013-02-05 04:55:00,
2013-02-04 23:56:00,47.5,39.6,30.09,WSW,248,0.0,0.0,74,0.00,,---,0.00,VWS V14.01,2013-02-05 04:56:00,
2013-02-04 23:57:00,44.8,39.3,30.09,West,270,0.0,0.0,81,0.00,,---,0.00,VWS V14.01,2013-02-05 04:57:00,
2013-02-04 23:58:00,47.5,39.6,30.09,WSW,248,0.0,0.0,74,0.00,,---,0.00,VWS V14.01,2013-02-05 04:58:00,
2013-02-04 23:59:00,47.3,39.1,30.09,WSW,248,0.0,0.0,73,0.00,,---,0.00,VWS V14.01,2013-02-05 04:59:00,